<?xml version="1.0" encoding="UTF-8"?>
<gpx version="1.1" creator="2bulu-scraper" xmlns="http://www.topografix.com/GPX/1/1">
  <metadata><name>贵州疣螈样地调查（黄河） 10:25:01（胡祖勇，陈娜）</name><desc>source: 2bulu.com trackId=86232405; exported 2026-09-01T18:37:59.856Z</desc>
    <bounds minlat="27.768465" minlon="104.247764" maxlat="27.830256" maxlon="104.352239"/>
    <link href="https://www.2bulu.com/track/t-SmBOWhpto8vp%252FR2KBg5Tzw%253D%253D.htm"><text>2bulu 源页面</text></link>
  </metadata>
  <wpt lat="27.829901" lon="104.328663"><ele>1953</ele><name></name></wpt>
  <wpt lat="27.829863" lon="104.328662"><ele>1950</ele><name>10×10样地</name></wpt>
  <wpt lat="27.829863" lon="104.328662"><ele>1950</ele><name></name></wpt>
  <wpt lat="27.829899" lon="104.328631"><ele>1949</ele><name>2只</name></wpt>
  <wpt lat="27.829899" lon="104.328631"><ele>1949</ele><name></name></wpt>
  <wpt lat="27.829899" lon="104.328631"><ele>1949</ele><name></name></wpt>
  <wpt lat="27.827871" lon="104.33044"><ele>1938</ele><name></name></wpt>
  <wpt lat="27.827884" lon="104.330381"><ele>1936</ele><name></name></wpt>
  <wpt lat="27.827884" lon="104.330381"><ele>1936</ele><name></name></wpt>
  <wpt lat="27.827884" lon="104.330381"><ele>1936</ele><name></name></wpt>
  <wpt lat="27.826282" lon="104.332503"><ele>1925</ele><name></name></wpt>
  <wpt lat="27.82631" lon="104.332458"><ele>1926</ele><name></name></wpt>
  <wpt lat="27.82631" lon="104.332458"><ele>1926</ele><name></name></wpt>
  <wpt lat="27.826282" lon="104.332503"><ele>1924</ele><name></name></wpt>
  <wpt lat="27.826212" lon="104.332563"><ele>1928</ele><name></name></wpt>
  <wpt lat="27.823407" lon="104.334803"><ele>1904</ele><name>无</name></wpt>
  <wpt lat="27.823316" lon="104.334734"><ele>1904</ele><name>无</name></wpt>
  <wpt lat="27.823382" lon="104.334783"><ele>1903</ele><name></name></wpt>
  <wpt lat="27.823397" lon="104.334782"><ele>1906</ele><name></name></wpt>
  <wpt lat="27.823431" lon="104.334795"><ele>1908</ele><name></name></wpt>
  <wpt lat="27.823431" lon="104.334795"><ele>1908</ele><name></name></wpt>
  <wpt lat="27.821714" lon="104.336937"><ele>1898</ele><name></name></wpt>
  <wpt lat="27.82167" lon="104.336907"><ele>1902</ele><name></name></wpt>
  <wpt lat="27.82167" lon="104.336907"><ele>1902</ele><name></name></wpt>
  <wpt lat="27.821721" lon="104.336982"><ele>1897</ele><name></name></wpt>
  <wpt lat="27.821746" lon="104.336943"><ele>1902</ele><name></name></wpt>
  <wpt lat="27.821746" lon="104.336943"><ele>1902</ele><name>水蛇</name></wpt>
  <trk><name>贵州疣螈样地调查（黄河） 10:25:01（胡祖勇，陈娜）</name>
      <trkseg>
        <trkpt lat="27.82313" lon="104.335714"><ele>1913.7899</ele><time>2026-06-22T18:25:07.000Z</time></trkpt>
        <trkpt lat="27.823136" lon="104.335661"><ele>1914.8612</ele><time>2026-06-22T18:25:13.000Z</time></trkpt>
        <trkpt lat="27.823152" lon="104.335612"><ele>1915.8141</ele><time>2026-06-22T18:25:18.000Z</time></trkpt>
        <trkpt lat="27.823173" lon="104.335562"><ele>1915.1667</ele><time>2026-06-22T18:25:23.000Z</time></trkpt>
        <trkpt lat="27.823175" lon="104.335502"><ele>1914.5151</ele><time>2026-06-22T18:25:28.000Z</time></trkpt>
        <trkpt lat="27.82319" lon="104.335448"><ele>1914.9087</ele><time>2026-06-22T18:25:34.000Z</time></trkpt>
        <trkpt lat="27.823204" lon="104.335394"><ele>1914.6334</ele><time>2026-06-22T18:25:38.000Z</time></trkpt>
        <trkpt lat="27.823217" lon="104.335337"><ele>1914.5449</ele><time>2026-06-22T18:25:43.000Z</time></trkpt>
        <trkpt lat="27.823228" lon="104.335274"><ele>1914.2227</ele><time>2026-06-22T18:25:48.000Z</time></trkpt>
        <trkpt lat="27.823264" lon="104.335243"><ele>1914.2717</ele><time>2026-06-22T18:25:54.000Z</time></trkpt>
        <trkpt lat="27.823276" lon="104.33519"><ele>1914.6042</ele><time>2026-06-22T18:26:00.000Z</time></trkpt>
        <trkpt lat="27.823308" lon="104.335153"><ele>1916.222</ele><time>2026-06-22T18:26:07.000Z</time></trkpt>
        <trkpt lat="27.823341" lon="104.335116"><ele>1919.7609</ele><time>2026-06-22T18:26:14.000Z</time></trkpt>
        <trkpt lat="27.823367" lon="104.335071"><ele>1919.3793</ele><time>2026-06-22T18:26:18.000Z</time></trkpt>
        <trkpt lat="27.8234" lon="104.335031"><ele>1918.5576</ele><time>2026-06-22T18:26:25.000Z</time></trkpt>
        <trkpt lat="27.823429" lon="104.33498"><ele>1917.032</ele><time>2026-06-22T18:26:31.000Z</time></trkpt>
        <trkpt lat="27.823459" lon="104.334941"><ele>1917.1914</ele><time>2026-06-22T18:26:35.000Z</time></trkpt>
        <trkpt lat="27.823498" lon="104.334908"><ele>1915.9263</ele><time>2026-06-22T18:26:42.000Z</time></trkpt>
        <trkpt lat="27.823534" lon="104.33487"><ele>1916.8187</ele><time>2026-06-22T18:26:47.000Z</time></trkpt>
        <trkpt lat="27.823566" lon="104.334831"><ele>1918.0913</ele><time>2026-06-22T18:26:53.000Z</time></trkpt>
        <trkpt lat="27.823602" lon="104.334791"><ele>1919.3651</ele><time>2026-06-22T18:26:58.000Z</time></trkpt>
        <trkpt lat="27.823625" lon="104.334729"><ele>1919.0935</ele><time>2026-06-22T18:27:03.000Z</time></trkpt>
        <trkpt lat="27.823645" lon="104.334681"><ele>1919.1671</ele><time>2026-06-22T18:27:07.000Z</time></trkpt>
        <trkpt lat="27.823666" lon="104.334634"><ele>1918.8615</ele><time>2026-06-22T18:27:14.000Z</time></trkpt>
        <trkpt lat="27.823652" lon="104.334576"><ele>1916.2108</ele><time>2026-06-22T18:27:22.000Z</time></trkpt>
        <trkpt lat="27.823637" lon="104.334528"><ele>1916.7883</ele><time>2026-06-22T18:27:28.000Z</time></trkpt>
        <trkpt lat="27.823633" lon="104.334474"><ele>1916.8403</ele><time>2026-06-22T18:27:38.000Z</time></trkpt>
        <trkpt lat="27.823643" lon="104.334422"><ele>1914.4752</ele><time>2026-06-22T18:27:47.000Z</time></trkpt>
        <trkpt lat="27.823682" lon="104.334395"><ele>1911.8423</ele><time>2026-06-22T18:28:32.000Z</time></trkpt>
        <trkpt lat="27.823725" lon="104.334373"><ele>1915.3511</ele><time>2026-06-22T18:28:51.000Z</time></trkpt>
        <trkpt lat="27.823768" lon="104.334352"><ele>1912.9591</ele><time>2026-06-22T18:28:56.000Z</time></trkpt>
        <trkpt lat="27.823813" lon="104.334339"><ele>1915.2329</ele><time>2026-06-22T18:29:04.000Z</time></trkpt>
        <trkpt lat="27.823858" lon="104.334315"><ele>1917.263</ele><time>2026-06-22T18:29:10.000Z</time></trkpt>
        <trkpt lat="27.823895" lon="104.334277"><ele>1917.2644</ele><time>2026-06-22T18:29:15.000Z</time></trkpt>
        <trkpt lat="27.823929" lon="104.334242"><ele>1916.89</ele><time>2026-06-22T18:29:21.000Z</time></trkpt>
        <trkpt lat="27.823972" lon="104.33421"><ele>1916.506</ele><time>2026-06-22T18:29:26.000Z</time></trkpt>
        <trkpt lat="27.824006" lon="104.334164"><ele>1915.9917</ele><time>2026-06-22T18:29:32.000Z</time></trkpt>
        <trkpt lat="27.824053" lon="104.334142"><ele>1917.0206</ele><time>2026-06-22T18:29:39.000Z</time></trkpt>
        <trkpt lat="27.824094" lon="104.334113"><ele>1917.3768</ele><time>2026-06-22T18:29:45.000Z</time></trkpt>
        <trkpt lat="27.824154" lon="104.334116"><ele>1918.3108</ele><time>2026-06-22T18:29:51.000Z</time></trkpt>
        <trkpt lat="27.824199" lon="104.334123"><ele>1918.6719</ele><time>2026-06-22T18:29:56.000Z</time></trkpt>
        <trkpt lat="27.824244" lon="104.334138"><ele>1918.121</ele><time>2026-06-22T18:30:01.000Z</time></trkpt>
        <trkpt lat="27.824284" lon="104.334173"><ele>1918.7823</ele><time>2026-06-22T18:30:06.000Z</time></trkpt>
        <trkpt lat="27.824321" lon="104.33421"><ele>1919.4832</ele><time>2026-06-22T18:30:13.000Z</time></trkpt>
        <trkpt lat="27.824373" lon="104.334236"><ele>1919.1042</ele><time>2026-06-22T18:30:22.000Z</time></trkpt>
        <trkpt lat="27.824406" lon="104.334272"><ele>1919.1902</ele><time>2026-06-22T18:30:26.000Z</time></trkpt>
        <trkpt lat="27.824441" lon="104.334306"><ele>1919.7805</ele><time>2026-06-22T18:30:31.000Z</time></trkpt>
        <trkpt lat="27.824483" lon="104.334335"><ele>1920.6687</ele><time>2026-06-22T18:30:37.000Z</time></trkpt>
        <trkpt lat="27.824528" lon="104.334363"><ele>1920.0839</ele><time>2026-06-22T18:30:43.000Z</time></trkpt>
        <trkpt lat="27.824579" lon="104.33439"><ele>1921.7354</ele><time>2026-06-22T18:30:48.000Z</time></trkpt>
        <trkpt lat="27.824621" lon="104.334406"><ele>1922.1439</ele><time>2026-06-22T18:30:54.000Z</time></trkpt>
        <trkpt lat="27.824671" lon="104.334415"><ele>1921.5195</ele><time>2026-06-22T18:30:59.000Z</time></trkpt>
        <trkpt lat="27.824715" lon="104.334425"><ele>1920.2943</ele><time>2026-06-22T18:31:03.000Z</time></trkpt>
        <trkpt lat="27.82476" lon="104.334447"><ele>1920.4902</ele><time>2026-06-22T18:31:09.000Z</time></trkpt>
        <trkpt lat="27.824808" lon="104.334457"><ele>1920.2987</ele><time>2026-06-22T18:31:16.000Z</time></trkpt>
        <trkpt lat="27.824856" lon="104.334484"><ele>1917.4524</ele><time>2026-06-22T18:31:25.000Z</time></trkpt>
        <trkpt lat="27.824894" lon="104.334512"><ele>1914.4122</ele><time>2026-06-22T18:31:58.000Z</time></trkpt>
        <trkpt lat="27.824921" lon="104.334555"><ele>1915.0253</ele><time>2026-06-22T18:32:08.000Z</time></trkpt>
        <trkpt lat="27.824952" lon="104.334597"><ele>1919.9253</ele><time>2026-06-22T18:32:17.000Z</time></trkpt>
        <trkpt lat="27.825005" lon="104.334589"><ele>1920.8906</ele><time>2026-06-22T18:32:23.000Z</time></trkpt>
        <trkpt lat="27.825051" lon="104.334565"><ele>1920.9116</ele><time>2026-06-22T18:32:29.000Z</time></trkpt>
        <trkpt lat="27.825092" lon="104.33453"><ele>1921.5728</ele><time>2026-06-22T18:32:34.000Z</time></trkpt>
        <trkpt lat="27.825138" lon="104.334521"><ele>1921.3259</ele><time>2026-06-22T18:32:40.000Z</time></trkpt>
        <trkpt lat="27.825183" lon="104.334495"><ele>1922.0907</ele><time>2026-06-22T18:32:45.000Z</time></trkpt>
        <trkpt lat="27.825223" lon="104.334459"><ele>1919.7788</ele><time>2026-06-22T18:32:51.000Z</time></trkpt>
        <trkpt lat="27.825267" lon="104.334428"><ele>1920.2457</ele><time>2026-06-22T18:32:57.000Z</time></trkpt>
        <trkpt lat="27.825303" lon="104.334395"><ele>1919.2385</ele><time>2026-06-22T18:33:02.000Z</time></trkpt>
        <trkpt lat="27.825329" lon="104.334352"><ele>1917.985</ele><time>2026-06-22T18:33:07.000Z</time></trkpt>
        <trkpt lat="27.825371" lon="104.334312"><ele>1918.7607</ele><time>2026-06-22T18:33:13.000Z</time></trkpt>
        <trkpt lat="27.825389" lon="104.334258"><ele>1919.299</ele><time>2026-06-22T18:33:18.000Z</time></trkpt>
        <trkpt lat="27.825416" lon="104.334215"><ele>1918.5374</ele><time>2026-06-22T18:33:23.000Z</time></trkpt>
        <trkpt lat="27.825449" lon="104.334174"><ele>1919.4818</ele><time>2026-06-22T18:33:28.000Z</time></trkpt>
        <trkpt lat="27.825471" lon="104.33413"><ele>1918.4679</ele><time>2026-06-22T18:33:38.000Z</time></trkpt>
        <trkpt lat="27.825492" lon="104.334069"><ele>1920.1113</ele><time>2026-06-22T18:33:44.000Z</time></trkpt>
        <trkpt lat="27.825495" lon="104.334012"><ele>1922.1636</ele><time>2026-06-22T18:33:49.000Z</time></trkpt>
        <trkpt lat="27.825497" lon="104.33396"><ele>1921.9629</ele><time>2026-06-22T18:33:53.000Z</time></trkpt>
        <trkpt lat="27.82551" lon="104.333905"><ele>1923.7725</ele><time>2026-06-22T18:33:59.000Z</time></trkpt>
        <trkpt lat="27.825546" lon="104.333869"><ele>1922.1051</ele><time>2026-06-22T18:34:03.000Z</time></trkpt>
        <trkpt lat="27.825555" lon="104.333815"><ele>1922.1304</ele><time>2026-06-22T18:34:07.000Z</time></trkpt>
        <trkpt lat="27.825571" lon="104.333755"><ele>1920.8788</ele><time>2026-06-22T18:34:21.000Z</time></trkpt>
        <trkpt lat="27.825582" lon="104.333698"><ele>1922.5103</ele><time>2026-06-22T18:34:27.000Z</time></trkpt>
        <trkpt lat="27.825603" lon="104.333638"><ele>1922.7822</ele><time>2026-06-22T18:34:32.000Z</time></trkpt>
        <trkpt lat="27.825626" lon="104.333586"><ele>1922.9335</ele><time>2026-06-22T18:34:37.000Z</time></trkpt>
        <trkpt lat="27.825635" lon="104.333528"><ele>1923.2356</ele><time>2026-06-22T18:34:43.000Z</time></trkpt>
        <trkpt lat="27.825664" lon="104.333475"><ele>1921.9532</ele><time>2026-06-22T18:34:49.000Z</time></trkpt>
        <trkpt lat="27.825686" lon="104.333421"><ele>1922.036</ele><time>2026-06-22T18:34:54.000Z</time></trkpt>
        <trkpt lat="27.825731" lon="104.333384"><ele>1922.6996</ele><time>2026-06-22T18:35:00.000Z</time></trkpt>
        <trkpt lat="27.825766" lon="104.333348"><ele>1924.2263</ele><time>2026-06-22T18:35:06.000Z</time></trkpt>
        <trkpt lat="27.825793" lon="104.333299"><ele>1924.4727</ele><time>2026-06-22T18:35:12.000Z</time></trkpt>
        <trkpt lat="27.825828" lon="104.333253"><ele>1925.096</ele><time>2026-06-22T18:35:17.000Z</time></trkpt>
        <trkpt lat="27.825858" lon="104.333211"><ele>1925.7104</ele><time>2026-06-22T18:35:21.000Z</time></trkpt>
        <trkpt lat="27.8259" lon="104.333175"><ele>1926.4966</ele><time>2026-06-22T18:35:27.000Z</time></trkpt>
        <trkpt lat="27.825922" lon="104.333127"><ele>1926.6927</ele><time>2026-06-22T18:35:34.000Z</time></trkpt>
        <trkpt lat="27.825942" lon="104.333074"><ele>1927.565</ele><time>2026-06-22T18:35:44.000Z</time></trkpt>
        <trkpt lat="27.825962" lon="104.333027"><ele>1927.7428</ele><time>2026-06-22T18:35:50.000Z</time></trkpt>
        <trkpt lat="27.825981" lon="104.332978"><ele>1927.4783</ele><time>2026-06-22T18:35:55.000Z</time></trkpt>
        <trkpt lat="27.826004" lon="104.332933"><ele>1927.6891</ele><time>2026-06-22T18:36:00.000Z</time></trkpt>
        <trkpt lat="27.826015" lon="104.33288"><ele>1927.5403</ele><time>2026-06-22T18:36:05.000Z</time></trkpt>
        <trkpt lat="27.826024" lon="104.33283"><ele>1927.8909</ele><time>2026-06-22T18:36:10.000Z</time></trkpt>
        <trkpt lat="27.826048" lon="104.332786"><ele>1929.9951</ele><time>2026-06-22T18:36:16.000Z</time></trkpt>
        <trkpt lat="27.826069" lon="104.332738"><ele>1930.6497</ele><time>2026-06-22T18:36:22.000Z</time></trkpt>
        <trkpt lat="27.826098" lon="104.332697"><ele>1929.8112</ele><time>2026-06-22T18:36:28.000Z</time></trkpt>
        <trkpt lat="27.82614" lon="104.332656"><ele>1931.9756</ele><time>2026-06-22T18:36:36.000Z</time></trkpt>
        <trkpt lat="27.826173" lon="104.332608"><ele>1932.4344</ele><time>2026-06-22T18:36:42.000Z</time></trkpt>
        <trkpt lat="27.8262" lon="104.33256"><ele>1931.888</ele><time>2026-06-22T18:36:46.000Z</time></trkpt>
        <trkpt lat="27.82623" lon="104.332516"><ele>1931.8309</ele><time>2026-06-22T18:36:52.000Z</time></trkpt>
        <trkpt lat="27.826275" lon="104.332476"><ele>1936.1088</ele><time>2026-06-22T18:36:58.000Z</time></trkpt>
        <trkpt lat="27.826307" lon="104.332439"><ele>1932.7117</ele><time>2026-06-22T18:37:02.000Z</time></trkpt>
        <trkpt lat="27.82633" lon="104.332394"><ele>1930.8905</ele><time>2026-06-22T18:37:06.000Z</time></trkpt>
        <trkpt lat="27.826378" lon="104.332373"><ele>1931.5494</ele><time>2026-06-22T18:37:12.000Z</time></trkpt>
        <trkpt lat="27.826409" lon="104.332322"><ele>1932.7546</ele><time>2026-06-22T18:37:18.000Z</time></trkpt>
        <trkpt lat="27.826441" lon="104.332287"><ele>1932.2375</ele><time>2026-06-22T18:37:24.000Z</time></trkpt>
        <trkpt lat="27.826474" lon="104.332243"><ele>1932.3004</ele><time>2026-06-22T18:37:28.000Z</time></trkpt>
        <trkpt lat="27.826513" lon="104.332212"><ele>1931.767</ele><time>2026-06-22T18:37:32.000Z</time></trkpt>
        <trkpt lat="27.826558" lon="104.332182"><ele>1930.6898</ele><time>2026-06-22T18:37:38.000Z</time></trkpt>
        <trkpt lat="27.826599" lon="104.332154"><ele>1935.0161</ele><time>2026-06-22T18:37:48.000Z</time></trkpt>
        <trkpt lat="27.826634" lon="104.332109"><ele>1934.7552</ele><time>2026-06-22T18:37:53.000Z</time></trkpt>
        <trkpt lat="27.826672" lon="104.33208"><ele>1933.4374</ele><time>2026-06-22T18:37:58.000Z</time></trkpt>
        <trkpt lat="27.826707" lon="104.332047"><ele>1933.6049</ele><time>2026-06-22T18:38:02.000Z</time></trkpt>
        <trkpt lat="27.826757" lon="104.332035"><ele>1932.9379</ele><time>2026-06-22T18:38:06.000Z</time></trkpt>
        <trkpt lat="27.826796" lon="104.332006"><ele>1932.6365</ele><time>2026-06-22T18:38:20.000Z</time></trkpt>
        <trkpt lat="27.826841" lon="104.331965"><ele>1933.0054</ele><time>2026-06-22T18:38:25.000Z</time></trkpt>
        <trkpt lat="27.826884" lon="104.33193"><ele>1933.2783</ele><time>2026-06-22T18:38:29.000Z</time></trkpt>
        <trkpt lat="27.826905" lon="104.331875"><ele>1933.6488</ele><time>2026-06-22T18:38:35.000Z</time></trkpt>
        <trkpt lat="27.826944" lon="104.331837"><ele>1934.2075</ele><time>2026-06-22T18:38:40.000Z</time></trkpt>
        <trkpt lat="27.826966" lon="104.331787"><ele>1933.2772</ele><time>2026-06-22T18:38:44.000Z</time></trkpt>
        <trkpt lat="27.827" lon="104.331737"><ele>1933.0842</ele><time>2026-06-22T18:38:50.000Z</time></trkpt>
        <trkpt lat="27.827046" lon="104.331698"><ele>1933.81</ele><time>2026-06-22T18:38:57.000Z</time></trkpt>
        <trkpt lat="27.827072" lon="104.331652"><ele>1933.6436</ele><time>2026-06-22T18:39:03.000Z</time></trkpt>
        <trkpt lat="27.82709" lon="104.331595"><ele>1933.5637</ele><time>2026-06-22T18:39:08.000Z</time></trkpt>
        <trkpt lat="27.827131" lon="104.331545"><ele>1935.5736</ele><time>2026-06-22T18:39:14.000Z</time></trkpt>
        <trkpt lat="27.827175" lon="104.33151"><ele>1934.7549</ele><time>2026-06-22T18:39:20.000Z</time></trkpt>
        <trkpt lat="27.827211" lon="104.331466"><ele>1935.1982</ele><time>2026-06-22T18:39:25.000Z</time></trkpt>
        <trkpt lat="27.827243" lon="104.331426"><ele>1936.3792</ele><time>2026-06-22T18:39:31.000Z</time></trkpt>
        <trkpt lat="27.827275" lon="104.331388"><ele>1938.5858</ele><time>2026-06-22T18:39:35.000Z</time></trkpt>
        <trkpt lat="27.827308" lon="104.331344"><ele>1937.776</ele><time>2026-06-22T18:39:40.000Z</time></trkpt>
        <trkpt lat="27.827332" lon="104.331299"><ele>1937.0596</ele><time>2026-06-22T18:39:45.000Z</time></trkpt>
        <trkpt lat="27.827377" lon="104.331273"><ele>1937.2172</ele><time>2026-06-22T18:39:50.000Z</time></trkpt>
        <trkpt lat="27.827409" lon="104.331237"><ele>1938.3966</ele><time>2026-06-22T18:39:55.000Z</time></trkpt>
        <trkpt lat="27.827451" lon="104.33121"><ele>1939.0321</ele><time>2026-06-22T18:40:04.000Z</time></trkpt>
        <trkpt lat="27.827481" lon="104.331159"><ele>1940.246</ele><time>2026-06-22T18:40:08.000Z</time></trkpt>
        <trkpt lat="27.827504" lon="104.331102"><ele>1939.18</ele><time>2026-06-22T18:40:13.000Z</time></trkpt>
        <trkpt lat="27.827516" lon="104.331047"><ele>1937.3224</ele><time>2026-06-22T18:40:18.000Z</time></trkpt>
        <trkpt lat="27.827541" lon="104.330998"><ele>1937.8529</ele><time>2026-06-22T18:40:24.000Z</time></trkpt>
        <trkpt lat="27.827565" lon="104.33095"><ele>1938.0183</ele><time>2026-06-22T18:40:30.000Z</time></trkpt>
        <trkpt lat="27.827596" lon="104.330907"><ele>1936.8193</ele><time>2026-06-22T18:40:35.000Z</time></trkpt>
        <trkpt lat="27.82763" lon="104.330866"><ele>1937.6251</ele><time>2026-06-22T18:40:42.000Z</time></trkpt>
        <trkpt lat="27.827677" lon="104.330843"><ele>1937.515</ele><time>2026-06-22T18:40:48.000Z</time></trkpt>
        <trkpt lat="27.827724" lon="104.330814"><ele>1938.4229</ele><time>2026-06-22T18:40:56.000Z</time></trkpt>
        <trkpt lat="27.827772" lon="104.330803"><ele>1940.7305</ele><time>2026-06-22T18:41:03.000Z</time></trkpt>
        <trkpt lat="27.827819" lon="104.330798"><ele>1939.8722</ele><time>2026-06-22T18:41:08.000Z</time></trkpt>
        <trkpt lat="27.827864" lon="104.330803"><ele>1938.4152</ele><time>2026-06-22T18:41:15.000Z</time></trkpt>
        <trkpt lat="27.827912" lon="104.330816"><ele>1940.562</ele><time>2026-06-22T18:41:20.000Z</time></trkpt>
        <trkpt lat="27.827954" lon="104.330837"><ele>1941.2108</ele><time>2026-06-22T18:41:28.000Z</time></trkpt>
        <trkpt lat="27.828003" lon="104.330843"><ele>1945.8876</ele><time>2026-06-22T18:41:34.000Z</time></trkpt>
        <trkpt lat="27.828049" lon="104.330846"><ele>1943.8727</ele><time>2026-06-22T18:41:40.000Z</time></trkpt>
        <trkpt lat="27.828096" lon="104.330864"><ele>1942.8247</ele><time>2026-06-22T18:41:49.000Z</time></trkpt>
        <trkpt lat="27.828142" lon="104.330851"><ele>1943.1436</ele><time>2026-06-22T18:41:54.000Z</time></trkpt>
        <trkpt lat="27.828189" lon="104.330828"><ele>1942.6677</ele><time>2026-06-22T18:41:59.000Z</time></trkpt>
        <trkpt lat="27.828235" lon="104.330811"><ele>1940.4612</ele><time>2026-06-22T18:42:09.000Z</time></trkpt>
        <trkpt lat="27.828285" lon="104.330807"><ele>1940.064</ele><time>2026-06-22T18:42:18.000Z</time></trkpt>
        <trkpt lat="27.828315" lon="104.33075"><ele>1940.4076</ele><time>2026-06-22T18:42:25.000Z</time></trkpt>
        <trkpt lat="27.828334" lon="104.330704"><ele>1938.7578</ele><time>2026-06-22T18:42:31.000Z</time></trkpt>
        <trkpt lat="27.828374" lon="104.330676"><ele>1942.3888</ele><time>2026-06-22T18:42:39.000Z</time></trkpt>
        <trkpt lat="27.828398" lon="104.330629"><ele>1941.6686</ele><time>2026-06-22T18:42:48.000Z</time></trkpt>
        <trkpt lat="27.828416" lon="104.330582"><ele>1941.5957</ele><time>2026-06-22T18:42:56.000Z</time></trkpt>
        <trkpt lat="27.828434" lon="104.330524"><ele>1944.021</ele><time>2026-06-22T18:43:03.000Z</time></trkpt>
        <trkpt lat="27.82845" lon="104.330475"><ele>1940.9916</ele><time>2026-06-22T18:43:11.000Z</time></trkpt>
        <trkpt lat="27.828463" lon="104.330424"><ele>1942.4235</ele><time>2026-06-22T18:43:18.000Z</time></trkpt>
        <trkpt lat="27.82845" lon="104.330367"><ele>1946.5255</ele><time>2026-06-22T18:43:29.000Z</time></trkpt>
        <trkpt lat="27.828436" lon="104.330317"><ele>1947.1648</ele><time>2026-06-22T18:43:35.000Z</time></trkpt>
        <trkpt lat="27.828408" lon="104.330263"><ele>1947.0997</ele><time>2026-06-22T18:43:42.000Z</time></trkpt>
        <trkpt lat="27.828401" lon="104.330207"><ele>1946.6002</ele><time>2026-06-22T18:43:47.000Z</time></trkpt>
        <trkpt lat="27.828391" lon="104.330156"><ele>1944.4033</ele><time>2026-06-22T18:43:52.000Z</time></trkpt>
        <trkpt lat="27.828358" lon="104.330114"><ele>1945.7114</ele><time>2026-06-22T18:43:58.000Z</time></trkpt>
        <trkpt lat="27.828346" lon="104.330063"><ele>1943.7634</ele><time>2026-06-22T18:44:03.000Z</time></trkpt>
        <trkpt lat="27.82832" lon="104.33002"><ele>1944.1681</ele><time>2026-06-22T18:44:09.000Z</time></trkpt>
        <trkpt lat="27.828313" lon="104.329959"><ele>1941.644</ele><time>2026-06-22T18:44:16.000Z</time></trkpt>
        <trkpt lat="27.828302" lon="104.32991"><ele>1938.7402</ele><time>2026-06-22T18:44:21.000Z</time></trkpt>
        <trkpt lat="27.828307" lon="104.329858"><ele>1940.3159</ele><time>2026-06-22T18:44:27.000Z</time></trkpt>
        <trkpt lat="27.828289" lon="104.32981"><ele>1941.4247</ele><time>2026-06-22T18:44:34.000Z</time></trkpt>
        <trkpt lat="27.828269" lon="104.32976"><ele>1942.599</ele><time>2026-06-22T18:44:40.000Z</time></trkpt>
        <trkpt lat="27.828279" lon="104.329701"><ele>1946.3373</ele><time>2026-06-22T18:44:46.000Z</time></trkpt>
        <trkpt lat="27.828302" lon="104.329656"><ele>1944.7607</ele><time>2026-06-22T18:44:52.000Z</time></trkpt>
        <trkpt lat="27.828339" lon="104.329614"><ele>1945.4443</ele><time>2026-06-22T18:44:59.000Z</time></trkpt>
        <trkpt lat="27.828386" lon="104.329598"><ele>1946.1708</ele><time>2026-06-22T18:45:05.000Z</time></trkpt>
        <trkpt lat="27.828449" lon="104.329589"><ele>1946.1252</ele><time>2026-06-22T18:45:11.000Z</time></trkpt>
        <trkpt lat="27.828495" lon="104.329575"><ele>1945.9862</ele><time>2026-06-22T18:45:17.000Z</time></trkpt>
        <trkpt lat="27.828538" lon="104.329557"><ele>1945.841</ele><time>2026-06-22T18:45:22.000Z</time></trkpt>
        <trkpt lat="27.828592" lon="104.329571"><ele>1945.8497</ele><time>2026-06-22T18:45:26.000Z</time></trkpt>
        <trkpt lat="27.828655" lon="104.329563"><ele>1949.5896</ele><time>2026-06-22T18:45:33.000Z</time></trkpt>
        <trkpt lat="27.828698" lon="104.329544"><ele>1948.3518</ele><time>2026-06-22T18:45:37.000Z</time></trkpt>
        <trkpt lat="27.828745" lon="104.329535"><ele>1948.67</ele><time>2026-06-22T18:45:43.000Z</time></trkpt>
        <trkpt lat="27.828791" lon="104.329541"><ele>1947.9974</ele><time>2026-06-22T18:45:49.000Z</time></trkpt>
        <trkpt lat="27.828838" lon="104.329527"><ele>1947.8141</ele><time>2026-06-22T18:45:55.000Z</time></trkpt>
        <trkpt lat="27.828892" lon="104.32952"><ele>1946.9324</ele><time>2026-06-22T18:46:02.000Z</time></trkpt>
        <trkpt lat="27.828931" lon="104.329493"><ele>1947.7698</ele><time>2026-06-22T18:46:07.000Z</time></trkpt>
        <trkpt lat="27.828976" lon="104.329471"><ele>1948.9043</ele><time>2026-06-22T18:46:14.000Z</time></trkpt>
        <trkpt lat="27.829023" lon="104.329463"><ele>1950.5735</ele><time>2026-06-22T18:46:20.000Z</time></trkpt>
        <trkpt lat="27.829072" lon="104.329437"><ele>1951.9998</ele><time>2026-06-22T18:46:26.000Z</time></trkpt>
        <trkpt lat="27.829114" lon="104.329405"><ele>1952.2563</ele><time>2026-06-22T18:46:33.000Z</time></trkpt>
        <trkpt lat="27.829149" lon="104.329373"><ele>1951.6112</ele><time>2026-06-22T18:46:38.000Z</time></trkpt>
        <trkpt lat="27.829175" lon="104.329329"><ele>1950.3298</ele><time>2026-06-22T18:46:42.000Z</time></trkpt>
        <trkpt lat="27.82922" lon="104.329305"><ele>1951.0746</ele><time>2026-06-22T18:46:48.000Z</time></trkpt>
        <trkpt lat="27.829264" lon="104.329278"><ele>1950.0991</ele><time>2026-06-22T18:46:54.000Z</time></trkpt>
        <trkpt lat="27.829307" lon="104.32925"><ele>1951.0543</ele><time>2026-06-22T18:47:00.000Z</time></trkpt>
        <trkpt lat="27.829346" lon="104.329212"><ele>1952.9264</ele><time>2026-06-22T18:47:04.000Z</time></trkpt>
        <trkpt lat="27.829395" lon="104.329191"><ele>1953.9503</ele><time>2026-06-22T18:47:10.000Z</time></trkpt>
        <trkpt lat="27.829433" lon="104.329143"><ele>1950.6423</ele><time>2026-06-22T18:47:17.000Z</time></trkpt>
        <trkpt lat="27.829472" lon="104.329118"><ele>1951.0293</ele><time>2026-06-22T18:47:23.000Z</time></trkpt>
        <trkpt lat="27.82951" lon="104.329079"><ele>1952.7734</ele><time>2026-06-22T18:47:30.000Z</time></trkpt>
        <trkpt lat="27.829555" lon="104.32905"><ele>1953.595</ele><time>2026-06-22T18:47:36.000Z</time></trkpt>
        <trkpt lat="27.829595" lon="104.329018"><ele>1952.4307</ele><time>2026-06-22T18:47:41.000Z</time></trkpt>
        <trkpt lat="27.829626" lon="104.328967"><ele>1952.0615</ele><time>2026-06-22T18:47:47.000Z</time></trkpt>
        <trkpt lat="27.82965" lon="104.32892"><ele>1951.64</ele><time>2026-06-22T18:47:52.000Z</time></trkpt>
        <trkpt lat="27.82969" lon="104.328878"><ele>1951.6659</ele><time>2026-06-22T18:47:59.000Z</time></trkpt>
        <trkpt lat="27.829739" lon="104.328865"><ele>1953.8313</ele><time>2026-06-22T18:48:06.000Z</time></trkpt>
        <trkpt lat="27.829776" lon="104.328833"><ele>1956.2466</ele><time>2026-06-22T18:48:12.000Z</time></trkpt>
        <trkpt lat="27.829807" lon="104.328788"><ele>1955.3677</ele><time>2026-06-22T18:48:17.000Z</time></trkpt>
        <trkpt lat="27.829833" lon="104.328735"><ele>1958.1392</ele><time>2026-06-22T18:48:22.000Z</time></trkpt>
        <trkpt lat="27.829871" lon="104.328685"><ele>1955.3463</ele><time>2026-06-22T18:48:29.000Z</time></trkpt>
        <trkpt lat="27.82989" lon="104.328638"><ele>1953.9421</ele><time>2026-06-22T18:48:35.000Z</time></trkpt>
        <trkpt lat="27.829903" lon="104.328575"><ele>1952.8684</ele><time>2026-06-22T18:48:39.000Z</time></trkpt>
        <trkpt lat="27.82994" lon="104.328538"><ele>1951.8907</ele><time>2026-06-22T18:48:46.000Z</time></trkpt>
        <trkpt lat="27.829976" lon="104.328493"><ele>1952.4805</ele><time>2026-06-22T18:48:52.000Z</time></trkpt>
        <trkpt lat="27.830018" lon="104.328463"><ele>1950.9493</ele><time>2026-06-22T18:48:58.000Z</time></trkpt>
        <trkpt lat="27.83005" lon="104.328424"><ele>1950.8105</ele><time>2026-06-22T18:49:03.000Z</time></trkpt>
        <trkpt lat="27.830087" lon="104.328394"><ele>1951.5253</ele><time>2026-06-22T18:49:08.000Z</time></trkpt>
        <trkpt lat="27.830129" lon="104.328373"><ele>1952.9335</ele><time>2026-06-22T18:49:13.000Z</time></trkpt>
        <trkpt lat="27.830173" lon="104.328353"><ele>1953.8688</ele><time>2026-06-22T18:49:19.000Z</time></trkpt>
        <trkpt lat="27.830214" lon="104.328326"><ele>1952.7919</ele><time>2026-06-22T18:49:24.000Z</time></trkpt>
        <trkpt lat="27.830256" lon="104.328303"><ele>1952.3525</ele><time>2026-06-22T18:49:28.000Z</time></trkpt>
        <trkpt lat="27.830211" lon="104.328322"><ele>1954.2404</ele><time>2026-06-22T18:49:38.000Z</time></trkpt>
        <trkpt lat="27.830174" lon="104.32836"><ele>1953.4747</ele><time>2026-06-22T18:49:43.000Z</time></trkpt>
        <trkpt lat="27.830126" lon="104.328384"><ele>1953.1067</ele><time>2026-06-22T18:49:49.000Z</time></trkpt>
        <trkpt lat="27.830082" lon="104.328408"><ele>1953.4503</ele><time>2026-06-22T18:49:55.000Z</time></trkpt>
        <trkpt lat="27.83004" lon="104.32844"><ele>1952.6497</ele><time>2026-06-22T18:50:00.000Z</time></trkpt>
        <trkpt lat="27.83" lon="104.328481"><ele>1951.1685</ele><time>2026-06-22T18:50:06.000Z</time></trkpt>
        <trkpt lat="27.829964" lon="104.328522"><ele>1951.7931</ele><time>2026-06-22T18:50:17.000Z</time></trkpt>
        <trkpt lat="27.829921" lon="104.328538"><ele>1951.1443</ele><time>2026-06-22T18:50:29.000Z</time></trkpt>
        <trkpt lat="27.829899" lon="104.328583"><ele>1951.3859</ele><time>2026-06-22T18:50:46.000Z</time></trkpt>
        <trkpt lat="27.829897" lon="104.328636"><ele>1949.1133</ele><time>2026-06-22T18:52:54.000Z</time></trkpt>
        <trkpt lat="27.829881" lon="104.328589"><ele>1948.8872</ele><time>2026-06-22T18:53:40.000Z</time></trkpt>
        <trkpt lat="27.829909" lon="104.328635"><ele>1949.853</ele><time>2026-06-22T18:54:15.000Z</time></trkpt>
        <trkpt lat="27.829891" lon="104.328588"><ele>1948.4358</ele><time>2026-06-22T18:55:08.000Z</time></trkpt>
        <trkpt lat="27.829933" lon="104.328607"><ele>1949.9163</ele><time>2026-06-22T18:56:01.000Z</time></trkpt>
        <trkpt lat="27.829887" lon="104.328586"><ele>1947.6597</ele><time>2026-06-22T18:56:17.000Z</time></trkpt>
        <trkpt lat="27.829865" lon="104.328631"><ele>1948.2996</ele><time>2026-06-22T18:56:48.000Z</time></trkpt>
        <trkpt lat="27.829901" lon="104.328663"><ele>1953.1261</ele><time>2026-06-22T18:57:56.000Z</time></trkpt>
        <trkpt lat="27.829887" lon="104.328614"><ele>1952.9827</ele><time>2026-06-22T18:58:17.000Z</time></trkpt>
        <trkpt lat="27.829863" lon="104.328662"><ele>1950.3386</ele><time>2026-06-22T18:58:24.000Z</time></trkpt>
        <trkpt lat="27.829899" lon="104.328631"><ele>1948.5854</ele><time>2026-06-22T18:59:42.000Z</time></trkpt>
        <trkpt lat="27.829875" lon="104.328579"><ele>1949.7935</ele><time>2026-06-22T19:02:02.000Z</time></trkpt>
        <trkpt lat="27.829832" lon="104.328561"><ele>1949.1333</ele><time>2026-06-22T19:02:10.000Z</time></trkpt>
        <trkpt lat="27.829876" lon="104.328577"><ele>1948.0417</ele><time>2026-06-22T19:02:31.000Z</time></trkpt>
        <trkpt lat="27.829909" lon="104.328616"><ele>1946.1333</ele><time>2026-06-22T19:03:06.000Z</time></trkpt>
        <trkpt lat="27.829864" lon="104.328628"><ele>1949.244</ele><time>2026-06-22T19:04:43.000Z</time></trkpt>
        <trkpt lat="27.829879" lon="104.328572"><ele>1948.1543</ele><time>2026-06-22T19:04:58.000Z</time></trkpt>
        <trkpt lat="27.829868" lon="104.328623"><ele>1942.9773</ele><time>2026-06-22T19:05:21.000Z</time></trkpt>
        <trkpt lat="27.829846" lon="104.32867"><ele>1949.7374</ele><time>2026-06-22T19:07:05.000Z</time></trkpt>
        <trkpt lat="27.829829" lon="104.328725"><ele>1948.4856</ele><time>2026-06-22T19:07:13.000Z</time></trkpt>
        <trkpt lat="27.829814" lon="104.328777"><ele>1949.8542</ele><time>2026-06-22T19:07:22.000Z</time></trkpt>
        <trkpt lat="27.829787" lon="104.328834"><ele>1947.0529</ele><time>2026-06-22T19:07:33.000Z</time></trkpt>
        <trkpt lat="27.829742" lon="104.328853"><ele>1948.8617</ele><time>2026-06-22T19:07:55.000Z</time></trkpt>
        <trkpt lat="27.829708" lon="104.328891"><ele>1949.1277</ele><time>2026-06-22T19:08:01.000Z</time></trkpt>
        <trkpt lat="27.829675" lon="104.328926"><ele>1948.4188</ele><time>2026-06-22T19:08:06.000Z</time></trkpt>
        <trkpt lat="27.82963" lon="104.328957"><ele>1946.735</ele><time>2026-06-22T19:08:12.000Z</time></trkpt>
        <trkpt lat="27.829599" lon="104.328995"><ele>1945.322</ele><time>2026-06-22T19:08:18.000Z</time></trkpt>
        <trkpt lat="27.829549" lon="104.329025"><ele>1946.171</ele><time>2026-06-22T19:08:24.000Z</time></trkpt>
        <trkpt lat="27.829516" lon="104.329063"><ele>1946.2704</ele><time>2026-06-22T19:08:29.000Z</time></trkpt>
        <trkpt lat="27.829471" lon="104.329094"><ele>1945.8802</ele><time>2026-06-22T19:08:48.000Z</time></trkpt>
        <trkpt lat="27.829434" lon="104.329132"><ele>1946.4697</ele><time>2026-06-22T19:09:05.000Z</time></trkpt>
        <trkpt lat="27.829399" lon="104.329166"><ele>1944.6923</ele><time>2026-06-22T19:09:10.000Z</time></trkpt>
        <trkpt lat="27.829361" lon="104.3292"><ele>1945.9874</ele><time>2026-06-22T19:09:19.000Z</time></trkpt>
        <trkpt lat="27.829313" lon="104.329228"><ele>1947.6271</ele><time>2026-06-22T19:09:32.000Z</time></trkpt>
        <trkpt lat="27.829286" lon="104.329269"><ele>1947.031</ele><time>2026-06-22T19:09:42.000Z</time></trkpt>
        <trkpt lat="27.829245" lon="104.329298"><ele>1947.1506</ele><time>2026-06-22T19:09:48.000Z</time></trkpt>
        <trkpt lat="27.829194" lon="104.329316"><ele>1951.1923</ele><time>2026-06-22T19:09:55.000Z</time></trkpt>
        <trkpt lat="27.829154" lon="104.329356"><ele>1947.7107</ele><time>2026-06-22T19:10:03.000Z</time></trkpt>
        <trkpt lat="27.829116" lon="104.329385"><ele>1947.1838</ele><time>2026-06-22T19:10:11.000Z</time></trkpt>
        <trkpt lat="27.829077" lon="104.329417"><ele>1947.7091</ele><time>2026-06-22T19:10:20.000Z</time></trkpt>
        <trkpt lat="27.829031" lon="104.329447"><ele>1946.6227</ele><time>2026-06-22T19:10:27.000Z</time></trkpt>
        <trkpt lat="27.82899" lon="104.329477"><ele>1947.0453</ele><time>2026-06-22T19:10:34.000Z</time></trkpt>
        <trkpt lat="27.828942" lon="104.329498"><ele>1946.6428</ele><time>2026-06-22T19:10:50.000Z</time></trkpt>
        <trkpt lat="27.828893" lon="104.329507"><ele>1945.9822</ele><time>2026-06-22T19:10:57.000Z</time></trkpt>
        <trkpt lat="27.828845" lon="104.32952"><ele>1947.0558</ele><time>2026-06-22T19:11:02.000Z</time></trkpt>
        <trkpt lat="27.828792" lon="104.329515"><ele>1946.6355</ele><time>2026-06-22T19:11:08.000Z</time></trkpt>
        <trkpt lat="27.828746" lon="104.329524"><ele>1947.9095</ele><time>2026-06-22T19:11:12.000Z</time></trkpt>
        <trkpt lat="27.828694" lon="104.329544"><ele>1948.4187</ele><time>2026-06-22T19:11:18.000Z</time></trkpt>
        <trkpt lat="27.828647" lon="104.329531"><ele>1948.7527</ele><time>2026-06-22T19:11:23.000Z</time></trkpt>
        <trkpt lat="27.828601" lon="104.329532"><ele>1949.4015</ele><time>2026-06-22T19:11:27.000Z</time></trkpt>
        <trkpt lat="27.828555" lon="104.329537"><ele>1948.1562</ele><time>2026-06-22T19:11:32.000Z</time></trkpt>
        <trkpt lat="27.82852" lon="104.329569"><ele>1949.711</ele><time>2026-06-22T19:11:38.000Z</time></trkpt>
        <trkpt lat="27.828467" lon="104.329581"><ele>1950.2948</ele><time>2026-06-22T19:11:43.000Z</time></trkpt>
        <trkpt lat="27.828426" lon="104.329605"><ele>1947.2942</ele><time>2026-06-22T19:11:49.000Z</time></trkpt>
        <trkpt lat="27.828379" lon="104.329619"><ele>1945.5709</ele><time>2026-06-22T19:11:53.000Z</time></trkpt>
        <trkpt lat="27.828334" lon="104.329647"><ele>1943.9585</ele><time>2026-06-22T19:11:59.000Z</time></trkpt>
        <trkpt lat="27.828305" lon="104.329686"><ele>1939.3748</ele><time>2026-06-22T19:12:05.000Z</time></trkpt>
        <trkpt lat="27.828292" lon="104.329743"><ele>1937.4249</ele><time>2026-06-22T19:12:11.000Z</time></trkpt>
        <trkpt lat="27.828284" lon="104.329793"><ele>1937.446</ele><time>2026-06-22T19:12:15.000Z</time></trkpt>
        <trkpt lat="27.828308" lon="104.329849"><ele>1939.4806</ele><time>2026-06-22T19:12:22.000Z</time></trkpt>
        <trkpt lat="27.828341" lon="104.329887"><ele>1938.3215</ele><time>2026-06-22T19:12:27.000Z</time></trkpt>
        <trkpt lat="27.828341" lon="104.329947"><ele>1936.2112</ele><time>2026-06-22T19:12:32.000Z</time></trkpt>
        <trkpt lat="27.82836" lon="104.329999"><ele>1935.7999</ele><time>2026-06-22T19:12:38.000Z</time></trkpt>
        <trkpt lat="27.828368" lon="104.33005"><ele>1935.8606</ele><time>2026-06-22T19:13:06.000Z</time></trkpt>
        <trkpt lat="27.828347" lon="104.329999"><ele>1932.6133</ele><time>2026-06-22T19:13:19.000Z</time></trkpt>
        <trkpt lat="27.828319" lon="104.329956"><ele>1935.1766</ele><time>2026-06-22T19:13:25.000Z</time></trkpt>
        <trkpt lat="27.828316" lon="104.329902"><ele>1937.0973</ele><time>2026-06-22T19:13:32.000Z</time></trkpt>
        <trkpt lat="27.828324" lon="104.329851"><ele>1937.4713</ele><time>2026-06-22T19:13:44.000Z</time></trkpt>
        <trkpt lat="27.828277" lon="104.329857"><ele>1935.9602</ele><time>2026-06-22T19:13:59.000Z</time></trkpt>
        <trkpt lat="27.828244" lon="104.329902"><ele>1935.2753</ele><time>2026-06-22T19:14:23.000Z</time></trkpt>
        <trkpt lat="27.828186" lon="104.329914"><ele>1938.2778</ele><time>2026-06-22T19:15:15.000Z</time></trkpt>
        <trkpt lat="27.828149" lon="104.329946"><ele>1940.0916</ele><time>2026-06-22T19:15:28.000Z</time></trkpt>
        <trkpt lat="27.828195" lon="104.329963"><ele>1937.1705</ele><time>2026-06-22T19:15:41.000Z</time></trkpt>
        <trkpt lat="27.8282" lon="104.330013"><ele>1933.2059</ele><time>2026-06-22T19:16:01.000Z</time></trkpt>
        <trkpt lat="27.828242" lon="104.330037"><ele>1941.4496</ele><time>2026-06-22T19:16:24.000Z</time></trkpt>
        <trkpt lat="27.828208" lon="104.330077"><ele>1934.7003</ele><time>2026-06-22T19:16:40.000Z</time></trkpt>
        <trkpt lat="27.828215" lon="104.330133"><ele>1936.0134</ele><time>2026-06-22T19:16:51.000Z</time></trkpt>
        <trkpt lat="27.828204" lon="104.330187"><ele>1933.606</ele><time>2026-06-22T19:17:11.000Z</time></trkpt>
        <trkpt lat="27.82819" lon="104.330237"><ele>1934.875</ele><time>2026-06-22T19:17:19.000Z</time></trkpt>
        <trkpt lat="27.828166" lon="104.330284"><ele>1934.6526</ele><time>2026-06-22T19:17:30.000Z</time></trkpt>
        <trkpt lat="27.828119" lon="104.33028"><ele>1934.9912</ele><time>2026-06-22T19:17:42.000Z</time></trkpt>
        <trkpt lat="27.828075" lon="104.330256"><ele>1935.1667</ele><time>2026-06-22T19:18:02.000Z</time></trkpt>
        <trkpt lat="27.828045" lon="104.330295"><ele>1935.6903</ele><time>2026-06-22T19:18:19.000Z</time></trkpt>
        <trkpt lat="27.828007" lon="104.330328"><ele>1934.1611</ele><time>2026-06-22T19:18:51.000Z</time></trkpt>
        <trkpt lat="27.827991" lon="104.330385"><ele>1933.8888</ele><time>2026-06-22T19:19:02.000Z</time></trkpt>
        <trkpt lat="27.827959" lon="104.33042"><ele>1933.7473</ele><time>2026-06-22T19:20:20.000Z</time></trkpt>
        <trkpt lat="27.827911" lon="104.330422"><ele>1935.8107</ele><time>2026-06-22T19:21:04.000Z</time></trkpt>
        <trkpt lat="27.827866" lon="104.330442"><ele>1930.7688</ele><time>2026-06-22T19:21:55.000Z</time></trkpt>
        <trkpt lat="27.827856" lon="104.330387"><ele>1934.5261</ele><time>2026-06-22T19:22:21.000Z</time></trkpt>
        <trkpt lat="27.827886" lon="104.330426"><ele>1936.5197</ele><time>2026-06-22T19:23:27.000Z</time></trkpt>
        <trkpt lat="27.82788" lon="104.330477"><ele>1937.6917</ele><time>2026-06-22T19:24:16.000Z</time></trkpt>
        <trkpt lat="27.827926" lon="104.3305"><ele>1934.4548</ele><time>2026-06-22T19:24:59.000Z</time></trkpt>
        <trkpt lat="27.827891" lon="104.330465"><ele>1932.2716</ele><time>2026-06-22T19:25:04.000Z</time></trkpt>
        <trkpt lat="27.827882" lon="104.330415"><ele>1934.7662</ele><time>2026-06-22T19:26:15.000Z</time></trkpt>
        <trkpt lat="27.827864" lon="104.330467"><ele>1934.2141</ele><time>2026-06-22T19:26:20.000Z</time></trkpt>
        <trkpt lat="27.8279" lon="104.330498"><ele>1940.2241</ele><time>2026-06-22T19:26:40.000Z</time></trkpt>
        <trkpt lat="27.827871" lon="104.33044"><ele>1938.4543</ele><time>2026-06-22T19:26:55.000Z</time></trkpt>
        <trkpt lat="27.827916" lon="104.33042"><ele>1938.4072</ele><time>2026-06-22T19:27:35.000Z</time></trkpt>
        <trkpt lat="27.827884" lon="104.330381"><ele>1936.0675</ele><time>2026-06-22T19:27:42.000Z</time></trkpt>
        <trkpt lat="27.827874" lon="104.330431"><ele>1938.3007</ele><time>2026-06-22T19:30:03.000Z</time></trkpt>
        <trkpt lat="27.82783" lon="104.330417"><ele>1931.8083</ele><time>2026-06-22T19:30:37.000Z</time></trkpt>
        <trkpt lat="27.827823" lon="104.330471"><ele>1935.1691</ele><time>2026-06-22T19:31:20.000Z</time></trkpt>
        <trkpt lat="27.8278" lon="104.330515"><ele>1935.1019</ele><time>2026-06-22T19:32:18.000Z</time></trkpt>
        <trkpt lat="27.827759" lon="104.330483"><ele>1932.5157</ele><time>2026-06-22T19:32:30.000Z</time></trkpt>
        <trkpt lat="27.827728" lon="104.330525"><ele>1934.0449</ele><time>2026-06-22T19:33:35.000Z</time></trkpt>
        <trkpt lat="27.827696" lon="104.330568"><ele>1934.4883</ele><time>2026-06-22T19:33:51.000Z</time></trkpt>
        <trkpt lat="27.827753" lon="104.330563"><ele>1935.4889</ele><time>2026-06-22T19:33:57.000Z</time></trkpt>
        <trkpt lat="27.827763" lon="104.330508"><ele>1936.0483</ele><time>2026-06-22T19:34:30.000Z</time></trkpt>
        <trkpt lat="27.827772" lon="104.330559"><ele>1938.7073</ele><time>2026-06-22T19:35:16.000Z</time></trkpt>
        <trkpt lat="27.827808" lon="104.330595"><ele>1935.4443</ele><time>2026-06-22T19:36:11.000Z</time></trkpt>
        <trkpt lat="27.827808" lon="104.330649"><ele>1932.5134</ele><time>2026-06-22T19:36:55.000Z</time></trkpt>
        <trkpt lat="27.82779" lon="104.3307"><ele>1930.225</ele><time>2026-06-22T19:37:15.000Z</time></trkpt>
        <trkpt lat="27.827748" lon="104.330729"><ele>1925.3287</ele><time>2026-06-22T19:37:40.000Z</time></trkpt>
        <trkpt lat="27.827731" lon="104.33078"><ele>1933.8845</ele><time>2026-06-22T19:38:03.000Z</time></trkpt>
        <trkpt lat="27.827709" lon="104.330835"><ele>1930.3676</ele><time>2026-06-22T19:38:25.000Z</time></trkpt>
        <trkpt lat="27.827682" lon="104.330877"><ele>1928.7977</ele><time>2026-06-22T19:38:32.000Z</time></trkpt>
        <trkpt lat="27.827643" lon="104.330907"><ele>1926.7568</ele><time>2026-06-22T19:38:37.000Z</time></trkpt>
        <trkpt lat="27.827618" lon="104.330951"><ele>1928.9102</ele><time>2026-06-22T19:38:41.000Z</time></trkpt>
        <trkpt lat="27.827579" lon="104.330997"><ele>1930.2048</ele><time>2026-06-22T19:38:48.000Z</time></trkpt>
        <trkpt lat="27.827557" lon="104.331042"><ele>1929.6593</ele><time>2026-06-22T19:38:53.000Z</time></trkpt>
        <trkpt lat="27.827538" lon="104.331099"><ele>1927.8398</ele><time>2026-06-22T19:38:59.000Z</time></trkpt>
        <trkpt lat="27.827516" lon="104.331151"><ele>1929.1682</ele><time>2026-06-22T19:39:03.000Z</time></trkpt>
        <trkpt lat="27.827482" lon="104.331199"><ele>1927.9618</ele><time>2026-06-22T19:39:09.000Z</time></trkpt>
        <trkpt lat="27.827446" lon="104.331234"><ele>1928.6166</ele><time>2026-06-22T19:39:25.000Z</time></trkpt>
        <trkpt lat="27.827408" lon="104.33127"><ele>1926.9413</ele><time>2026-06-22T19:39:30.000Z</time></trkpt>
        <trkpt lat="27.827371" lon="104.3313"><ele>1924.9855</ele><time>2026-06-22T19:39:36.000Z</time></trkpt>
        <trkpt lat="27.827366" lon="104.331354"><ele>1926.2484</ele><time>2026-06-22T19:39:42.000Z</time></trkpt>
        <trkpt lat="27.827332" lon="104.331389"><ele>1927.5112</ele><time>2026-06-22T19:39:51.000Z</time></trkpt>
        <trkpt lat="27.827288" lon="104.331413"><ele>1925.6307</ele><time>2026-06-22T19:40:00.000Z</time></trkpt>
        <trkpt lat="27.827263" lon="104.331465"><ele>1925.1477</ele><time>2026-06-22T19:40:08.000Z</time></trkpt>
        <trkpt lat="27.827232" lon="104.331505"><ele>1924.0648</ele><time>2026-06-22T19:40:14.000Z</time></trkpt>
        <trkpt lat="27.827209" lon="104.33155"><ele>1922.9711</ele><time>2026-06-22T19:40:20.000Z</time></trkpt>
        <trkpt lat="27.827164" lon="104.331583"><ele>1925.9695</ele><time>2026-06-22T19:40:27.000Z</time></trkpt>
        <trkpt lat="27.827143" lon="104.331642"><ele>1926.4656</ele><time>2026-06-22T19:40:31.000Z</time></trkpt>
        <trkpt lat="27.827123" lon="104.3317"><ele>1927.4543</ele><time>2026-06-22T19:40:37.000Z</time></trkpt>
        <trkpt lat="27.827094" lon="104.331743"><ele>1927.1603</ele><time>2026-06-22T19:40:42.000Z</time></trkpt>
        <trkpt lat="27.827063" lon="104.331787"><ele>1924.19</ele><time>2026-06-22T19:40:46.000Z</time></trkpt>
        <trkpt lat="27.827023" lon="104.331815"><ele>1925.3386</ele><time>2026-06-22T19:40:51.000Z</time></trkpt>
        <trkpt lat="27.826989" lon="104.331861"><ele>1923.8619</ele><time>2026-06-22T19:40:57.000Z</time></trkpt>
        <trkpt lat="27.826948" lon="104.331897"><ele>1924.0479</ele><time>2026-06-22T19:41:02.000Z</time></trkpt>
        <trkpt lat="27.826921" lon="104.331938"><ele>1923.2692</ele><time>2026-06-22T19:41:07.000Z</time></trkpt>
        <trkpt lat="27.826886" lon="104.331978"><ele>1921.9281</ele><time>2026-06-22T19:41:14.000Z</time></trkpt>
        <trkpt lat="27.826844" lon="104.331996"><ele>1922.9054</ele><time>2026-06-22T19:41:22.000Z</time></trkpt>
        <trkpt lat="27.826801" lon="104.332029"><ele>1922.7161</ele><time>2026-06-22T19:41:32.000Z</time></trkpt>
        <trkpt lat="27.826761" lon="104.332066"><ele>1922.2737</ele><time>2026-06-22T19:41:38.000Z</time></trkpt>
        <trkpt lat="27.826723" lon="104.332102"><ele>1923.7218</ele><time>2026-06-22T19:41:46.000Z</time></trkpt>
        <trkpt lat="27.826682" lon="104.332138"><ele>1923.1212</ele><time>2026-06-22T19:41:54.000Z</time></trkpt>
        <trkpt lat="27.826646" lon="104.332173"><ele>1922.1451</ele><time>2026-06-22T19:42:03.000Z</time></trkpt>
        <trkpt lat="27.82661" lon="104.332204"><ele>1921.1388</ele><time>2026-06-22T19:42:08.000Z</time></trkpt>
        <trkpt lat="27.826568" lon="104.332248"><ele>1921.8187</ele><time>2026-06-22T19:42:25.000Z</time></trkpt>
        <trkpt lat="27.826529" lon="104.332278"><ele>1921.1469</ele><time>2026-06-22T19:42:36.000Z</time></trkpt>
        <trkpt lat="27.826492" lon="104.332315"><ele>1919.7893</ele><time>2026-06-22T19:42:43.000Z</time></trkpt>
        <trkpt lat="27.826458" lon="104.332349"><ele>1919.305</ele><time>2026-06-22T19:42:49.000Z</time></trkpt>
        <trkpt lat="27.826419" lon="104.332388"><ele>1920.5193</ele><time>2026-06-22T19:42:55.000Z</time></trkpt>
        <trkpt lat="27.826386" lon="104.332424"><ele>1919.9341</ele><time>2026-06-22T19:43:03.000Z</time></trkpt>
        <trkpt lat="27.826358" lon="104.332468"><ele>1920.2048</ele><time>2026-06-22T19:43:11.000Z</time></trkpt>
        <trkpt lat="27.826322" lon="104.332503"><ele>1920.6449</ele><time>2026-06-22T19:43:30.000Z</time></trkpt>
        <trkpt lat="27.82628" lon="104.332534"><ele>1923.2906</ele><time>2026-06-22T19:44:24.000Z</time></trkpt>
        <trkpt lat="27.826235" lon="104.332536"><ele>1924.6564</ele><time>2026-06-22T19:45:04.000Z</time></trkpt>
        <trkpt lat="27.826285" lon="104.332534"><ele>1923.0094</ele><time>2026-06-22T19:45:45.000Z</time></trkpt>
        <trkpt lat="27.826296" lon="104.332481"><ele>1925.2413</ele><time>2026-06-22T19:46:07.000Z</time></trkpt>
        <trkpt lat="27.826261" lon="104.332514"><ele>1924.946</ele><time>2026-06-22T19:46:38.000Z</time></trkpt>
        <trkpt lat="27.826287" lon="104.332556"><ele>1923.638</ele><time>2026-06-22T19:46:51.000Z</time></trkpt>
        <trkpt lat="27.826282" lon="104.332503"><ele>1924.7942</ele><time>2026-06-22T19:48:04.000Z</time></trkpt>
        <trkpt lat="27.82631" lon="104.332458"><ele>1926.4286</ele><time>2026-06-22T19:48:13.000Z</time></trkpt>
        <trkpt lat="27.826282" lon="104.332503"><ele>1924.0021</ele><time>2026-06-22T19:49:27.000Z</time></trkpt>
        <trkpt lat="27.826268" lon="104.332553"><ele>1921.5887</ele><time>2026-06-22T19:49:33.000Z</time></trkpt>
        <trkpt lat="27.826236" lon="104.33259"><ele>1923.0154</ele><time>2026-06-22T19:49:36.000Z</time></trkpt>
        <trkpt lat="27.826196" lon="104.332614"><ele>1927.1576</ele><time>2026-06-22T19:49:44.000Z</time></trkpt>
        <trkpt lat="27.826212" lon="104.332563"><ele>1927.7937</ele><time>2026-06-22T19:49:55.000Z</time></trkpt>
        <trkpt lat="27.826265" lon="104.332555"><ele>1921.0911</ele><time>2026-06-22T19:50:18.000Z</time></trkpt>
        <trkpt lat="27.826297" lon="104.332518"><ele>1921.8842</ele><time>2026-06-22T19:50:31.000Z</time></trkpt>
        <trkpt lat="27.826252" lon="104.332528"><ele>1924.0305</ele><time>2026-06-22T19:51:25.000Z</time></trkpt>
        <trkpt lat="27.826234" lon="104.332579"><ele>1923.9567</ele><time>2026-06-22T19:51:32.000Z</time></trkpt>
        <trkpt lat="27.82621" lon="104.332627"><ele>1922.8389</ele><time>2026-06-22T19:51:41.000Z</time></trkpt>
        <trkpt lat="27.826192" lon="104.332673"><ele>1917.4896</ele><time>2026-06-22T19:51:48.000Z</time></trkpt>
        <trkpt lat="27.826152" lon="104.332709"><ele>1918.7996</ele><time>2026-06-22T19:51:54.000Z</time></trkpt>
        <trkpt lat="27.826124" lon="104.332761"><ele>1917.7637</ele><time>2026-06-22T19:52:00.000Z</time></trkpt>
        <trkpt lat="27.826099" lon="104.332813"><ele>1917.1711</ele><time>2026-06-22T19:52:07.000Z</time></trkpt>
        <trkpt lat="27.826054" lon="104.332836"><ele>1918.9456</ele><time>2026-06-22T19:53:06.000Z</time></trkpt>
        <trkpt lat="27.826034" lon="104.332882"><ele>1918.59</ele><time>2026-06-22T19:53:14.000Z</time></trkpt>
        <trkpt lat="27.826022" lon="104.332936"><ele>1917.7059</ele><time>2026-06-22T19:53:20.000Z</time></trkpt>
        <trkpt lat="27.826017" lon="104.332988"><ele>1917.7705</ele><time>2026-06-22T19:53:54.000Z</time></trkpt>
        <trkpt lat="27.825979" lon="104.333026"><ele>1918.525</ele><time>2026-06-22T19:54:24.000Z</time></trkpt>
        <trkpt lat="27.825958" lon="104.333076"><ele>1919.7131</ele><time>2026-06-22T19:54:31.000Z</time></trkpt>
        <trkpt lat="27.825935" lon="104.333122"><ele>1919.9242</ele><time>2026-06-22T19:54:36.000Z</time></trkpt>
        <trkpt lat="27.825908" lon="104.333167"><ele>1917.2969</ele><time>2026-06-22T19:54:53.000Z</time></trkpt>
        <trkpt lat="27.825899" lon="104.333225"><ele>1915.5417</ele><time>2026-06-22T19:55:00.000Z</time></trkpt>
        <trkpt lat="27.82586" lon="104.333265"><ele>1917.7034</ele><time>2026-06-22T19:55:12.000Z</time></trkpt>
        <trkpt lat="27.825825" lon="104.333308"><ele>1915.5856</ele><time>2026-06-22T19:55:30.000Z</time></trkpt>
        <trkpt lat="27.825785" lon="104.333349"><ele>1917.1367</ele><time>2026-06-22T19:55:55.000Z</time></trkpt>
        <trkpt lat="27.825757" lon="104.33339"><ele>1916.0195</ele><time>2026-06-22T19:56:10.000Z</time></trkpt>
        <trkpt lat="27.825741" lon="104.333445"><ele>1912.6665</ele><time>2026-06-22T19:56:22.000Z</time></trkpt>
        <trkpt lat="27.825702" lon="104.333477"><ele>1914.3933</ele><time>2026-06-22T19:56:35.000Z</time></trkpt>
        <trkpt lat="27.825664" lon="104.333518"><ele>1916.1383</ele><time>2026-06-22T19:56:46.000Z</time></trkpt>
        <trkpt lat="27.825657" lon="104.333569"><ele>1913.3192</ele><time>2026-06-22T19:56:53.000Z</time></trkpt>
        <trkpt lat="27.825623" lon="104.333606"><ele>1914.313</ele><time>2026-06-22T19:56:59.000Z</time></trkpt>
        <trkpt lat="27.825592" lon="104.33365"><ele>1914.2856</ele><time>2026-06-22T19:57:06.000Z</time></trkpt>
        <trkpt lat="27.825595" lon="104.333704"><ele>1913.033</ele><time>2026-06-22T19:57:13.000Z</time></trkpt>
        <trkpt lat="27.825577" lon="104.333753"><ele>1913.0975</ele><time>2026-06-22T19:57:19.000Z</time></trkpt>
        <trkpt lat="27.825545" lon="104.333796"><ele>1913.9147</ele><time>2026-06-22T19:57:32.000Z</time></trkpt>
        <trkpt lat="27.82552" lon="104.333842"><ele>1912.5304</ele><time>2026-06-22T19:57:48.000Z</time></trkpt>
        <trkpt lat="27.825504" lon="104.333899"><ele>1916.0828</ele><time>2026-06-22T19:58:01.000Z</time></trkpt>
        <trkpt lat="27.825524" lon="104.33395"><ele>1915.2106</ele><time>2026-06-22T19:58:17.000Z</time></trkpt>
        <trkpt lat="27.825533" lon="104.334015"><ele>1912.4447</ele><time>2026-06-22T19:58:36.000Z</time></trkpt>
        <trkpt lat="27.825513" lon="104.334068"><ele>1910.525</ele><time>2026-06-22T19:58:41.000Z</time></trkpt>
        <trkpt lat="27.825487" lon="104.334111"><ele>1911.4464</ele><time>2026-06-22T19:58:50.000Z</time></trkpt>
        <trkpt lat="27.825462" lon="104.334153"><ele>1912.2734</ele><time>2026-06-22T19:58:54.000Z</time></trkpt>
        <trkpt lat="27.825431" lon="104.334203"><ele>1912.3795</ele><time>2026-06-22T19:59:01.000Z</time></trkpt>
        <trkpt lat="27.8254" lon="104.334252"><ele>1913.5673</ele><time>2026-06-22T19:59:10.000Z</time></trkpt>
        <trkpt lat="27.825368" lon="104.334299"><ele>1912.763</ele><time>2026-06-22T19:59:17.000Z</time></trkpt>
        <trkpt lat="27.825336" lon="104.334334"><ele>1913.6006</ele><time>2026-06-22T19:59:21.000Z</time></trkpt>
        <trkpt lat="27.825321" lon="104.334387"><ele>1913.2833</ele><time>2026-06-22T19:59:28.000Z</time></trkpt>
        <trkpt lat="27.825299" lon="104.33444"><ele>1911.9644</ele><time>2026-06-22T19:59:44.000Z</time></trkpt>
        <trkpt lat="27.82526" lon="104.334466"><ele>1911.6349</ele><time>2026-06-22T20:00:23.000Z</time></trkpt>
        <trkpt lat="27.825235" lon="104.33451"><ele>1913.1006</ele><time>2026-06-22T20:00:30.000Z</time></trkpt>
        <trkpt lat="27.8252" lon="104.334553"><ele>1914.4534</ele><time>2026-06-22T20:00:44.000Z</time></trkpt>
        <trkpt lat="27.82515" lon="104.334553"><ele>1916.3315</ele><time>2026-06-22T20:00:51.000Z</time></trkpt>
        <trkpt lat="27.825122" lon="104.3346"><ele>1916.2772</ele><time>2026-06-22T20:00:57.000Z</time></trkpt>
        <trkpt lat="27.82508" lon="104.334621"><ele>1910.1735</ele><time>2026-06-22T20:01:12.000Z</time></trkpt>
        <trkpt lat="27.825035" lon="104.334618"><ele>1915.4778</ele><time>2026-06-22T20:01:21.000Z</time></trkpt>
        <trkpt lat="27.824991" lon="104.334602"><ele>1911.4319</ele><time>2026-06-22T20:01:40.000Z</time></trkpt>
        <trkpt lat="27.824977" lon="104.334551"><ele>1908.8768</ele><time>2026-06-22T20:01:50.000Z</time></trkpt>
        <trkpt lat="27.824974" lon="104.3345"><ele>1907.8091</ele><time>2026-06-22T20:02:07.000Z</time></trkpt>
        <trkpt lat="27.824927" lon="104.334489"><ele>1909.0077</ele><time>2026-06-22T20:02:26.000Z</time></trkpt>
        <trkpt lat="27.824879" lon="104.334488"><ele>1912.057</ele><time>2026-06-22T20:02:36.000Z</time></trkpt>
        <trkpt lat="27.824831" lon="104.334467"><ele>1916.7687</ele><time>2026-06-22T20:02:52.000Z</time></trkpt>
        <trkpt lat="27.824787" lon="104.334446"><ele>1912.8976</ele><time>2026-06-22T20:02:59.000Z</time></trkpt>
        <trkpt lat="27.824737" lon="104.33442"><ele>1910.9695</ele><time>2026-06-22T20:03:06.000Z</time></trkpt>
        <trkpt lat="27.824693" lon="104.334403"><ele>1910.7462</ele><time>2026-06-22T20:03:13.000Z</time></trkpt>
        <trkpt lat="27.824647" lon="104.334409"><ele>1910.5549</ele><time>2026-06-22T20:03:19.000Z</time></trkpt>
        <trkpt lat="27.824603" lon="104.334395"><ele>1909.6438</ele><time>2026-06-22T20:03:25.000Z</time></trkpt>
        <trkpt lat="27.824556" lon="104.334371"><ele>1909.874</ele><time>2026-06-22T20:03:32.000Z</time></trkpt>
        <trkpt lat="27.82453" lon="104.33432"><ele>1909.4755</ele><time>2026-06-22T20:03:38.000Z</time></trkpt>
        <trkpt lat="27.824486" lon="104.334296"><ele>1913.5803</ele><time>2026-06-22T20:03:42.000Z</time></trkpt>
        <trkpt lat="27.824446" lon="104.33427"><ele>1915.6406</ele><time>2026-06-22T20:03:47.000Z</time></trkpt>
        <trkpt lat="27.824409" lon="104.33424"><ele>1916.041</ele><time>2026-06-22T20:03:53.000Z</time></trkpt>
        <trkpt lat="27.824355" lon="104.334215"><ele>1912.1908</ele><time>2026-06-22T20:04:04.000Z</time></trkpt>
        <trkpt lat="27.824313" lon="104.334188"><ele>1915.4016</ele><time>2026-06-22T20:04:10.000Z</time></trkpt>
        <trkpt lat="27.824259" lon="104.334174"><ele>1913.5046</ele><time>2026-06-22T20:04:19.000Z</time></trkpt>
        <trkpt lat="27.824211" lon="104.33416"><ele>1911.3468</ele><time>2026-06-22T20:04:25.000Z</time></trkpt>
        <trkpt lat="27.82417" lon="104.33414"><ele>1909.4904</ele><time>2026-06-22T20:04:31.000Z</time></trkpt>
        <trkpt lat="27.824126" lon="104.334155"><ele>1909.8168</ele><time>2026-06-22T20:04:37.000Z</time></trkpt>
        <trkpt lat="27.82408" lon="104.334162"><ele>1907.6296</ele><time>2026-06-22T20:04:44.000Z</time></trkpt>
        <trkpt lat="27.824036" lon="104.334188"><ele>1907.715</ele><time>2026-06-22T20:04:50.000Z</time></trkpt>
        <trkpt lat="27.824003" lon="104.334231"><ele>1908.614</ele><time>2026-06-22T20:04:56.000Z</time></trkpt>
        <trkpt lat="27.823968" lon="104.334265"><ele>1909.3558</ele><time>2026-06-22T20:05:01.000Z</time></trkpt>
        <trkpt lat="27.823933" lon="104.334298"><ele>1909.5109</ele><time>2026-06-22T20:05:06.000Z</time></trkpt>
        <trkpt lat="27.8239" lon="104.334333"><ele>1913.0193</ele><time>2026-06-22T20:05:10.000Z</time></trkpt>
        <trkpt lat="27.823858" lon="104.334354"><ele>1913.0154</ele><time>2026-06-22T20:05:22.000Z</time></trkpt>
        <trkpt lat="27.823815" lon="104.334373"><ele>1908.6559</ele><time>2026-06-22T20:05:31.000Z</time></trkpt>
        <trkpt lat="27.823768" lon="104.334386"><ele>1905.5135</ele><time>2026-06-22T20:05:38.000Z</time></trkpt>
        <trkpt lat="27.823731" lon="104.334416"><ele>1902.2058</ele><time>2026-06-22T20:05:46.000Z</time></trkpt>
        <trkpt lat="27.823684" lon="104.334391"><ele>1902.8765</ele><time>2026-06-22T20:06:10.000Z</time></trkpt>
        <trkpt lat="27.823652" lon="104.334432"><ele>1905.2781</ele><time>2026-06-22T20:06:27.000Z</time></trkpt>
        <trkpt lat="27.823653" lon="104.334484"><ele>1903.2815</ele><time>2026-06-22T20:06:54.000Z</time></trkpt>
        <trkpt lat="27.823676" lon="104.334539"><ele>1902.1707</ele><time>2026-06-22T20:07:02.000Z</time></trkpt>
        <trkpt lat="27.82369" lon="104.334593"><ele>1902.8047</ele><time>2026-06-22T20:07:08.000Z</time></trkpt>
        <trkpt lat="27.823698" lon="104.334643"><ele>1902.3588</ele><time>2026-06-22T20:07:14.000Z</time></trkpt>
        <trkpt lat="27.823689" lon="104.334695"><ele>1908.541</ele><time>2026-06-22T20:07:32.000Z</time></trkpt>
        <trkpt lat="27.823674" lon="104.334743"><ele>1907.9467</ele><time>2026-06-22T20:07:38.000Z</time></trkpt>
        <trkpt lat="27.823641" lon="104.334788"><ele>1908.6915</ele><time>2026-06-22T20:07:43.000Z</time></trkpt>
        <trkpt lat="27.823605" lon="104.334822"><ele>1908.2333</ele><time>2026-06-22T20:07:51.000Z</time></trkpt>
        <trkpt lat="27.823558" lon="104.334817"><ele>1902.5651</ele><time>2026-06-22T20:08:19.000Z</time></trkpt>
        <trkpt lat="27.823512" lon="104.334813"><ele>1903.849</ele><time>2026-06-22T20:08:45.000Z</time></trkpt>
        <trkpt lat="27.823464" lon="104.334808"><ele>1902.6394</ele><time>2026-06-22T20:09:06.000Z</time></trkpt>
        <trkpt lat="27.823432" lon="104.334771"><ele>1902.2495</ele><time>2026-06-22T20:09:28.000Z</time></trkpt>
        <trkpt lat="27.823392" lon="104.334743"><ele>1903.5464</ele><time>2026-06-22T20:09:54.000Z</time></trkpt>
        <trkpt lat="27.823443" lon="104.334767"><ele>1903.7885</ele><time>2026-06-22T20:10:35.000Z</time></trkpt>
        <trkpt lat="27.823407" lon="104.334803"><ele>1903.8502</ele><time>2026-06-22T20:10:40.000Z</time></trkpt>
        <trkpt lat="27.82336" lon="104.334791"><ele>1905.4701</ele><time>2026-06-22T20:12:20.000Z</time></trkpt>
        <trkpt lat="27.823398" lon="104.334754"><ele>1909.5276</ele><time>2026-06-22T20:13:02.000Z</time></trkpt>
        <trkpt lat="27.823352" lon="104.33477"><ele>1909.6168</ele><time>2026-06-22T20:13:26.000Z</time></trkpt>
        <trkpt lat="27.823316" lon="104.334734"><ele>1904.2007</ele><time>2026-06-22T20:14:06.000Z</time></trkpt>
        <trkpt lat="27.823365" lon="104.334735"><ele>1902.6461</ele><time>2026-06-22T20:15:50.000Z</time></trkpt>
        <trkpt lat="27.823382" lon="104.334783"><ele>1902.5525</ele><time>2026-06-22T20:16:21.000Z</time></trkpt>
        <trkpt lat="27.823348" lon="104.334818"><ele>1902.9224</ele><time>2026-06-22T20:16:40.000Z</time></trkpt>
        <trkpt lat="27.823397" lon="104.334782"><ele>1906.341</ele><time>2026-06-22T20:17:04.000Z</time></trkpt>
        <trkpt lat="27.823384" lon="104.334834"><ele>1908.6465</ele><time>2026-06-22T20:17:42.000Z</time></trkpt>
        <trkpt lat="27.823431" lon="104.334795"><ele>1908.1693</ele><time>2026-06-22T20:17:53.000Z</time></trkpt>
        <trkpt lat="27.823456" lon="104.334845"><ele>1903.8285</ele><time>2026-06-22T20:19:54.000Z</time></trkpt>
        <trkpt lat="27.823519" lon="104.334828"><ele>1905.4164</ele><time>2026-06-22T20:20:08.000Z</time></trkpt>
        <trkpt lat="27.823531" lon="104.334877"><ele>1910.3315</ele><time>2026-06-22T20:20:25.000Z</time></trkpt>
        <trkpt lat="27.823577" lon="104.334859"><ele>1907.4677</ele><time>2026-06-22T20:20:47.000Z</time></trkpt>
        <trkpt lat="27.823542" lon="104.334895"><ele>1908.9808</ele><time>2026-06-22T20:21:04.000Z</time></trkpt>
        <trkpt lat="27.823491" lon="104.334939"><ele>1908.5868</ele><time>2026-06-22T20:21:19.000Z</time></trkpt>
        <trkpt lat="27.823453" lon="104.334972"><ele>1906.6069</ele><time>2026-06-22T20:21:27.000Z</time></trkpt>
        <trkpt lat="27.823454" lon="104.335024"><ele>1904.7673</ele><time>2026-06-22T20:21:37.000Z</time></trkpt>
        <trkpt lat="27.823413" lon="104.335063"><ele>1907.084</ele><time>2026-06-22T20:21:53.000Z</time></trkpt>
        <trkpt lat="27.823381" lon="104.335106"><ele>1907.8539</ele><time>2026-06-22T20:21:59.000Z</time></trkpt>
        <trkpt lat="27.823347" lon="104.335149"><ele>1909.1012</ele><time>2026-06-22T20:22:07.000Z</time></trkpt>
        <trkpt lat="27.82333" lon="104.335198"><ele>1909.1877</ele><time>2026-06-22T20:22:12.000Z</time></trkpt>
        <trkpt lat="27.823295" lon="104.335246"><ele>1909.4977</ele><time>2026-06-22T20:22:17.000Z</time></trkpt>
        <trkpt lat="27.823275" lon="104.335294"><ele>1912.0557</ele><time>2026-06-22T20:22:23.000Z</time></trkpt>
        <trkpt lat="27.823255" lon="104.335352"><ele>1912.2949</ele><time>2026-06-22T20:22:30.000Z</time></trkpt>
        <trkpt lat="27.823236" lon="104.3354"><ele>1909.2935</ele><time>2026-06-22T20:22:37.000Z</time></trkpt>
        <trkpt lat="27.823216" lon="104.335452"><ele>1909.4213</ele><time>2026-06-22T20:22:42.000Z</time></trkpt>
        <trkpt lat="27.823203" lon="104.335504"><ele>1911.5405</ele><time>2026-06-22T20:22:50.000Z</time></trkpt>
        <trkpt lat="27.82318" lon="104.335553"><ele>1912.9453</ele><time>2026-06-22T20:22:55.000Z</time></trkpt>
        <trkpt lat="27.823191" lon="104.335607"><ele>1912.6067</ele><time>2026-06-22T20:23:00.000Z</time></trkpt>
        <trkpt lat="27.823181" lon="104.335662"><ele>1911.2235</ele><time>2026-06-22T20:23:06.000Z</time></trkpt>
        <trkpt lat="27.823156" lon="104.335714"><ele>1908.9963</ele><time>2026-06-22T20:23:11.000Z</time></trkpt>
        <trkpt lat="27.823163" lon="104.33577"><ele>1908.0289</ele><time>2026-06-22T20:23:17.000Z</time></trkpt>
        <trkpt lat="27.823164" lon="104.335827"><ele>1904.3337</ele><time>2026-06-22T20:23:33.000Z</time></trkpt>
        <trkpt lat="27.823158" lon="104.335882"><ele>1904.1104</ele><time>2026-06-22T20:23:45.000Z</time></trkpt>
        <trkpt lat="27.823135" lon="104.335931"><ele>1908.8159</ele><time>2026-06-22T20:23:52.000Z</time></trkpt>
        <trkpt lat="27.823145" lon="104.335982"><ele>1912.0668</ele><time>2026-06-22T20:24:04.000Z</time></trkpt>
        <trkpt lat="27.82311" lon="104.336016"><ele>1909.0631</ele><time>2026-06-22T20:24:18.000Z</time></trkpt>
        <trkpt lat="27.823134" lon="104.336066"><ele>1906.8599</ele><time>2026-06-22T20:24:27.000Z</time></trkpt>
        <trkpt lat="27.823123" lon="104.336129"><ele>1906.3555</ele><time>2026-06-22T20:24:32.000Z</time></trkpt>
        <trkpt lat="27.823141" lon="104.336178"><ele>1904.802</ele><time>2026-06-22T20:24:38.000Z</time></trkpt>
        <trkpt lat="27.823125" lon="104.336229"><ele>1905.4835</ele><time>2026-06-22T20:24:44.000Z</time></trkpt>
        <trkpt lat="27.823131" lon="104.336284"><ele>1905.8013</ele><time>2026-06-22T20:24:50.000Z</time></trkpt>
        <trkpt lat="27.823124" lon="104.336343"><ele>1906.8359</ele><time>2026-06-22T20:25:00.000Z</time></trkpt>
        <trkpt lat="27.823148" lon="104.336401"><ele>1905.6938</ele><time>2026-06-22T20:25:07.000Z</time></trkpt>
        <trkpt lat="27.823156" lon="104.336459"><ele>1905.4696</ele><time>2026-06-22T20:25:20.000Z</time></trkpt>
        <trkpt lat="27.823127" lon="104.33651"><ele>1904.637</ele><time>2026-06-22T20:25:33.000Z</time></trkpt>
        <trkpt lat="27.823125" lon="104.336565"><ele>1905.3917</ele><time>2026-06-22T20:25:45.000Z</time></trkpt>
        <trkpt lat="27.823108" lon="104.336614"><ele>1904.5688</ele><time>2026-06-22T20:25:54.000Z</time></trkpt>
        <trkpt lat="27.823118" lon="104.336676"><ele>1905.953</ele><time>2026-06-22T20:26:00.000Z</time></trkpt>
        <trkpt lat="27.823138" lon="104.336725"><ele>1905.7778</ele><time>2026-06-22T20:26:06.000Z</time></trkpt>
        <trkpt lat="27.823154" lon="104.336776"><ele>1905.9572</ele><time>2026-06-22T20:26:10.000Z</time></trkpt>
        <trkpt lat="27.823179" lon="104.336831"><ele>1905.9707</ele><time>2026-06-22T20:26:16.000Z</time></trkpt>
        <trkpt lat="27.823174" lon="104.336888"><ele>1907.1583</ele><time>2026-06-22T20:26:22.000Z</time></trkpt>
        <trkpt lat="27.823169" lon="104.336943"><ele>1907.3276</ele><time>2026-06-22T20:26:42.000Z</time></trkpt>
        <trkpt lat="27.823152" lon="104.336992"><ele>1905.2001</ele><time>2026-06-22T20:27:33.000Z</time></trkpt>
        <trkpt lat="27.823178" lon="104.336948"><ele>1903.1847</ele><time>2026-06-22T20:28:25.000Z</time></trkpt>
        <trkpt lat="27.823124" lon="104.336951"><ele>1904.8107</ele><time>2026-06-22T20:28:51.000Z</time></trkpt>
        <trkpt lat="27.823172" lon="104.336953"><ele>1904.5359</ele><time>2026-06-22T20:29:02.000Z</time></trkpt>
        <trkpt lat="27.82312" lon="104.336978"><ele>1901.4187</ele><time>2026-06-22T20:29:22.000Z</time></trkpt>
        <trkpt lat="27.823164" lon="104.336966"><ele>1900.5806</ele><time>2026-06-22T20:29:40.000Z</time></trkpt>
        <trkpt lat="27.823155" lon="104.337025"><ele>1907.4463</ele><time>2026-06-22T20:31:21.000Z</time></trkpt>
        <trkpt lat="27.823178" lon="104.33707"><ele>1905.4454</ele><time>2026-06-22T20:31:49.000Z</time></trkpt>
        <trkpt lat="27.823147" lon="104.337113"><ele>1905.418</ele><time>2026-06-22T20:32:04.000Z</time></trkpt>
        <trkpt lat="27.823136" lon="104.337163"><ele>1904.6086</ele><time>2026-06-22T20:32:11.000Z</time></trkpt>
        <trkpt lat="27.823122" lon="104.337212"><ele>1903.1373</ele><time>2026-06-22T20:32:29.000Z</time></trkpt>
        <trkpt lat="27.823076" lon="104.337224"><ele>1902.8098</ele><time>2026-06-22T20:33:06.000Z</time></trkpt>
        <trkpt lat="27.823043" lon="104.337259"><ele>1902.6593</ele><time>2026-06-22T20:33:19.000Z</time></trkpt>
        <trkpt lat="27.823091" lon="104.337234"><ele>1900.3174</ele><time>2026-06-22T20:33:49.000Z</time></trkpt>
        <trkpt lat="27.823061" lon="104.337277"><ele>1902.6664</ele><time>2026-06-22T20:34:34.000Z</time></trkpt>
        <trkpt lat="27.823018" lon="104.337313"><ele>1901.5035</ele><time>2026-06-22T20:34:40.000Z</time></trkpt>
        <trkpt lat="27.822992" lon="104.337359"><ele>1900.2632</ele><time>2026-06-22T20:34:44.000Z</time></trkpt>
        <trkpt lat="27.822961" lon="104.337406"><ele>1897.5928</ele><time>2026-06-22T20:34:51.000Z</time></trkpt>
        <trkpt lat="27.822912" lon="104.337414"><ele>1898.778</ele><time>2026-06-22T20:35:01.000Z</time></trkpt>
        <trkpt lat="27.822868" lon="104.33744"><ele>1898.8898</ele><time>2026-06-22T20:35:06.000Z</time></trkpt>
        <trkpt lat="27.822821" lon="104.337454"><ele>1898.0436</ele><time>2026-06-22T20:35:11.000Z</time></trkpt>
        <trkpt lat="27.822774" lon="104.33746"><ele>1896.0208</ele><time>2026-06-22T20:35:17.000Z</time></trkpt>
        <trkpt lat="27.822725" lon="104.337475"><ele>1896.7736</ele><time>2026-06-22T20:35:22.000Z</time></trkpt>
        <trkpt lat="27.822675" lon="104.33748"><ele>1896.9669</ele><time>2026-06-22T20:35:30.000Z</time></trkpt>
        <trkpt lat="27.822625" lon="104.337477"><ele>1899.601</ele><time>2026-06-22T20:35:37.000Z</time></trkpt>
        <trkpt lat="27.822576" lon="104.337486"><ele>1900.3708</ele><time>2026-06-22T20:35:43.000Z</time></trkpt>
        <trkpt lat="27.822533" lon="104.337458"><ele>1896.3221</ele><time>2026-06-22T20:36:28.000Z</time></trkpt>
        <trkpt lat="27.822483" lon="104.337469"><ele>1898.7091</ele><time>2026-06-22T20:36:31.000Z</time></trkpt>
        <trkpt lat="27.822438" lon="104.337466"><ele>1897.9884</ele><time>2026-06-22T20:36:35.000Z</time></trkpt>
        <trkpt lat="27.82238" lon="104.337479"><ele>1900.1661</ele><time>2026-06-22T20:36:40.000Z</time></trkpt>
        <trkpt lat="27.822329" lon="104.337459"><ele>1901.4694</ele><time>2026-06-22T20:36:47.000Z</time></trkpt>
        <trkpt lat="27.822286" lon="104.337432"><ele>1900.9019</ele><time>2026-06-22T20:36:51.000Z</time></trkpt>
        <trkpt lat="27.822239" lon="104.337411"><ele>1901.8593</ele><time>2026-06-22T20:36:58.000Z</time></trkpt>
        <trkpt lat="27.822208" lon="104.337365"><ele>1901.5609</ele><time>2026-06-22T20:37:03.000Z</time></trkpt>
        <trkpt lat="27.822169" lon="104.337332"><ele>1900.3158</ele><time>2026-06-22T20:37:08.000Z</time></trkpt>
        <trkpt lat="27.822122" lon="104.337308"><ele>1901.8917</ele><time>2026-06-22T20:37:19.000Z</time></trkpt>
        <trkpt lat="27.822081" lon="104.337277"><ele>1900.62</ele><time>2026-06-22T20:37:27.000Z</time></trkpt>
        <trkpt lat="27.822044" lon="104.337235"><ele>1900.3135</ele><time>2026-06-22T20:37:38.000Z</time></trkpt>
        <trkpt lat="27.822032" lon="104.337185"><ele>1898.2959</ele><time>2026-06-22T20:37:48.000Z</time></trkpt>
        <trkpt lat="27.821998" lon="104.337144"><ele>1902.3337</ele><time>2026-06-22T20:38:11.000Z</time></trkpt>
        <trkpt lat="27.821957" lon="104.337119"><ele>1902.6199</ele><time>2026-06-22T20:38:16.000Z</time></trkpt>
        <trkpt lat="27.821915" lon="104.337086"><ele>1902.5452</ele><time>2026-06-22T20:38:27.000Z</time></trkpt>
        <trkpt lat="27.821872" lon="104.337066"><ele>1900.9707</ele><time>2026-06-22T20:38:33.000Z</time></trkpt>
        <trkpt lat="27.821835" lon="104.337035"><ele>1903.5762</ele><time>2026-06-22T20:38:41.000Z</time></trkpt>
        <trkpt lat="27.821792" lon="104.336998"><ele>1902.4374</ele><time>2026-06-22T20:38:49.000Z</time></trkpt>
        <trkpt lat="27.821809" lon="104.336949"><ele>1900.1763</ele><time>2026-06-22T20:39:12.000Z</time></trkpt>
        <trkpt lat="27.821854" lon="104.336958"><ele>1898.7072</ele><time>2026-06-22T20:39:19.000Z</time></trkpt>
        <trkpt lat="27.821808" lon="104.33696"><ele>1900.6638</ele><time>2026-06-22T20:39:45.000Z</time></trkpt>
        <trkpt lat="27.821758" lon="104.336958"><ele>1900.339</ele><time>2026-06-22T20:40:51.000Z</time></trkpt>
        <trkpt lat="27.821714" lon="104.336937"><ele>1897.975</ele><time>2026-06-22T20:41:47.000Z</time></trkpt>
        <trkpt lat="27.82167" lon="104.336907"><ele>1901.6469</ele><time>2026-06-22T20:43:02.000Z</time></trkpt>
        <trkpt lat="27.82171" lon="104.336931"><ele>1899.3881</ele><time>2026-06-22T20:43:26.000Z</time></trkpt>
        <trkpt lat="27.821721" lon="104.336982"><ele>1896.9456</ele><time>2026-06-22T20:44:04.000Z</time></trkpt>
        <trkpt lat="27.8217" lon="104.336937"><ele>1895.3976</ele><time>2026-06-22T20:44:35.000Z</time></trkpt>
        <trkpt lat="27.821745" lon="104.336934"><ele>1898.9213</ele><time>2026-06-22T20:46:49.000Z</time></trkpt>
        <trkpt lat="27.821791" lon="104.33694"><ele>1899.5453</ele><time>2026-06-22T20:47:16.000Z</time></trkpt>
        <trkpt lat="27.821836" lon="104.336957"><ele>1901.0201</ele><time>2026-06-22T20:47:32.000Z</time></trkpt>
        <trkpt lat="27.82179" lon="104.336962"><ele>1901.4487</ele><time>2026-06-22T20:47:38.000Z</time></trkpt>
        <trkpt lat="27.821746" lon="104.336943"><ele>1901.8164</ele><time>2026-06-22T20:47:43.000Z</time></trkpt>
        <trkpt lat="27.821791" lon="104.336952"><ele>1899.1539</ele><time>2026-06-22T20:50:02.000Z</time></trkpt>
        <trkpt lat="27.821743" lon="104.336944"><ele>1898.1099</ele><time>2026-06-22T20:50:12.000Z</time></trkpt>
        <trkpt lat="27.821697" lon="104.336942"><ele>1898.565</ele><time>2026-06-22T20:50:23.000Z</time></trkpt>
        <trkpt lat="27.821652" lon="104.336949"><ele>1899.195</ele><time>2026-06-22T20:50:34.000Z</time></trkpt>
        <trkpt lat="27.821599" lon="104.336963"><ele>1899.8127</ele><time>2026-06-22T20:50:42.000Z</time></trkpt>
        <trkpt lat="27.821551" lon="104.336975"><ele>1897.7875</ele><time>2026-06-22T20:50:53.000Z</time></trkpt>
        <trkpt lat="27.821504" lon="104.336988"><ele>1898.3671</ele><time>2026-06-22T20:51:02.000Z</time></trkpt>
        <trkpt lat="27.82145" lon="104.336999"><ele>1898.9875</ele><time>2026-06-22T20:51:10.000Z</time></trkpt>
        <trkpt lat="27.8214" lon="104.337006"><ele>1898.5504</ele><time>2026-06-22T20:51:18.000Z</time></trkpt>
        <trkpt lat="27.821352" lon="104.337021"><ele>1899.2456</ele><time>2026-06-22T20:51:23.000Z</time></trkpt>
        <trkpt lat="27.821305" lon="104.337024"><ele>1898.7087</ele><time>2026-06-22T20:51:27.000Z</time></trkpt>
        <trkpt lat="27.821261" lon="104.337039"><ele>1899.3353</ele><time>2026-06-22T20:51:34.000Z</time></trkpt>
        <trkpt lat="27.821215" lon="104.337045"><ele>1900.2844</ele><time>2026-06-22T20:51:40.000Z</time></trkpt>
        <trkpt lat="27.821165" lon="104.337056"><ele>1901.2852</ele><time>2026-06-22T20:51:46.000Z</time></trkpt>
        <trkpt lat="27.821117" lon="104.33705"><ele>1899.6122</ele><time>2026-06-22T20:51:52.000Z</time></trkpt>
        <trkpt lat="27.821076" lon="104.337077"><ele>1899.2246</ele><time>2026-06-22T20:51:58.000Z</time></trkpt>
        <trkpt lat="27.821027" lon="104.33707"><ele>1894.8872</ele><time>2026-06-22T20:52:08.000Z</time></trkpt>
        <trkpt lat="27.820987" lon="104.337096"><ele>1895.4547</ele><time>2026-06-22T20:52:13.000Z</time></trkpt>
        <trkpt lat="27.820948" lon="104.337125"><ele>1896.7639</ele><time>2026-06-22T20:52:18.000Z</time></trkpt>
        <trkpt lat="27.820896" lon="104.337127"><ele>1895.254</ele><time>2026-06-22T20:52:24.000Z</time></trkpt>
        <trkpt lat="27.82085" lon="104.337121"><ele>1894.8411</ele><time>2026-06-22T20:52:32.000Z</time></trkpt>
        <trkpt lat="27.820795" lon="104.337131"><ele>1898.4052</ele><time>2026-06-22T20:52:37.000Z</time></trkpt>
        <trkpt lat="27.820746" lon="104.337148"><ele>1900.3573</ele><time>2026-06-22T20:52:41.000Z</time></trkpt>
        <trkpt lat="27.820695" lon="104.337137"><ele>1901.7495</ele><time>2026-06-22T20:52:48.000Z</time></trkpt>
        <trkpt lat="27.82065" lon="104.337122"><ele>1902.0822</ele><time>2026-06-22T20:52:52.000Z</time></trkpt>
        <trkpt lat="27.820598" lon="104.337116"><ele>1900.8784</ele><time>2026-06-22T20:53:02.000Z</time></trkpt>
        <trkpt lat="27.820552" lon="104.337131"><ele>1901.0028</ele><time>2026-06-22T20:53:09.000Z</time></trkpt>
        <trkpt lat="27.820513" lon="104.337159"><ele>1900.8961</ele><time>2026-06-22T20:53:16.000Z</time></trkpt>
        <trkpt lat="27.820468" lon="104.337183"><ele>1901.3198</ele><time>2026-06-22T20:53:23.000Z</time></trkpt>
        <trkpt lat="27.82043" lon="104.337215"><ele>1901.4</ele><time>2026-06-22T20:53:29.000Z</time></trkpt>
        <trkpt lat="27.820388" lon="104.337245"><ele>1900.6902</ele><time>2026-06-22T20:53:35.000Z</time></trkpt>
        <trkpt lat="27.820346" lon="104.337273"><ele>1900.1685</ele><time>2026-06-22T20:53:40.000Z</time></trkpt>
        <trkpt lat="27.820309" lon="104.337303"><ele>1900.2976</ele><time>2026-06-22T20:53:46.000Z</time></trkpt>
        <trkpt lat="27.820278" lon="104.337344"><ele>1900.4321</ele><time>2026-06-22T20:53:54.000Z</time></trkpt>
        <trkpt lat="27.820236" lon="104.337369"><ele>1900.004</ele><time>2026-06-22T20:54:07.000Z</time></trkpt>
        <trkpt lat="27.820192" lon="104.337388"><ele>1902.6979</ele><time>2026-06-22T20:54:17.000Z</time></trkpt>
        <trkpt lat="27.820147" lon="104.337399"><ele>1901.615</ele><time>2026-06-22T20:54:22.000Z</time></trkpt>
        <trkpt lat="27.820102" lon="104.337433"><ele>1900.9781</ele><time>2026-06-22T20:54:30.000Z</time></trkpt>
        <trkpt lat="27.820068" lon="104.337469"><ele>1901.7666</ele><time>2026-06-22T20:54:36.000Z</time></trkpt>
        <trkpt lat="27.820015" lon="104.337489"><ele>1900.4586</ele><time>2026-06-22T20:54:44.000Z</time></trkpt>
        <trkpt lat="27.819975" lon="104.337515"><ele>1899.511</ele><time>2026-06-22T20:54:48.000Z</time></trkpt>
        <trkpt lat="27.819933" lon="104.337556"><ele>1897.425</ele><time>2026-06-22T20:54:54.000Z</time></trkpt>
        <trkpt lat="27.819895" lon="104.337607"><ele>1899.5916</ele><time>2026-06-22T20:54:59.000Z</time></trkpt>
        <trkpt lat="27.819859" lon="104.337645"><ele>1900.7561</ele><time>2026-06-22T20:55:04.000Z</time></trkpt>
        <trkpt lat="27.819823" lon="104.337681"><ele>1896.0917</ele><time>2026-06-22T20:57:19.000Z</time></trkpt>
        <trkpt lat="27.81977" lon="104.337714"><ele>1895.9435</ele><time>2026-06-22T20:57:21.000Z</time></trkpt>
        <trkpt lat="27.819715" lon="104.337747"><ele>1897.5848</ele><time>2026-06-22T20:57:22.000Z</time></trkpt>
        <trkpt lat="27.819658" lon="104.337772"><ele>1900.4932</ele><time>2026-06-22T20:57:23.000Z</time></trkpt>
        <trkpt lat="27.819606" lon="104.337801"><ele>1902.2979</ele><time>2026-06-22T20:57:24.000Z</time></trkpt>
        <trkpt lat="27.819552" lon="104.33783"><ele>1903.4397</ele><time>2026-06-22T20:57:25.000Z</time></trkpt>
        <trkpt lat="27.819502" lon="104.337857"><ele>1903.7804</ele><time>2026-06-22T20:57:26.000Z</time></trkpt>
        <trkpt lat="27.819456" lon="104.337872"><ele>1902.8975</ele><time>2026-06-22T20:57:27.000Z</time></trkpt>
        <trkpt lat="27.819398" lon="104.337897"><ele>1902.404</ele><time>2026-06-22T20:57:28.000Z</time></trkpt>
        <trkpt lat="27.819351" lon="104.337932"><ele>1903.2285</ele><time>2026-06-22T20:57:29.000Z</time></trkpt>
        <trkpt lat="27.819276" lon="104.33798"><ele>1903.7786</ele><time>2026-06-22T20:57:31.000Z</time></trkpt>
        <trkpt lat="27.81924" lon="104.338014"><ele>1904.9307</ele><time>2026-06-22T20:57:32.000Z</time></trkpt>
        <trkpt lat="27.819203" lon="104.338046"><ele>1905.5963</ele><time>2026-06-22T20:57:33.000Z</time></trkpt>
        <trkpt lat="27.819164" lon="104.338074"><ele>1906.2727</ele><time>2026-06-22T20:57:34.000Z</time></trkpt>
        <trkpt lat="27.819121" lon="104.338115"><ele>1908.5851</ele><time>2026-06-22T20:57:35.000Z</time></trkpt>
        <trkpt lat="27.819068" lon="104.338147"><ele>1907.7697</ele><time>2026-06-22T20:57:36.000Z</time></trkpt>
        <trkpt lat="27.819023" lon="104.338177"><ele>1907.5751</ele><time>2026-06-22T20:57:37.000Z</time></trkpt>
        <trkpt lat="27.818985" lon="104.338212"><ele>1907.8467</ele><time>2026-06-22T20:57:38.000Z</time></trkpt>
        <trkpt lat="27.818951" lon="104.338249"><ele>1908.6962</ele><time>2026-06-22T20:57:39.000Z</time></trkpt>
        <trkpt lat="27.818912" lon="104.338278"><ele>1908.5848</ele><time>2026-06-22T20:57:40.000Z</time></trkpt>
        <trkpt lat="27.818863" lon="104.33831"><ele>1908.4021</ele><time>2026-06-22T20:57:41.000Z</time></trkpt>
        <trkpt lat="27.818805" lon="104.338336"><ele>1909.1891</ele><time>2026-06-22T20:57:42.000Z</time></trkpt>
        <trkpt lat="27.818748" lon="104.33836"><ele>1909.7911</ele><time>2026-06-22T20:57:43.000Z</time></trkpt>
        <trkpt lat="27.818687" lon="104.338378"><ele>1910.1996</ele><time>2026-06-22T20:57:44.000Z</time></trkpt>
        <trkpt lat="27.818629" lon="104.338393"><ele>1911.6394</ele><time>2026-06-22T20:57:45.000Z</time></trkpt>
        <trkpt lat="27.818568" lon="104.338394"><ele>1912.134</ele><time>2026-06-22T20:57:46.000Z</time></trkpt>
        <trkpt lat="27.818509" lon="104.338388"><ele>1912.4606</ele><time>2026-06-22T20:57:47.000Z</time></trkpt>
        <trkpt lat="27.818456" lon="104.338367"><ele>1911.8531</ele><time>2026-06-22T20:57:48.000Z</time></trkpt>
        <trkpt lat="27.818403" lon="104.338341"><ele>1910.7999</ele><time>2026-06-22T20:57:49.000Z</time></trkpt>
        <trkpt lat="27.81836" lon="104.338307"><ele>1910.7971</ele><time>2026-06-22T20:57:50.000Z</time></trkpt>
        <trkpt lat="27.818316" lon="104.338276"><ele>1910.8694</ele><time>2026-06-22T20:57:51.000Z</time></trkpt>
        <trkpt lat="27.818266" lon="104.338252"><ele>1910.8447</ele><time>2026-06-22T20:57:52.000Z</time></trkpt>
        <trkpt lat="27.818217" lon="104.338232"><ele>1909.975</ele><time>2026-06-22T20:57:53.000Z</time></trkpt>
        <trkpt lat="27.818164" lon="104.338216"><ele>1908.7808</ele><time>2026-06-22T20:57:54.000Z</time></trkpt>
        <trkpt lat="27.818097" lon="104.338221"><ele>1908.5402</ele><time>2026-06-22T20:57:55.000Z</time></trkpt>
        <trkpt lat="27.818038" lon="104.338246"><ele>1908.8168</ele><time>2026-06-22T20:57:56.000Z</time></trkpt>
        <trkpt lat="27.817993" lon="104.33828"><ele>1908.5382</ele><time>2026-06-22T20:57:57.000Z</time></trkpt>
        <trkpt lat="27.817952" lon="104.338327"><ele>1907.7831</ele><time>2026-06-22T20:57:58.000Z</time></trkpt>
        <trkpt lat="27.817917" lon="104.338369"><ele>1907.0359</ele><time>2026-06-22T20:57:59.000Z</time></trkpt>
        <trkpt lat="27.817897" lon="104.338414"><ele>1906.3092</ele><time>2026-06-22T20:58:03.000Z</time></trkpt>
        <trkpt lat="27.817863" lon="104.338478"><ele>1905.5238</ele><time>2026-06-22T20:58:05.000Z</time></trkpt>
        <trkpt lat="27.817845" lon="104.338568"><ele>1904.1556</ele><time>2026-06-22T20:58:06.000Z</time></trkpt>
        <trkpt lat="27.817837" lon="104.33868"><ele>1904.904</ele><time>2026-06-22T20:58:07.000Z</time></trkpt>
        <trkpt lat="27.817813" lon="104.338744"><ele>1904.5972</ele><time>2026-06-22T20:58:08.000Z</time></trkpt>
        <trkpt lat="27.817776" lon="104.338803"><ele>1906.0768</ele><time>2026-06-22T20:58:09.000Z</time></trkpt>
        <trkpt lat="27.81773" lon="104.338848"><ele>1906.0303</ele><time>2026-06-22T20:58:10.000Z</time></trkpt>
        <trkpt lat="27.817678" lon="104.338877"><ele>1906.5126</ele><time>2026-06-22T20:58:11.000Z</time></trkpt>
        <trkpt lat="27.817619" lon="104.338887"><ele>1906.0377</ele><time>2026-06-22T20:58:12.000Z</time></trkpt>
        <trkpt lat="27.817554" lon="104.338893"><ele>1905.8179</ele><time>2026-06-22T20:58:13.000Z</time></trkpt>
        <trkpt lat="27.817484" lon="104.338901"><ele>1906.2827</ele><time>2026-06-22T20:58:14.000Z</time></trkpt>
        <trkpt lat="27.817424" lon="104.338915"><ele>1906.4392</ele><time>2026-06-22T20:58:15.000Z</time></trkpt>
        <trkpt lat="27.817372" lon="104.338939"><ele>1906.741</ele><time>2026-06-22T20:58:16.000Z</time></trkpt>
        <trkpt lat="27.817321" lon="104.338979"><ele>1906.9904</ele><time>2026-06-22T20:58:17.000Z</time></trkpt>
        <trkpt lat="27.817272" lon="104.339023"><ele>1906.9004</ele><time>2026-06-22T20:58:18.000Z</time></trkpt>
        <trkpt lat="27.817228" lon="104.339079"><ele>1907.7329</ele><time>2026-06-22T20:58:19.000Z</time></trkpt>
        <trkpt lat="27.817191" lon="104.339136"><ele>1907.5729</ele><time>2026-06-22T20:58:20.000Z</time></trkpt>
        <trkpt lat="27.817169" lon="104.339184"><ele>1908.1099</ele><time>2026-06-22T20:58:21.000Z</time></trkpt>
        <trkpt lat="27.817154" lon="104.339243"><ele>1908.6924</ele><time>2026-06-22T20:58:22.000Z</time></trkpt>
        <trkpt lat="27.817146" lon="104.339311"><ele>1908.7109</ele><time>2026-06-22T20:58:23.000Z</time></trkpt>
        <trkpt lat="27.817141" lon="104.339393"><ele>1908.7335</ele><time>2026-06-22T20:58:24.000Z</time></trkpt>
        <trkpt lat="27.817135" lon="104.339481"><ele>1908.5604</ele><time>2026-06-22T20:58:25.000Z</time></trkpt>
        <trkpt lat="27.817133" lon="104.339581"><ele>1908.3093</ele><time>2026-06-22T20:58:26.000Z</time></trkpt>
        <trkpt lat="27.817126" lon="104.339685"><ele>1907.124</ele><time>2026-06-22T20:58:27.000Z</time></trkpt>
        <trkpt lat="27.817131" lon="104.339785"><ele>1906.9735</ele><time>2026-06-22T20:58:28.000Z</time></trkpt>
        <trkpt lat="27.81713" lon="104.33987"><ele>1907.134</ele><time>2026-06-22T20:58:29.000Z</time></trkpt>
        <trkpt lat="27.817122" lon="104.339934"><ele>1904.216</ele><time>2026-06-22T20:58:30.000Z</time></trkpt>
        <trkpt lat="27.817106" lon="104.340004"><ele>1904.1389</ele><time>2026-06-22T20:58:31.000Z</time></trkpt>
        <trkpt lat="27.817088" lon="104.340073"><ele>1903.7008</ele><time>2026-06-22T20:58:32.000Z</time></trkpt>
        <trkpt lat="27.817061" lon="104.340134"><ele>1903.0012</ele><time>2026-06-22T20:58:33.000Z</time></trkpt>
        <trkpt lat="27.817033" lon="104.340187"><ele>1904.2893</ele><time>2026-06-22T20:58:34.000Z</time></trkpt>
        <trkpt lat="27.817002" lon="104.340234"><ele>1904.4009</ele><time>2026-06-22T20:58:35.000Z</time></trkpt>
        <trkpt lat="27.816953" lon="104.340267"><ele>1904.0427</ele><time>2026-06-22T20:58:36.000Z</time></trkpt>
        <trkpt lat="27.816903" lon="104.340301"><ele>1904.4819</ele><time>2026-06-22T20:58:37.000Z</time></trkpt>
        <trkpt lat="27.81685" lon="104.340323"><ele>1905.6093</ele><time>2026-06-22T20:58:38.000Z</time></trkpt>
        <trkpt lat="27.816792" lon="104.340359"><ele>1905.2083</ele><time>2026-06-22T20:58:39.000Z</time></trkpt>
        <trkpt lat="27.816741" lon="104.340383"><ele>1905.6234</ele><time>2026-06-22T20:58:40.000Z</time></trkpt>
        <trkpt lat="27.816695" lon="104.340422"><ele>1908.4071</ele><time>2026-06-22T20:58:41.000Z</time></trkpt>
        <trkpt lat="27.816645" lon="104.340452"><ele>1909.7078</ele><time>2026-06-22T20:58:42.000Z</time></trkpt>
        <trkpt lat="27.816592" lon="104.340469"><ele>1909.1838</ele><time>2026-06-22T20:58:43.000Z</time></trkpt>
        <trkpt lat="27.816542" lon="104.340481"><ele>1908.8497</ele><time>2026-06-22T20:58:44.000Z</time></trkpt>
        <trkpt lat="27.816497" lon="104.340485"><ele>1910.7261</ele><time>2026-06-22T20:58:45.000Z</time></trkpt>
        <trkpt lat="27.816441" lon="104.340479"><ele>1908.3049</ele><time>2026-06-22T20:58:46.000Z</time></trkpt>
        <trkpt lat="27.816376" lon="104.340472"><ele>1909.3466</ele><time>2026-06-22T20:58:47.000Z</time></trkpt>
        <trkpt lat="27.81631" lon="104.340466"><ele>1908.1855</ele><time>2026-06-22T20:58:48.000Z</time></trkpt>
        <trkpt lat="27.816251" lon="104.340471"><ele>1907.6409</ele><time>2026-06-22T20:58:49.000Z</time></trkpt>
        <trkpt lat="27.816201" lon="104.340469"><ele>1907.1198</ele><time>2026-06-22T20:58:50.000Z</time></trkpt>
        <trkpt lat="27.816151" lon="104.340467"><ele>1907.2773</ele><time>2026-06-22T20:58:51.000Z</time></trkpt>
        <trkpt lat="27.816095" lon="104.34047"><ele>1906.7937</ele><time>2026-06-22T20:58:52.000Z</time></trkpt>
        <trkpt lat="27.816037" lon="104.340471"><ele>1905.3838</ele><time>2026-06-22T20:58:53.000Z</time></trkpt>
        <trkpt lat="27.815984" lon="104.340471"><ele>1904.0845</ele><time>2026-06-22T20:58:54.000Z</time></trkpt>
        <trkpt lat="27.815929" lon="104.340468"><ele>1903.36</ele><time>2026-06-22T20:58:55.000Z</time></trkpt>
        <trkpt lat="27.81587" lon="104.340466"><ele>1903.5544</ele><time>2026-06-22T20:58:56.000Z</time></trkpt>
        <trkpt lat="27.81581" lon="104.340447"><ele>1903.7698</ele><time>2026-06-22T20:58:57.000Z</time></trkpt>
        <trkpt lat="27.815745" lon="104.34041"><ele>1904.2787</ele><time>2026-06-22T20:58:58.000Z</time></trkpt>
        <trkpt lat="27.815684" lon="104.340385"><ele>1906.0491</ele><time>2026-06-22T20:58:59.000Z</time></trkpt>
        <trkpt lat="27.815628" lon="104.340341"><ele>1906.7609</ele><time>2026-06-22T20:59:00.000Z</time></trkpt>
        <trkpt lat="27.815591" lon="104.340292"><ele>1907.1824</ele><time>2026-06-22T20:59:01.000Z</time></trkpt>
        <trkpt lat="27.815574" lon="104.340223"><ele>1908.3329</ele><time>2026-06-22T20:59:02.000Z</time></trkpt>
        <trkpt lat="27.81556" lon="104.340148"><ele>1909.2324</ele><time>2026-06-22T20:59:03.000Z</time></trkpt>
        <trkpt lat="27.815534" lon="104.34009"><ele>1911.5337</ele><time>2026-06-22T20:59:04.000Z</time></trkpt>
        <trkpt lat="27.815504" lon="104.340034"><ele>1910.7899</ele><time>2026-06-22T20:59:05.000Z</time></trkpt>
        <trkpt lat="27.815474" lon="104.339983"><ele>1910.2599</ele><time>2026-06-22T20:59:06.000Z</time></trkpt>
        <trkpt lat="27.81545" lon="104.339934"><ele>1909.2408</ele><time>2026-06-22T20:59:07.000Z</time></trkpt>
        <trkpt lat="27.815393" lon="104.339901"><ele>1908.7258</ele><time>2026-06-22T20:59:08.000Z</time></trkpt>
        <trkpt lat="27.815339" lon="104.339901"><ele>1909.3782</ele><time>2026-06-22T20:59:09.000Z</time></trkpt>
        <trkpt lat="27.815285" lon="104.339898"><ele>1908.9148</ele><time>2026-06-22T20:59:10.000Z</time></trkpt>
        <trkpt lat="27.815234" lon="104.339895"><ele>1908.7394</ele><time>2026-06-22T20:59:11.000Z</time></trkpt>
        <trkpt lat="27.815145" lon="104.339894"><ele>1907.253</ele><time>2026-06-22T20:59:13.000Z</time></trkpt>
        <trkpt lat="27.815088" lon="104.339887"><ele>1907.927</ele><time>2026-06-22T20:59:14.000Z</time></trkpt>
        <trkpt lat="27.815025" lon="104.339866"><ele>1908.5681</ele><time>2026-06-22T20:59:15.000Z</time></trkpt>
        <trkpt lat="27.814974" lon="104.339835"><ele>1908.553</ele><time>2026-06-22T20:59:16.000Z</time></trkpt>
        <trkpt lat="27.814927" lon="104.339815"><ele>1908.7106</ele><time>2026-06-22T20:59:17.000Z</time></trkpt>
        <trkpt lat="27.81488" lon="104.339819"><ele>1908.625</ele><time>2026-06-22T20:59:18.000Z</time></trkpt>
        <trkpt lat="27.814833" lon="104.33984"><ele>1908.6025</ele><time>2026-06-22T20:59:19.000Z</time></trkpt>
        <trkpt lat="27.814803" lon="104.339881"><ele>1908.6218</ele><time>2026-06-22T20:59:21.000Z</time></trkpt>
        <trkpt lat="27.81468" lon="104.340035"><ele>1910.1675</ele><time>2026-06-22T20:59:23.000Z</time></trkpt>
        <trkpt lat="27.814648" lon="104.340092"><ele>1909.8279</ele><time>2026-06-22T20:59:24.000Z</time></trkpt>
        <trkpt lat="27.814615" lon="104.340156"><ele>1909.2235</ele><time>2026-06-22T20:59:25.000Z</time></trkpt>
        <trkpt lat="27.814588" lon="104.340214"><ele>1908.9954</ele><time>2026-06-22T20:59:26.000Z</time></trkpt>
        <trkpt lat="27.814568" lon="104.340265"><ele>1908.5322</ele><time>2026-06-22T20:59:27.000Z</time></trkpt>
        <trkpt lat="27.814554" lon="104.34032"><ele>1908.6604</ele><time>2026-06-22T20:59:28.000Z</time></trkpt>
        <trkpt lat="27.814537" lon="104.340374"><ele>1908.2659</ele><time>2026-06-22T20:59:29.000Z</time></trkpt>
        <trkpt lat="27.814511" lon="104.340432"><ele>1907.7356</ele><time>2026-06-22T20:59:30.000Z</time></trkpt>
        <trkpt lat="27.814486" lon="104.340491"><ele>1907.9426</ele><time>2026-06-22T20:59:31.000Z</time></trkpt>
        <trkpt lat="27.814455" lon="104.340551"><ele>1908.0537</ele><time>2026-06-22T20:59:32.000Z</time></trkpt>
        <trkpt lat="27.814422" lon="104.340612"><ele>1907.7463</ele><time>2026-06-22T20:59:33.000Z</time></trkpt>
        <trkpt lat="27.814384" lon="104.340671"><ele>1907.2911</ele><time>2026-06-22T20:59:34.000Z</time></trkpt>
        <trkpt lat="27.814342" lon="104.34072"><ele>1906.933</ele><time>2026-06-22T20:59:35.000Z</time></trkpt>
        <trkpt lat="27.814293" lon="104.340765"><ele>1906.2665</ele><time>2026-06-22T20:59:36.000Z</time></trkpt>
        <trkpt lat="27.814237" lon="104.340811"><ele>1905.6768</ele><time>2026-06-22T20:59:37.000Z</time></trkpt>
        <trkpt lat="27.81418" lon="104.340853"><ele>1905.0552</ele><time>2026-06-22T20:59:38.000Z</time></trkpt>
        <trkpt lat="27.814123" lon="104.340892"><ele>1904.6432</ele><time>2026-06-22T20:59:39.000Z</time></trkpt>
        <trkpt lat="27.814035" lon="104.340937"><ele>1894.3867</ele><time>2026-06-22T20:59:41.000Z</time></trkpt>
        <trkpt lat="27.81399" lon="104.34097"><ele>1893.4277</ele><time>2026-06-22T20:59:42.000Z</time></trkpt>
        <trkpt lat="27.813936" lon="104.341006"><ele>1892.8341</ele><time>2026-06-22T20:59:43.000Z</time></trkpt>
        <trkpt lat="27.813877" lon="104.341038"><ele>1892.6122</ele><time>2026-06-22T20:59:44.000Z</time></trkpt>
        <trkpt lat="27.813833" lon="104.341024"><ele>1895.5925</ele><time>2026-06-22T20:59:45.000Z</time></trkpt>
        <trkpt lat="27.813756" lon="104.341011"><ele>1894.9387</ele><time>2026-06-22T20:59:47.000Z</time></trkpt>
        <trkpt lat="27.813687" lon="104.341021"><ele>1897.3438</ele><time>2026-06-22T20:59:49.000Z</time></trkpt>
        <trkpt lat="27.813601" lon="104.341053"><ele>1900.0146</ele><time>2026-06-22T20:59:51.000Z</time></trkpt>
        <trkpt lat="27.813556" lon="104.341068"><ele>1899.0399</ele><time>2026-06-22T20:59:52.000Z</time></trkpt>
        <trkpt lat="27.813507" lon="104.341061"><ele>1898.689</ele><time>2026-06-22T20:59:53.000Z</time></trkpt>
        <trkpt lat="27.813445" lon="104.341056"><ele>1899.1324</ele><time>2026-06-22T20:59:54.000Z</time></trkpt>
        <trkpt lat="27.813384" lon="104.341057"><ele>1899.4598</ele><time>2026-06-22T20:59:55.000Z</time></trkpt>
        <trkpt lat="27.813324" lon="104.341065"><ele>1898.7487</ele><time>2026-06-22T20:59:56.000Z</time></trkpt>
        <trkpt lat="27.813272" lon="104.341076"><ele>1897.7855</ele><time>2026-06-22T20:59:57.000Z</time></trkpt>
        <trkpt lat="27.813221" lon="104.341097"><ele>1897.4911</ele><time>2026-06-22T20:59:58.000Z</time></trkpt>
        <trkpt lat="27.813173" lon="104.341122"><ele>1897.1042</ele><time>2026-06-22T20:59:59.000Z</time></trkpt>
        <trkpt lat="27.813126" lon="104.341154"><ele>1896.846</ele><time>2026-06-22T21:00:00.000Z</time></trkpt>
        <trkpt lat="27.813084" lon="104.3412"><ele>1897.1619</ele><time>2026-06-22T21:00:01.000Z</time></trkpt>
        <trkpt lat="27.813039" lon="104.341246"><ele>1896.7648</ele><time>2026-06-22T21:00:02.000Z</time></trkpt>
        <trkpt lat="27.812997" lon="104.341297"><ele>1895.9124</ele><time>2026-06-22T21:00:03.000Z</time></trkpt>
        <trkpt lat="27.812952" lon="104.341353"><ele>1895.8624</ele><time>2026-06-22T21:00:04.000Z</time></trkpt>
        <trkpt lat="27.812908" lon="104.341402"><ele>1895.6097</ele><time>2026-06-22T21:00:05.000Z</time></trkpt>
        <trkpt lat="27.812867" lon="104.34145"><ele>1896.2712</ele><time>2026-06-22T21:00:06.000Z</time></trkpt>
        <trkpt lat="27.812826" lon="104.341484"><ele>1895.0776</ele><time>2026-06-22T21:00:07.000Z</time></trkpt>
        <trkpt lat="27.812777" lon="104.34151"><ele>1894.7097</ele><time>2026-06-22T21:00:08.000Z</time></trkpt>
        <trkpt lat="27.812721" lon="104.341534"><ele>1895.3811</ele><time>2026-06-22T21:00:09.000Z</time></trkpt>
        <trkpt lat="27.812656" lon="104.341536"><ele>1896.0396</ele><time>2026-06-22T21:00:10.000Z</time></trkpt>
        <trkpt lat="27.812592" lon="104.341539"><ele>1897.7236</ele><time>2026-06-22T21:00:11.000Z</time></trkpt>
        <trkpt lat="27.812532" lon="104.34153"><ele>1898.602</ele><time>2026-06-22T21:00:12.000Z</time></trkpt>
        <trkpt lat="27.812479" lon="104.341514"><ele>1898.4932</ele><time>2026-06-22T21:00:13.000Z</time></trkpt>
        <trkpt lat="27.812425" lon="104.341505"><ele>1898.2953</ele><time>2026-06-22T21:00:14.000Z</time></trkpt>
        <trkpt lat="27.812373" lon="104.341502"><ele>1899.4501</ele><time>2026-06-22T21:00:15.000Z</time></trkpt>
        <trkpt lat="27.812322" lon="104.341485"><ele>1899.3604</ele><time>2026-06-22T21:00:16.000Z</time></trkpt>
        <trkpt lat="27.812264" lon="104.34147"><ele>1899.542</ele><time>2026-06-22T21:00:17.000Z</time></trkpt>
        <trkpt lat="27.812196" lon="104.341452"><ele>1899.8533</ele><time>2026-06-22T21:00:18.000Z</time></trkpt>
        <trkpt lat="27.81213" lon="104.341426"><ele>1900.7057</ele><time>2026-06-22T21:00:19.000Z</time></trkpt>
        <trkpt lat="27.812064" lon="104.341404"><ele>1901.0282</ele><time>2026-06-22T21:00:20.000Z</time></trkpt>
        <trkpt lat="27.812007" lon="104.341379"><ele>1902.2554</ele><time>2026-06-22T21:00:21.000Z</time></trkpt>
        <trkpt lat="27.811951" lon="104.341342"><ele>1902.6323</ele><time>2026-06-22T21:00:22.000Z</time></trkpt>
        <trkpt lat="27.811908" lon="104.341285"><ele>1903.062</ele><time>2026-06-22T21:00:23.000Z</time></trkpt>
        <trkpt lat="27.811873" lon="104.341218"><ele>1903.565</ele><time>2026-06-22T21:00:24.000Z</time></trkpt>
        <trkpt lat="27.811848" lon="104.341156"><ele>1903.5808</ele><time>2026-06-22T21:00:25.000Z</time></trkpt>
        <trkpt lat="27.811825" lon="104.341103"><ele>1903.3828</ele><time>2026-06-22T21:00:26.000Z</time></trkpt>
        <trkpt lat="27.811798" lon="104.34106"><ele>1902.8883</ele><time>2026-06-22T21:00:27.000Z</time></trkpt>
        <trkpt lat="27.811771" lon="104.341017"><ele>1902.97</ele><time>2026-06-22T21:00:28.000Z</time></trkpt>
        <trkpt lat="27.811748" lon="104.340971"><ele>1903.9214</ele><time>2026-06-22T21:00:29.000Z</time></trkpt>
        <trkpt lat="27.811717" lon="104.340911"><ele>1904.3136</ele><time>2026-06-22T21:00:30.000Z</time></trkpt>
        <trkpt lat="27.811677" lon="104.340845"><ele>1905.0222</ele><time>2026-06-22T21:00:31.000Z</time></trkpt>
        <trkpt lat="27.811634" lon="104.340769"><ele>1904.9718</ele><time>2026-06-22T21:00:32.000Z</time></trkpt>
        <trkpt lat="27.811594" lon="104.3407"><ele>1905.2588</ele><time>2026-06-22T21:00:33.000Z</time></trkpt>
        <trkpt lat="27.811559" lon="104.340633"><ele>1904.9526</ele><time>2026-06-22T21:00:34.000Z</time></trkpt>
        <trkpt lat="27.811531" lon="104.340577"><ele>1904.9196</ele><time>2026-06-22T21:00:35.000Z</time></trkpt>
        <trkpt lat="27.811495" lon="104.340524"><ele>1904.9227</ele><time>2026-06-22T21:00:36.000Z</time></trkpt>
        <trkpt lat="27.811455" lon="104.340466"><ele>1905.8638</ele><time>2026-06-22T21:00:37.000Z</time></trkpt>
        <trkpt lat="27.81142" lon="104.340398"><ele>1907.2255</ele><time>2026-06-22T21:00:38.000Z</time></trkpt>
        <trkpt lat="27.811388" lon="104.34033"><ele>1908.71</ele><time>2026-06-22T21:00:39.000Z</time></trkpt>
        <trkpt lat="27.81136" lon="104.340265"><ele>1908.6841</ele><time>2026-06-22T21:00:40.000Z</time></trkpt>
        <trkpt lat="27.811332" lon="104.340213"><ele>1908.9409</ele><time>2026-06-22T21:00:41.000Z</time></trkpt>
        <trkpt lat="27.8113" lon="104.340159"><ele>1909.3898</ele><time>2026-06-22T21:00:42.000Z</time></trkpt>
        <trkpt lat="27.81127" lon="104.340091"><ele>1909.1272</ele><time>2026-06-22T21:00:43.000Z</time></trkpt>
        <trkpt lat="27.811238" lon="104.340029"><ele>1909.754</ele><time>2026-06-22T21:00:44.000Z</time></trkpt>
        <trkpt lat="27.811204" lon="104.339974"><ele>1909.8585</ele><time>2026-06-22T21:00:45.000Z</time></trkpt>
        <trkpt lat="27.811164" lon="104.339928"><ele>1909.7649</ele><time>2026-06-22T21:00:46.000Z</time></trkpt>
        <trkpt lat="27.811128" lon="104.339895"><ele>1909.0665</ele><time>2026-06-22T21:00:48.000Z</time></trkpt>
        <trkpt lat="27.811082" lon="104.339883"><ele>1909.7496</ele><time>2026-06-22T21:00:52.000Z</time></trkpt>
        <trkpt lat="27.810998" lon="104.339873"><ele>1911.7665</ele><time>2026-06-22T21:00:54.000Z</time></trkpt>
        <trkpt lat="27.810937" lon="104.339889"><ele>1911.8425</ele><time>2026-06-22T21:00:56.000Z</time></trkpt>
        <trkpt lat="27.810891" lon="104.339873"><ele>1911.3462</ele><time>2026-06-22T21:00:58.000Z</time></trkpt>
        <trkpt lat="27.810646" lon="104.339849"><ele>1905.7588</ele><time>2026-06-22T21:00:59.000Z</time></trkpt>
        <trkpt lat="27.810588" lon="104.339852"><ele>1905.6888</ele><time>2026-06-22T21:01:00.000Z</time></trkpt>
        <trkpt lat="27.810532" lon="104.339832"><ele>1906.5254</ele><time>2026-06-22T21:01:01.000Z</time></trkpt>
        <trkpt lat="27.810481" lon="104.339804"><ele>1907.116</ele><time>2026-06-22T21:01:02.000Z</time></trkpt>
        <trkpt lat="27.810435" lon="104.339773"><ele>1907.5393</ele><time>2026-06-22T21:01:03.000Z</time></trkpt>
        <trkpt lat="27.810393" lon="104.339739"><ele>1908.024</ele><time>2026-06-22T21:01:04.000Z</time></trkpt>
        <trkpt lat="27.81035" lon="104.339704"><ele>1908.4049</ele><time>2026-06-22T21:01:05.000Z</time></trkpt>
        <trkpt lat="27.810316" lon="104.339664"><ele>1909.016</ele><time>2026-06-22T21:01:06.000Z</time></trkpt>
        <trkpt lat="27.810275" lon="104.339631"><ele>1909.1099</ele><time>2026-06-22T21:01:07.000Z</time></trkpt>
        <trkpt lat="27.810245" lon="104.33958"><ele>1908.7086</ele><time>2026-06-22T21:01:08.000Z</time></trkpt>
        <trkpt lat="27.810209" lon="104.339544"><ele>1908.731</ele><time>2026-06-22T21:01:09.000Z</time></trkpt>
        <trkpt lat="27.810141" lon="104.339491"><ele>1910.129</ele><time>2026-06-22T21:01:11.000Z</time></trkpt>
        <trkpt lat="27.8101" lon="104.339461"><ele>1911.0674</ele><time>2026-06-22T21:01:12.000Z</time></trkpt>
        <trkpt lat="27.81006" lon="104.339422"><ele>1911.3894</ele><time>2026-06-22T21:01:13.000Z</time></trkpt>
        <trkpt lat="27.810013" lon="104.339383"><ele>1912.1099</ele><time>2026-06-22T21:01:14.000Z</time></trkpt>
        <trkpt lat="27.809973" lon="104.33935"><ele>1912.1901</ele><time>2026-06-22T21:01:15.000Z</time></trkpt>
        <trkpt lat="27.80992" lon="104.339297"><ele>1910.7185</ele><time>2026-06-22T21:01:18.000Z</time></trkpt>
        <trkpt lat="27.809883" lon="104.339231"><ele>1919.8081</ele><time>2026-06-22T21:01:20.000Z</time></trkpt>
        <trkpt lat="27.809814" lon="104.339298"><ele>1918.9465</ele><time>2026-06-22T21:01:21.000Z</time></trkpt>
        <trkpt lat="27.809763" lon="104.339327"><ele>1917.7351</ele><time>2026-06-22T21:01:22.000Z</time></trkpt>
        <trkpt lat="27.80972" lon="104.33935"><ele>1917.6503</ele><time>2026-06-22T21:01:23.000Z</time></trkpt>
        <trkpt lat="27.809677" lon="104.33937"><ele>1916.7274</ele><time>2026-06-22T21:01:24.000Z</time></trkpt>
        <trkpt lat="27.809626" lon="104.3394"><ele>1916.0685</ele><time>2026-06-22T21:01:25.000Z</time></trkpt>
        <trkpt lat="27.809569" lon="104.339425"><ele>1915.5245</ele><time>2026-06-22T21:01:26.000Z</time></trkpt>
        <trkpt lat="27.809514" lon="104.339443"><ele>1915.4774</ele><time>2026-06-22T21:01:27.000Z</time></trkpt>
        <trkpt lat="27.809457" lon="104.339454"><ele>1915.5769</ele><time>2026-06-22T21:01:28.000Z</time></trkpt>
        <trkpt lat="27.809394" lon="104.339466"><ele>1915.8506</ele><time>2026-06-22T21:01:29.000Z</time></trkpt>
        <trkpt lat="27.809334" lon="104.339475"><ele>1916.3405</ele><time>2026-06-22T21:01:30.000Z</time></trkpt>
        <trkpt lat="27.809268" lon="104.339473"><ele>1916.8073</ele><time>2026-06-22T21:01:31.000Z</time></trkpt>
        <trkpt lat="27.809212" lon="104.339437"><ele>1915.1344</ele><time>2026-06-22T21:01:32.000Z</time></trkpt>
        <trkpt lat="27.809156" lon="104.339422"><ele>1915.67</ele><time>2026-06-22T21:01:33.000Z</time></trkpt>
        <trkpt lat="27.809069" lon="104.339398"><ele>1919.607</ele><time>2026-06-22T21:01:35.000Z</time></trkpt>
        <trkpt lat="27.809019" lon="104.33936"><ele>1919.3943</ele><time>2026-06-22T21:01:36.000Z</time></trkpt>
        <trkpt lat="27.808973" lon="104.339329"><ele>1921.821</ele><time>2026-06-22T21:01:37.000Z</time></trkpt>
        <trkpt lat="27.808928" lon="104.339283"><ele>1921.732</ele><time>2026-06-22T21:01:38.000Z</time></trkpt>
        <trkpt lat="27.808885" lon="104.339232"><ele>1921.2979</ele><time>2026-06-22T21:01:39.000Z</time></trkpt>
        <trkpt lat="27.808847" lon="104.339196"><ele>1921.3551</ele><time>2026-06-22T21:01:40.000Z</time></trkpt>
        <trkpt lat="27.808801" lon="104.339181"><ele>1919.9238</ele><time>2026-06-22T21:01:42.000Z</time></trkpt>
        <trkpt lat="27.808742" lon="104.339201"><ele>1920.4017</ele><time>2026-06-22T21:01:44.000Z</time></trkpt>
        <trkpt lat="27.8087" lon="104.339222"><ele>1920.0981</ele><time>2026-06-22T21:01:45.000Z</time></trkpt>
        <trkpt lat="27.80865" lon="104.339258"><ele>1919.4735</ele><time>2026-06-22T21:01:46.000Z</time></trkpt>
        <trkpt lat="27.8086" lon="104.339294"><ele>1919.873</ele><time>2026-06-22T21:01:47.000Z</time></trkpt>
        <trkpt lat="27.808553" lon="104.339309"><ele>1919.425</ele><time>2026-06-22T21:01:48.000Z</time></trkpt>
        <trkpt lat="27.808515" lon="104.339347"><ele>1920.5333</ele><time>2026-06-22T21:01:49.000Z</time></trkpt>
        <trkpt lat="27.808463" lon="104.339429"><ele>1919.5322</ele><time>2026-06-22T21:01:51.000Z</time></trkpt>
        <trkpt lat="27.808442" lon="104.339496"><ele>1920.2252</ele><time>2026-06-22T21:01:52.000Z</time></trkpt>
        <trkpt lat="27.80842" lon="104.33956"><ele>1921.0911</ele><time>2026-06-22T21:01:53.000Z</time></trkpt>
        <trkpt lat="27.808404" lon="104.339618"><ele>1920.7996</ele><time>2026-06-22T21:01:54.000Z</time></trkpt>
        <trkpt lat="27.808404" lon="104.339677"><ele>1920.1263</ele><time>2026-06-22T21:01:55.000Z</time></trkpt>
        <trkpt lat="27.808402" lon="104.339735"><ele>1919.4875</ele><time>2026-06-22T21:01:56.000Z</time></trkpt>
        <trkpt lat="27.80838" lon="104.339793"><ele>1919.2</ele><time>2026-06-22T21:01:57.000Z</time></trkpt>
        <trkpt lat="27.808346" lon="104.339841"><ele>1920.1423</ele><time>2026-06-22T21:01:58.000Z</time></trkpt>
        <trkpt lat="27.808288" lon="104.339863"><ele>1919.8928</ele><time>2026-06-22T21:01:59.000Z</time></trkpt>
        <trkpt lat="27.80823" lon="104.339871"><ele>1920.8943</ele><time>2026-06-22T21:02:00.000Z</time></trkpt>
        <trkpt lat="27.808161" lon="104.339893"><ele>1920.0131</ele><time>2026-06-22T21:02:01.000Z</time></trkpt>
        <trkpt lat="27.80809" lon="104.339911"><ele>1919.6937</ele><time>2026-06-22T21:02:02.000Z</time></trkpt>
        <trkpt lat="27.808013" lon="104.33992"><ele>1920.1537</ele><time>2026-06-22T21:02:03.000Z</time></trkpt>
        <trkpt lat="27.807962" lon="104.339931"><ele>1920.2273</ele><time>2026-06-22T21:02:04.000Z</time></trkpt>
        <trkpt lat="27.807918" lon="104.339949"><ele>1923.073</ele><time>2026-06-22T21:02:05.000Z</time></trkpt>
        <trkpt lat="27.807872" lon="104.339951"><ele>1925.1753</ele><time>2026-06-22T21:02:06.000Z</time></trkpt>
        <trkpt lat="27.80782" lon="104.339982"><ele>1925.7179</ele><time>2026-06-22T21:02:07.000Z</time></trkpt>
        <trkpt lat="27.807768" lon="104.34002"><ele>1925.2299</ele><time>2026-06-22T21:02:08.000Z</time></trkpt>
        <trkpt lat="27.807698" lon="104.340081"><ele>1925.1581</ele><time>2026-06-22T21:02:10.000Z</time></trkpt>
        <trkpt lat="27.807655" lon="104.340115"><ele>1926.6991</ele><time>2026-06-22T21:02:11.000Z</time></trkpt>
        <trkpt lat="27.807603" lon="104.340143"><ele>1926.8119</ele><time>2026-06-22T21:02:12.000Z</time></trkpt>
        <trkpt lat="27.807547" lon="104.340171"><ele>1926.1902</ele><time>2026-06-22T21:02:13.000Z</time></trkpt>
        <trkpt lat="27.807489" lon="104.340203"><ele>1926.0177</ele><time>2026-06-22T21:02:14.000Z</time></trkpt>
        <trkpt lat="27.807417" lon="104.340226"><ele>1925.6482</ele><time>2026-06-22T21:02:15.000Z</time></trkpt>
        <trkpt lat="27.807357" lon="104.340242"><ele>1924.9594</ele><time>2026-06-22T21:02:16.000Z</time></trkpt>
        <trkpt lat="27.807297" lon="104.340246"><ele>1926.4419</ele><time>2026-06-22T21:02:17.000Z</time></trkpt>
        <trkpt lat="27.807241" lon="104.340214"><ele>1927.3613</ele><time>2026-06-22T21:02:18.000Z</time></trkpt>
        <trkpt lat="27.807195" lon="104.340178"><ele>1928.6293</ele><time>2026-06-22T21:02:19.000Z</time></trkpt>
        <trkpt lat="27.807152" lon="104.34014"><ele>1929.002</ele><time>2026-06-22T21:02:21.000Z</time></trkpt>
        <trkpt lat="27.807093" lon="104.340174"><ele>1932.0138</ele><time>2026-06-22T21:02:24.000Z</time></trkpt>
        <trkpt lat="27.807039" lon="104.340194"><ele>1934.2588</ele><time>2026-06-22T21:02:26.000Z</time></trkpt>
        <trkpt lat="27.806982" lon="104.340244"><ele>1932.114</ele><time>2026-06-22T21:02:29.000Z</time></trkpt>
        <trkpt lat="27.806915" lon="104.340235"><ele>1933.146</ele><time>2026-06-22T21:02:31.000Z</time></trkpt>
        <trkpt lat="27.806486" lon="104.340282"><ele>1933.812</ele><time>2026-06-22T21:02:33.000Z</time></trkpt>
        <trkpt lat="27.806401" lon="104.340292"><ele>1934.3418</ele><time>2026-06-22T21:02:34.000Z</time></trkpt>
        <trkpt lat="27.806321" lon="104.340292"><ele>1935.326</ele><time>2026-06-22T21:02:35.000Z</time></trkpt>
        <trkpt lat="27.806237" lon="104.340286"><ele>1935.3927</ele><time>2026-06-22T21:02:36.000Z</time></trkpt>
        <trkpt lat="27.806158" lon="104.340277"><ele>1935.6185</ele><time>2026-06-22T21:02:37.000Z</time></trkpt>
        <trkpt lat="27.806083" lon="104.340261"><ele>1936.061</ele><time>2026-06-22T21:02:38.000Z</time></trkpt>
        <trkpt lat="27.806018" lon="104.340237"><ele>1935.8971</ele><time>2026-06-22T21:02:39.000Z</time></trkpt>
        <trkpt lat="27.805959" lon="104.340229"><ele>1936.1813</ele><time>2026-06-22T21:02:40.000Z</time></trkpt>
        <trkpt lat="27.805901" lon="104.340225"><ele>1936.1348</ele><time>2026-06-22T21:02:41.000Z</time></trkpt>
        <trkpt lat="27.805841" lon="104.34025"><ele>1936.4119</ele><time>2026-06-22T21:02:42.000Z</time></trkpt>
        <trkpt lat="27.805782" lon="104.340259"><ele>1936.1807</ele><time>2026-06-22T21:02:43.000Z</time></trkpt>
        <trkpt lat="27.805724" lon="104.340277"><ele>1935.9646</ele><time>2026-06-22T21:02:44.000Z</time></trkpt>
        <trkpt lat="27.805668" lon="104.340295"><ele>1935.9272</ele><time>2026-06-22T21:02:45.000Z</time></trkpt>
        <trkpt lat="27.805613" lon="104.340345"><ele>1936.1486</ele><time>2026-06-22T21:02:46.000Z</time></trkpt>
        <trkpt lat="27.805559" lon="104.34038"><ele>1936.2465</ele><time>2026-06-22T21:02:47.000Z</time></trkpt>
        <trkpt lat="27.805505" lon="104.340412"><ele>1936.2288</ele><time>2026-06-22T21:02:48.000Z</time></trkpt>
        <trkpt lat="27.805453" lon="104.340445"><ele>1936.3118</ele><time>2026-06-22T21:02:49.000Z</time></trkpt>
        <trkpt lat="27.8054" lon="104.34048"><ele>1936.3959</ele><time>2026-06-22T21:02:50.000Z</time></trkpt>
        <trkpt lat="27.805347" lon="104.340521"><ele>1936.3905</ele><time>2026-06-22T21:02:51.000Z</time></trkpt>
        <trkpt lat="27.805339" lon="104.340676"><ele>1941.604</ele><time>2026-06-22T21:02:52.000Z</time></trkpt>
        <trkpt lat="27.805294" lon="104.340742"><ele>1941.7185</ele><time>2026-06-22T21:02:53.000Z</time></trkpt>
        <trkpt lat="27.805249" lon="104.340806"><ele>1941.6962</ele><time>2026-06-22T21:02:54.000Z</time></trkpt>
        <trkpt lat="27.805158" lon="104.340931"><ele>1944.9893</ele><time>2026-06-22T21:02:55.000Z</time></trkpt>
        <trkpt lat="27.805145" lon="104.340999"><ele>1946.6913</ele><time>2026-06-22T21:02:56.000Z</time></trkpt>
        <trkpt lat="27.805146" lon="104.341074"><ele>1947.0063</ele><time>2026-06-22T21:02:57.000Z</time></trkpt>
        <trkpt lat="27.805156" lon="104.341128"><ele>1947.6039</ele><time>2026-06-22T21:02:58.000Z</time></trkpt>
        <trkpt lat="27.805178" lon="104.341209"><ele>1945.199</ele><time>2026-06-22T21:02:59.000Z</time></trkpt>
        <trkpt lat="27.805201" lon="104.341293"><ele>1944.897</ele><time>2026-06-22T21:03:00.000Z</time></trkpt>
        <trkpt lat="27.80523" lon="104.341368"><ele>1943.921</ele><time>2026-06-22T21:03:01.000Z</time></trkpt>
        <trkpt lat="27.80525" lon="104.341446"><ele>1942.9745</ele><time>2026-06-22T21:03:02.000Z</time></trkpt>
        <trkpt lat="27.805263" lon="104.341527"><ele>1943.234</ele><time>2026-06-22T21:03:03.000Z</time></trkpt>
        <trkpt lat="27.805265" lon="104.341614"><ele>1943.9343</ele><time>2026-06-22T21:03:04.000Z</time></trkpt>
        <trkpt lat="27.80526" lon="104.341699"><ele>1944.4785</ele><time>2026-06-22T21:03:05.000Z</time></trkpt>
        <trkpt lat="27.80526" lon="104.341784"><ele>1944.4741</ele><time>2026-06-22T21:03:06.000Z</time></trkpt>
        <trkpt lat="27.805253" lon="104.341866"><ele>1944.4884</ele><time>2026-06-22T21:03:07.000Z</time></trkpt>
        <trkpt lat="27.805242" lon="104.341962"><ele>1944.7646</ele><time>2026-06-22T21:03:08.000Z</time></trkpt>
        <trkpt lat="27.805254" lon="104.342053"><ele>1945.3372</ele><time>2026-06-22T21:03:09.000Z</time></trkpt>
        <trkpt lat="27.805279" lon="104.342135"><ele>1945.5759</ele><time>2026-06-22T21:03:10.000Z</time></trkpt>
        <trkpt lat="27.805344" lon="104.342202"><ele>1945.6704</ele><time>2026-06-22T21:03:11.000Z</time></trkpt>
        <trkpt lat="27.805398" lon="104.342266"><ele>1945.7885</ele><time>2026-06-22T21:03:12.000Z</time></trkpt>
        <trkpt lat="27.805432" lon="104.34234"><ele>1946.5681</ele><time>2026-06-22T21:03:13.000Z</time></trkpt>
        <trkpt lat="27.805455" lon="104.342416"><ele>1947.087</ele><time>2026-06-22T21:03:14.000Z</time></trkpt>
        <trkpt lat="27.805467" lon="104.342491"><ele>1947.3396</ele><time>2026-06-22T21:03:15.000Z</time></trkpt>
        <trkpt lat="27.805479" lon="104.342581"><ele>1948.519</ele><time>2026-06-22T21:03:16.000Z</time></trkpt>
        <trkpt lat="27.805494" lon="104.34267"><ele>1948.7166</ele><time>2026-06-22T21:03:17.000Z</time></trkpt>
        <trkpt lat="27.805509" lon="104.342744"><ele>1949.0623</ele><time>2026-06-22T21:03:18.000Z</time></trkpt>
        <trkpt lat="27.805518" lon="104.342812"><ele>1950.0751</ele><time>2026-06-22T21:03:19.000Z</time></trkpt>
        <trkpt lat="27.805518" lon="104.342875"><ele>1949.6301</ele><time>2026-06-22T21:03:20.000Z</time></trkpt>
        <trkpt lat="27.805515" lon="104.342949"><ele>1950.4302</ele><time>2026-06-22T21:03:21.000Z</time></trkpt>
        <trkpt lat="27.805497" lon="104.343014"><ele>1951.3579</ele><time>2026-06-22T21:03:22.000Z</time></trkpt>
        <trkpt lat="27.805474" lon="104.343074"><ele>1950.4136</ele><time>2026-06-22T21:03:23.000Z</time></trkpt>
        <trkpt lat="27.805447" lon="104.343145"><ele>1951.9066</ele><time>2026-06-22T21:03:24.000Z</time></trkpt>
        <trkpt lat="27.80541" lon="104.343211"><ele>1951.8667</ele><time>2026-06-22T21:03:25.000Z</time></trkpt>
        <trkpt lat="27.805372" lon="104.343271"><ele>1952.4883</ele><time>2026-06-22T21:03:26.000Z</time></trkpt>
        <trkpt lat="27.805348" lon="104.34332"><ele>1951.7974</ele><time>2026-06-22T21:03:27.000Z</time></trkpt>
        <trkpt lat="27.805355" lon="104.34338"><ele>1951.3955</ele><time>2026-06-22T21:03:28.000Z</time></trkpt>
        <trkpt lat="27.805351" lon="104.343452"><ele>1952.7463</ele><time>2026-06-22T21:03:29.000Z</time></trkpt>
        <trkpt lat="27.80538" lon="104.343514"><ele>1950.7896</ele><time>2026-06-22T21:03:30.000Z</time></trkpt>
        <trkpt lat="27.805386" lon="104.343585"><ele>1950.2936</ele><time>2026-06-22T21:03:31.000Z</time></trkpt>
        <trkpt lat="27.805396" lon="104.343639"><ele>1949.2925</ele><time>2026-06-22T21:03:32.000Z</time></trkpt>
        <trkpt lat="27.805413" lon="104.343691"><ele>1947.9028</ele><time>2026-06-22T21:03:33.000Z</time></trkpt>
        <trkpt lat="27.805417" lon="104.343765"><ele>1947.0038</ele><time>2026-06-22T21:03:34.000Z</time></trkpt>
        <trkpt lat="27.805433" lon="104.34384"><ele>1947.2706</ele><time>2026-06-22T21:03:35.000Z</time></trkpt>
        <trkpt lat="27.80544" lon="104.343898"><ele>1946.561</ele><time>2026-06-22T21:03:36.000Z</time></trkpt>
        <trkpt lat="27.805452" lon="104.343954"><ele>1945.9762</ele><time>2026-06-22T21:03:37.000Z</time></trkpt>
        <trkpt lat="27.805458" lon="104.34402"><ele>1944.9225</ele><time>2026-06-22T21:03:38.000Z</time></trkpt>
        <trkpt lat="27.805459" lon="104.344084"><ele>1945.4186</ele><time>2026-06-22T21:03:39.000Z</time></trkpt>
        <trkpt lat="27.805445" lon="104.344151"><ele>1944.8792</ele><time>2026-06-22T21:03:40.000Z</time></trkpt>
        <trkpt lat="27.805427" lon="104.344213"><ele>1944.8025</ele><time>2026-06-22T21:03:41.000Z</time></trkpt>
        <trkpt lat="27.805377" lon="104.344259"><ele>1943.3024</ele><time>2026-06-22T21:03:42.000Z</time></trkpt>
        <trkpt lat="27.805325" lon="104.344302"><ele>1945.3295</ele><time>2026-06-22T21:03:43.000Z</time></trkpt>
        <trkpt lat="27.805261" lon="104.344334"><ele>1945.2795</ele><time>2026-06-22T21:03:44.000Z</time></trkpt>
        <trkpt lat="27.805205" lon="104.344369"><ele>1944.382</ele><time>2026-06-22T21:03:45.000Z</time></trkpt>
        <trkpt lat="27.80515" lon="104.3444"><ele>1943.1323</ele><time>2026-06-22T21:03:46.000Z</time></trkpt>
        <trkpt lat="27.805088" lon="104.344416"><ele>1941.8417</ele><time>2026-06-22T21:03:47.000Z</time></trkpt>
        <trkpt lat="27.805028" lon="104.344435"><ele>1941.6151</ele><time>2026-06-22T21:03:48.000Z</time></trkpt>
        <trkpt lat="27.804972" lon="104.34446"><ele>1941.3607</ele><time>2026-06-22T21:03:49.000Z</time></trkpt>
        <trkpt lat="27.804923" lon="104.344489"><ele>1941.1467</ele><time>2026-06-22T21:03:50.000Z</time></trkpt>
        <trkpt lat="27.804878" lon="104.344516"><ele>1940.7158</ele><time>2026-06-22T21:03:51.000Z</time></trkpt>
        <trkpt lat="27.804841" lon="104.344574"><ele>1940.4386</ele><time>2026-06-22T21:03:52.000Z</time></trkpt>
        <trkpt lat="27.804802" lon="104.344627"><ele>1939.5251</ele><time>2026-06-22T21:03:53.000Z</time></trkpt>
        <trkpt lat="27.804775" lon="104.344683"><ele>1939.5022</ele><time>2026-06-22T21:03:54.000Z</time></trkpt>
        <trkpt lat="27.804772" lon="104.344751"><ele>1938.5223</ele><time>2026-06-22T21:03:55.000Z</time></trkpt>
        <trkpt lat="27.804781" lon="104.344807"><ele>1939.3505</ele><time>2026-06-22T21:03:56.000Z</time></trkpt>
        <trkpt lat="27.804783" lon="104.344864"><ele>1938.2432</ele><time>2026-06-22T21:03:57.000Z</time></trkpt>
        <trkpt lat="27.804801" lon="104.344922"><ele>1938.5046</ele><time>2026-06-22T21:03:58.000Z</time></trkpt>
        <trkpt lat="27.804818" lon="104.344989"><ele>1937.9286</ele><time>2026-06-22T21:03:59.000Z</time></trkpt>
        <trkpt lat="27.804829" lon="104.345059"><ele>1937.7969</ele><time>2026-06-22T21:04:00.000Z</time></trkpt>
        <trkpt lat="27.804837" lon="104.345125"><ele>1936.4312</ele><time>2026-06-22T21:04:01.000Z</time></trkpt>
        <trkpt lat="27.804848" lon="104.345193"><ele>1934.7168</ele><time>2026-06-22T21:04:02.000Z</time></trkpt>
        <trkpt lat="27.804859" lon="104.345267"><ele>1933.917</ele><time>2026-06-22T21:04:03.000Z</time></trkpt>
        <trkpt lat="27.804861" lon="104.345324"><ele>1934.2582</ele><time>2026-06-22T21:04:04.000Z</time></trkpt>
        <trkpt lat="27.804864" lon="104.345423"><ele>1935.717</ele><time>2026-06-22T21:04:06.000Z</time></trkpt>
        <trkpt lat="27.804849" lon="104.345479"><ele>1934.9061</ele><time>2026-06-22T21:04:07.000Z</time></trkpt>
        <trkpt lat="27.804805" lon="104.345532"><ele>1933.864</ele><time>2026-06-22T21:04:08.000Z</time></trkpt>
        <trkpt lat="27.804756" lon="104.345574"><ele>1933.0961</ele><time>2026-06-22T21:04:09.000Z</time></trkpt>
        <trkpt lat="27.804703" lon="104.345613"><ele>1933.7747</ele><time>2026-06-22T21:04:10.000Z</time></trkpt>
        <trkpt lat="27.804588" lon="104.345592"><ele>1934.4176</ele><time>2026-06-22T21:04:12.000Z</time></trkpt>
        <trkpt lat="27.804515" lon="104.345554"><ele>1935.4669</ele><time>2026-06-22T21:04:13.000Z</time></trkpt>
        <trkpt lat="27.804458" lon="104.345524"><ele>1937.2731</ele><time>2026-06-22T21:04:14.000Z</time></trkpt>
        <trkpt lat="27.804398" lon="104.34551"><ele>1938.4546</ele><time>2026-06-22T21:04:15.000Z</time></trkpt>
        <trkpt lat="27.804334" lon="104.345512"><ele>1940.2301</ele><time>2026-06-22T21:04:16.000Z</time></trkpt>
        <trkpt lat="27.804275" lon="104.345524"><ele>1940.677</ele><time>2026-06-22T21:04:17.000Z</time></trkpt>
        <trkpt lat="27.804215" lon="104.345543"><ele>1940.7668</ele><time>2026-06-22T21:04:18.000Z</time></trkpt>
        <trkpt lat="27.804164" lon="104.345569"><ele>1940.2255</ele><time>2026-06-22T21:04:19.000Z</time></trkpt>
        <trkpt lat="27.804108" lon="104.345588"><ele>1939.164</ele><time>2026-06-22T21:04:20.000Z</time></trkpt>
        <trkpt lat="27.804038" lon="104.345593"><ele>1937.3911</ele><time>2026-06-22T21:04:21.000Z</time></trkpt>
        <trkpt lat="27.803976" lon="104.34565"><ele>1938.371</ele><time>2026-06-22T21:04:22.000Z</time></trkpt>
        <trkpt lat="27.803911" lon="104.345689"><ele>1936.804</ele><time>2026-06-22T21:04:23.000Z</time></trkpt>
        <trkpt lat="27.803849" lon="104.345717"><ele>1935.5217</ele><time>2026-06-22T21:04:24.000Z</time></trkpt>
        <trkpt lat="27.803786" lon="104.345766"><ele>1936.2283</ele><time>2026-06-22T21:04:25.000Z</time></trkpt>
        <trkpt lat="27.803726" lon="104.345843"><ele>1939.1439</ele><time>2026-06-22T21:04:26.000Z</time></trkpt>
        <trkpt lat="27.80366" lon="104.345878"><ele>1939.503</ele><time>2026-06-22T21:04:27.000Z</time></trkpt>
        <trkpt lat="27.8036" lon="104.345903"><ele>1937.3988</ele><time>2026-06-22T21:04:28.000Z</time></trkpt>
        <trkpt lat="27.803542" lon="104.34592"><ele>1936.5518</ele><time>2026-06-22T21:04:29.000Z</time></trkpt>
        <trkpt lat="27.80349" lon="104.345966"><ele>1935.9586</ele><time>2026-06-22T21:04:30.000Z</time></trkpt>
        <trkpt lat="27.803435" lon="104.346008"><ele>1935.6691</ele><time>2026-06-22T21:04:31.000Z</time></trkpt>
        <trkpt lat="27.803387" lon="104.346061"><ele>1934.6947</ele><time>2026-06-22T21:04:32.000Z</time></trkpt>
        <trkpt lat="27.803345" lon="104.346111"><ele>1934.1656</ele><time>2026-06-22T21:04:33.000Z</time></trkpt>
        <trkpt lat="27.803298" lon="104.346179"><ele>1934.8246</ele><time>2026-06-22T21:04:34.000Z</time></trkpt>
        <trkpt lat="27.80324" lon="104.346212"><ele>1935.0852</ele><time>2026-06-22T21:04:35.000Z</time></trkpt>
        <trkpt lat="27.80318" lon="104.34623"><ele>1932.8951</ele><time>2026-06-22T21:04:36.000Z</time></trkpt>
        <trkpt lat="27.803118" lon="104.346255"><ele>1932.9144</ele><time>2026-06-22T21:04:37.000Z</time></trkpt>
        <trkpt lat="27.803052" lon="104.346273"><ele>1932.8374</ele><time>2026-06-22T21:04:38.000Z</time></trkpt>
        <trkpt lat="27.802982" lon="104.346292"><ele>1932.7358</ele><time>2026-06-22T21:04:39.000Z</time></trkpt>
        <trkpt lat="27.802906" lon="104.346307"><ele>1932.5026</ele><time>2026-06-22T21:04:40.000Z</time></trkpt>
        <trkpt lat="27.802827" lon="104.346324"><ele>1931.7885</ele><time>2026-06-22T21:04:41.000Z</time></trkpt>
        <trkpt lat="27.802745" lon="104.346335"><ele>1930.9178</ele><time>2026-06-22T21:04:42.000Z</time></trkpt>
        <trkpt lat="27.802668" lon="104.34634"><ele>1930.9607</ele><time>2026-06-22T21:04:43.000Z</time></trkpt>
        <trkpt lat="27.802596" lon="104.346352"><ele>1931.1616</ele><time>2026-06-22T21:04:44.000Z</time></trkpt>
        <trkpt lat="27.80253" lon="104.346368"><ele>1930.603</ele><time>2026-06-22T21:04:45.000Z</time></trkpt>
        <trkpt lat="27.802469" lon="104.346391"><ele>1929.9813</ele><time>2026-06-22T21:04:46.000Z</time></trkpt>
        <trkpt lat="27.802415" lon="104.346437"><ele>1930.1024</ele><time>2026-06-22T21:04:47.000Z</time></trkpt>
        <trkpt lat="27.802364" lon="104.346503"><ele>1929.7642</ele><time>2026-06-22T21:04:48.000Z</time></trkpt>
        <trkpt lat="27.802319" lon="104.346574"><ele>1929.4576</ele><time>2026-06-22T21:04:49.000Z</time></trkpt>
        <trkpt lat="27.802269" lon="104.346633"><ele>1928.9398</ele><time>2026-06-22T21:04:50.000Z</time></trkpt>
        <trkpt lat="27.802225" lon="104.346696"><ele>1928.0013</ele><time>2026-06-22T21:04:51.000Z</time></trkpt>
        <trkpt lat="27.8022" lon="104.346774"><ele>1927.7365</ele><time>2026-06-22T21:04:52.000Z</time></trkpt>
        <trkpt lat="27.80218" lon="104.346852"><ele>1927.1481</ele><time>2026-06-22T21:04:53.000Z</time></trkpt>
        <trkpt lat="27.802163" lon="104.346934"><ele>1926.5681</ele><time>2026-06-22T21:04:54.000Z</time></trkpt>
        <trkpt lat="27.802152" lon="104.347003"><ele>1925.3041</ele><time>2026-06-22T21:04:55.000Z</time></trkpt>
        <trkpt lat="27.802152" lon="104.347078"><ele>1925.0216</ele><time>2026-06-22T21:04:56.000Z</time></trkpt>
        <trkpt lat="27.802146" lon="104.347148"><ele>1925.3541</ele><time>2026-06-22T21:04:57.000Z</time></trkpt>
        <trkpt lat="27.802125" lon="104.347214"><ele>1923.9105</ele><time>2026-06-22T21:04:58.000Z</time></trkpt>
        <trkpt lat="27.802105" lon="104.347293"><ele>1923.2571</ele><time>2026-06-22T21:04:59.000Z</time></trkpt>
        <trkpt lat="27.802066" lon="104.347351"><ele>1921.4756</ele><time>2026-06-22T21:05:00.000Z</time></trkpt>
        <trkpt lat="27.802017" lon="104.347404"><ele>1920.9116</ele><time>2026-06-22T21:05:01.000Z</time></trkpt>
        <trkpt lat="27.801972" lon="104.347469"><ele>1919.9103</ele><time>2026-06-22T21:05:02.000Z</time></trkpt>
        <trkpt lat="27.801921" lon="104.347532"><ele>1918.6818</ele><time>2026-06-22T21:05:03.000Z</time></trkpt>
        <trkpt lat="27.801871" lon="104.347602"><ele>1918.1212</ele><time>2026-06-22T21:05:04.000Z</time></trkpt>
        <trkpt lat="27.801815" lon="104.347659"><ele>1916.7073</ele><time>2026-06-22T21:05:05.000Z</time></trkpt>
        <trkpt lat="27.801758" lon="104.347723"><ele>1915.2306</ele><time>2026-06-22T21:05:06.000Z</time></trkpt>
        <trkpt lat="27.801701" lon="104.347784"><ele>1915.0625</ele><time>2026-06-22T21:05:07.000Z</time></trkpt>
        <trkpt lat="27.801649" lon="104.347839"><ele>1913.0701</ele><time>2026-06-22T21:05:08.000Z</time></trkpt>
        <trkpt lat="27.801607" lon="104.347912"><ele>1912.0209</ele><time>2026-06-22T21:05:09.000Z</time></trkpt>
        <trkpt lat="27.801573" lon="104.347991"><ele>1911.4978</ele><time>2026-06-22T21:05:10.000Z</time></trkpt>
        <trkpt lat="27.801546" lon="104.348065"><ele>1909.9043</ele><time>2026-06-22T21:05:11.000Z</time></trkpt>
        <trkpt lat="27.80153" lon="104.348136"><ele>1909.2416</ele><time>2026-06-22T21:05:12.000Z</time></trkpt>
        <trkpt lat="27.801488" lon="104.34817"><ele>1908.5922</ele><time>2026-06-22T21:05:13.000Z</time></trkpt>
        <trkpt lat="27.801433" lon="104.348178"><ele>1908.2625</ele><time>2026-06-22T21:05:14.000Z</time></trkpt>
        <trkpt lat="27.80137" lon="104.348196"><ele>1908.5801</ele><time>2026-06-22T21:05:15.000Z</time></trkpt>
        <trkpt lat="27.801297" lon="104.348203"><ele>1908.2133</ele><time>2026-06-22T21:05:16.000Z</time></trkpt>
        <trkpt lat="27.801224" lon="104.348199"><ele>1908.101</ele><time>2026-06-22T21:05:17.000Z</time></trkpt>
        <trkpt lat="27.801157" lon="104.348192"><ele>1908.0588</ele><time>2026-06-22T21:05:18.000Z</time></trkpt>
        <trkpt lat="27.80109" lon="104.3482"><ele>1910.2362</ele><time>2026-06-22T21:05:19.000Z</time></trkpt>
        <trkpt lat="27.801017" lon="104.348217"><ele>1909.8082</ele><time>2026-06-22T21:05:20.000Z</time></trkpt>
        <trkpt lat="27.800957" lon="104.348255"><ele>1909.6045</ele><time>2026-06-22T21:05:21.000Z</time></trkpt>
        <trkpt lat="27.800903" lon="104.348302"><ele>1907.8942</ele><time>2026-06-22T21:05:22.000Z</time></trkpt>
        <trkpt lat="27.800862" lon="104.348375"><ele>1908.1504</ele><time>2026-06-22T21:05:23.000Z</time></trkpt>
        <trkpt lat="27.800844" lon="104.348436"><ele>1909.1761</ele><time>2026-06-22T21:05:24.000Z</time></trkpt>
        <trkpt lat="27.80082" lon="104.348503"><ele>1908.5472</ele><time>2026-06-22T21:05:25.000Z</time></trkpt>
        <trkpt lat="27.800799" lon="104.348563"><ele>1908.605</ele><time>2026-06-22T21:05:26.000Z</time></trkpt>
        <trkpt lat="27.800761" lon="104.348627"><ele>1907.6046</ele><time>2026-06-22T21:05:27.000Z</time></trkpt>
        <trkpt lat="27.800729" lon="104.348681"><ele>1907.0582</ele><time>2026-06-22T21:05:28.000Z</time></trkpt>
        <trkpt lat="27.800685" lon="104.34872"><ele>1904.989</ele><time>2026-06-22T21:05:29.000Z</time></trkpt>
        <trkpt lat="27.800657" lon="104.348767"><ele>1904.1466</ele><time>2026-06-22T21:05:30.000Z</time></trkpt>
        <trkpt lat="27.800643" lon="104.348823"><ele>1902.1821</ele><time>2026-06-22T21:05:31.000Z</time></trkpt>
        <trkpt lat="27.800648" lon="104.348884"><ele>1901.2528</ele><time>2026-06-22T21:05:32.000Z</time></trkpt>
        <trkpt lat="27.800682" lon="104.348943"><ele>1900.3033</ele><time>2026-06-22T21:05:33.000Z</time></trkpt>
        <trkpt lat="27.800713" lon="104.348998"><ele>1900.288</ele><time>2026-06-22T21:05:34.000Z</time></trkpt>
        <trkpt lat="27.800758" lon="104.349052"><ele>1899.3462</ele><time>2026-06-22T21:05:35.000Z</time></trkpt>
        <trkpt lat="27.800789" lon="104.349106"><ele>1898.7075</ele><time>2026-06-22T21:05:36.000Z</time></trkpt>
        <trkpt lat="27.800813" lon="104.349162"><ele>1897.7012</ele><time>2026-06-22T21:05:37.000Z</time></trkpt>
        <trkpt lat="27.800833" lon="104.349215"><ele>1896.642</ele><time>2026-06-22T21:05:38.000Z</time></trkpt>
        <trkpt lat="27.800856" lon="104.349292"><ele>1895.6936</ele><time>2026-06-22T21:05:39.000Z</time></trkpt>
        <trkpt lat="27.800884" lon="104.349382"><ele>1895.2664</ele><time>2026-06-22T21:05:40.000Z</time></trkpt>
        <trkpt lat="27.800902" lon="104.349464"><ele>1894.0541</ele><time>2026-06-22T21:05:41.000Z</time></trkpt>
        <trkpt lat="27.800919" lon="104.349556"><ele>1893.6283</ele><time>2026-06-22T21:05:42.000Z</time></trkpt>
        <trkpt lat="27.800941" lon="104.349639"><ele>1892.9429</ele><time>2026-06-22T21:05:43.000Z</time></trkpt>
        <trkpt lat="27.800962" lon="104.349714"><ele>1891.3275</ele><time>2026-06-22T21:05:44.000Z</time></trkpt>
        <trkpt lat="27.801" lon="104.349783"><ele>1891.3036</ele><time>2026-06-22T21:05:45.000Z</time></trkpt>
        <trkpt lat="27.80104" lon="104.349847"><ele>1891.0393</ele><time>2026-06-22T21:05:46.000Z</time></trkpt>
        <trkpt lat="27.801079" lon="104.349903"><ele>1890.4216</ele><time>2026-06-22T21:05:47.000Z</time></trkpt>
        <trkpt lat="27.801136" lon="104.349944"><ele>1889.8257</ele><time>2026-06-22T21:05:48.000Z</time></trkpt>
        <trkpt lat="27.801193" lon="104.349977"><ele>1889.8546</ele><time>2026-06-22T21:05:49.000Z</time></trkpt>
        <trkpt lat="27.801249" lon="104.34999"><ele>1889.6815</ele><time>2026-06-22T21:05:50.000Z</time></trkpt>
        <trkpt lat="27.801303" lon="104.350036"><ele>1889.911</ele><time>2026-06-22T21:05:52.000Z</time></trkpt>
        <trkpt lat="27.80134" lon="104.350068"><ele>1893.3634</ele><time>2026-06-22T21:06:12.000Z</time></trkpt>
        <trkpt lat="27.801337" lon="104.350125"><ele>1898.9565</ele><time>2026-06-22T21:07:02.000Z</time></trkpt>
        <trkpt lat="27.801383" lon="104.350128"><ele>1897.7517</ele><time>2026-06-22T21:07:42.000Z</time></trkpt>
        <trkpt lat="27.801323" lon="104.350151"><ele>1889.6906</ele><time>2026-06-22T21:07:57.000Z</time></trkpt>
        <trkpt lat="27.80132" lon="104.350213"><ele>1890.5212</ele><time>2026-06-22T21:08:00.000Z</time></trkpt>
        <trkpt lat="27.801336" lon="104.350273"><ele>1891.2114</ele><time>2026-06-22T21:08:02.000Z</time></trkpt>
        <trkpt lat="27.801298" lon="104.350331"><ele>1889.5167</ele><time>2026-06-22T21:08:04.000Z</time></trkpt>
        <trkpt lat="27.801256" lon="104.350418"><ele>1889.3303</ele><time>2026-06-22T21:08:07.000Z</time></trkpt>
        <trkpt lat="27.801231" lon="104.350462"><ele>1888.2614</ele><time>2026-06-22T21:08:09.000Z</time></trkpt>
        <trkpt lat="27.80121" lon="104.350556"><ele>1887.3638</ele><time>2026-06-22T21:08:11.000Z</time></trkpt>
        <trkpt lat="27.801188" lon="104.350624"><ele>1887.2115</ele><time>2026-06-22T21:08:12.000Z</time></trkpt>
        <trkpt lat="27.801132" lon="104.350746"><ele>1885.9232</ele><time>2026-06-22T21:08:13.000Z</time></trkpt>
        <trkpt lat="27.801094" lon="104.35085"><ele>1885.1082</ele><time>2026-06-22T21:08:14.000Z</time></trkpt>
        <trkpt lat="27.801047" lon="104.350968"><ele>1883.9401</ele><time>2026-06-22T21:08:15.000Z</time></trkpt>
        <trkpt lat="27.80098" lon="104.351061"><ele>1882.8345</ele><time>2026-06-22T21:08:16.000Z</time></trkpt>
        <trkpt lat="27.800908" lon="104.35114"><ele>1881.6412</ele><time>2026-06-22T21:08:17.000Z</time></trkpt>
        <trkpt lat="27.800818" lon="104.351226"><ele>1880.693</ele><time>2026-06-22T21:08:18.000Z</time></trkpt>
        <trkpt lat="27.800712" lon="104.351341"><ele>1879.9186</ele><time>2026-06-22T21:08:19.000Z</time></trkpt>
        <trkpt lat="27.800595" lon="104.351449"><ele>1879.4379</ele><time>2026-06-22T21:08:20.000Z</time></trkpt>
        <trkpt lat="27.800513" lon="104.351552"><ele>1879.4186</ele><time>2026-06-22T21:08:21.000Z</time></trkpt>
        <trkpt lat="27.800217" lon="104.351825"><ele>1877.0536</ele><time>2026-06-22T21:08:24.000Z</time></trkpt>
        <trkpt lat="27.800107" lon="104.351899"><ele>1876.7687</ele><time>2026-06-22T21:08:25.000Z</time></trkpt>
        <trkpt lat="27.799986" lon="104.35197"><ele>1875.4471</ele><time>2026-06-22T21:08:26.000Z</time></trkpt>
        <trkpt lat="27.799641" lon="104.352148"><ele>1874.0571</ele><time>2026-06-22T21:08:28.000Z</time></trkpt>
        <trkpt lat="27.799077" lon="104.352184"><ele>1873.951</ele><time>2026-06-22T21:08:30.000Z</time></trkpt>
        <trkpt lat="27.798839" lon="104.352159"><ele>1873.1609</ele><time>2026-06-22T21:08:31.000Z</time></trkpt>
        <trkpt lat="27.798705" lon="104.352239"><ele>1873.6343</ele><time>2026-06-22T21:08:32.000Z</time></trkpt>
        <trkpt lat="27.79857" lon="104.352058"><ele>1873.174</ele><time>2026-06-22T21:08:33.000Z</time></trkpt>
        <trkpt lat="27.798414" lon="104.351964"><ele>1871.6847</ele><time>2026-06-22T21:08:34.000Z</time></trkpt>
        <trkpt lat="27.79831" lon="104.351817"><ele>1871.0011</ele><time>2026-06-22T21:08:35.000Z</time></trkpt>
        <trkpt lat="27.796983" lon="104.351842"><ele>1855.8918</ele><time>2026-06-22T21:08:42.000Z</time></trkpt>
        <trkpt lat="27.79692" lon="104.351856"><ele>1854.4852</ele><time>2026-06-22T21:08:43.000Z</time></trkpt>
        <trkpt lat="27.796851" lon="104.35187"><ele>1854.1183</ele><time>2026-06-22T21:08:44.000Z</time></trkpt>
        <trkpt lat="27.796718" lon="104.351893"><ele>1853.4733</ele><time>2026-06-22T21:08:45.000Z</time></trkpt>
        <trkpt lat="27.79663" lon="104.351909"><ele>1852.9032</ele><time>2026-06-22T21:08:46.000Z</time></trkpt>
        <trkpt lat="27.796441" lon="104.351932"><ele>1850.6212</ele><time>2026-06-22T21:08:50.000Z</time></trkpt>
        <trkpt lat="27.796244" lon="104.351927"><ele>1849.3059</ele><time>2026-06-22T21:08:52.000Z</time></trkpt>
        <trkpt lat="27.796082" lon="104.351899"><ele>1844.9086</ele><time>2026-06-22T21:08:59.000Z</time></trkpt>
        <trkpt lat="27.786951" lon="104.347166"><ele>1793.8506</ele><time>2026-06-22T21:10:38.000Z</time></trkpt>
        <trkpt lat="27.786815" lon="104.347082"><ele>1794.2732</ele><time>2026-06-22T21:10:39.000Z</time></trkpt>
        <trkpt lat="27.786685" lon="104.347"><ele>1794.6858</ele><time>2026-06-22T21:10:40.000Z</time></trkpt>
        <trkpt lat="27.786568" lon="104.346907"><ele>1795.3014</ele><time>2026-06-22T21:10:41.000Z</time></trkpt>
        <trkpt lat="27.786442" lon="104.346831"><ele>1796.0209</ele><time>2026-06-22T21:10:42.000Z</time></trkpt>
        <trkpt lat="27.786333" lon="104.346774"><ele>1797.1893</ele><time>2026-06-22T21:10:43.000Z</time></trkpt>
        <trkpt lat="27.78618" lon="104.346722"><ele>1797.3835</ele><time>2026-06-22T21:10:44.000Z</time></trkpt>
        <trkpt lat="27.786007" lon="104.346678"><ele>1797.1188</ele><time>2026-06-22T21:10:45.000Z</time></trkpt>
        <trkpt lat="27.785822" lon="104.346645"><ele>1797.4155</ele><time>2026-06-22T21:10:46.000Z</time></trkpt>
        <trkpt lat="27.785651" lon="104.346592"><ele>1798.1199</ele><time>2026-06-22T21:10:47.000Z</time></trkpt>
        <trkpt lat="27.785469" lon="104.346559"><ele>1798.1644</ele><time>2026-06-22T21:10:48.000Z</time></trkpt>
        <trkpt lat="27.785291" lon="104.34653"><ele>1799.1376</ele><time>2026-06-22T21:10:49.000Z</time></trkpt>
        <trkpt lat="27.785101" lon="104.346499"><ele>1799.8243</ele><time>2026-06-22T21:10:50.000Z</time></trkpt>
        <trkpt lat="27.784874" lon="104.346462"><ele>1800.2521</ele><time>2026-06-22T21:10:51.000Z</time></trkpt>
        <trkpt lat="27.784649" lon="104.346425"><ele>1800.3306</ele><time>2026-06-22T21:10:52.000Z</time></trkpt>
        <trkpt lat="27.784412" lon="104.346387"><ele>1800.6079</ele><time>2026-06-22T21:10:53.000Z</time></trkpt>
        <trkpt lat="27.784123" lon="104.346342"><ele>1800.7902</ele><time>2026-06-22T21:10:54.000Z</time></trkpt>
        <trkpt lat="27.783869" lon="104.346302"><ele>1800.7104</ele><time>2026-06-22T21:10:55.000Z</time></trkpt>
        <trkpt lat="27.78361" lon="104.34626"><ele>1800.3125</ele><time>2026-06-22T21:10:56.000Z</time></trkpt>
        <trkpt lat="27.783356" lon="104.346222"><ele>1798.9612</ele><time>2026-06-22T21:10:57.000Z</time></trkpt>
        <trkpt lat="27.783132" lon="104.346192"><ele>1799.1527</ele><time>2026-06-22T21:10:58.000Z</time></trkpt>
        <trkpt lat="27.782902" lon="104.346163"><ele>1799.0137</ele><time>2026-06-22T21:10:59.000Z</time></trkpt>
        <trkpt lat="27.782682" lon="104.346133"><ele>1799.1306</ele><time>2026-06-22T21:11:00.000Z</time></trkpt>
        <trkpt lat="27.782474" lon="104.346136"><ele>1798.9526</ele><time>2026-06-22T21:11:01.000Z</time></trkpt>
        <trkpt lat="27.782302" lon="104.346048"><ele>1798.8823</ele><time>2026-06-22T21:11:02.000Z</time></trkpt>
        <trkpt lat="27.782133" lon="104.345981"><ele>1799.1122</ele><time>2026-06-22T21:11:03.000Z</time></trkpt>
        <trkpt lat="27.781984" lon="104.345901"><ele>1798.9628</ele><time>2026-06-22T21:11:04.000Z</time></trkpt>
        <trkpt lat="27.781844" lon="104.345804"><ele>1799.2184</ele><time>2026-06-22T21:11:05.000Z</time></trkpt>
        <trkpt lat="27.781718" lon="104.34569"><ele>1799.3511</ele><time>2026-06-22T21:11:06.000Z</time></trkpt>
        <trkpt lat="27.781611" lon="104.345559"><ele>1800.2025</ele><time>2026-06-22T21:11:07.000Z</time></trkpt>
        <trkpt lat="27.781523" lon="104.345416"><ele>1801.6951</ele><time>2026-06-22T21:11:08.000Z</time></trkpt>
        <trkpt lat="27.781452" lon="104.345255"><ele>1802.5656</ele><time>2026-06-22T21:11:09.000Z</time></trkpt>
        <trkpt lat="27.781402" lon="104.345078"><ele>1802.9587</ele><time>2026-06-22T21:11:10.000Z</time></trkpt>
        <trkpt lat="27.781372" lon="104.344893"><ele>1802.9872</ele><time>2026-06-22T21:11:11.000Z</time></trkpt>
        <trkpt lat="27.781368" lon="104.344703"><ele>1803.1122</ele><time>2026-06-22T21:11:12.000Z</time></trkpt>
        <trkpt lat="27.781393" lon="104.34452"><ele>1805.9913</ele><time>2026-06-22T21:11:13.000Z</time></trkpt>
        <trkpt lat="27.781423" lon="104.344351"><ele>1807.2216</ele><time>2026-06-22T21:11:14.000Z</time></trkpt>
        <trkpt lat="27.781467" lon="104.344171"><ele>1805.5874</ele><time>2026-06-22T21:11:15.000Z</time></trkpt>
        <trkpt lat="27.781517" lon="104.343995"><ele>1805.0986</ele><time>2026-06-22T21:11:16.000Z</time></trkpt>
        <trkpt lat="27.781575" lon="104.343802"><ele>1803.8185</ele><time>2026-06-22T21:11:17.000Z</time></trkpt>
        <trkpt lat="27.781642" lon="104.343586"><ele>1802.952</ele><time>2026-06-22T21:11:18.000Z</time></trkpt>
        <trkpt lat="27.781714" lon="104.343352"><ele>1801.4789</ele><time>2026-06-22T21:11:19.000Z</time></trkpt>
        <trkpt lat="27.781786" lon="104.343111"><ele>1801.7344</ele><time>2026-06-22T21:11:20.000Z</time></trkpt>
        <trkpt lat="27.781855" lon="104.342874"><ele>1801.861</ele><time>2026-06-22T21:11:21.000Z</time></trkpt>
        <trkpt lat="27.781925" lon="104.342635"><ele>1801.7086</ele><time>2026-06-22T21:11:22.000Z</time></trkpt>
        <trkpt lat="27.781995" lon="104.342394"><ele>1801.5251</ele><time>2026-06-22T21:11:23.000Z</time></trkpt>
        <trkpt lat="27.782065" lon="104.342154"><ele>1802.4514</ele><time>2026-06-22T21:11:24.000Z</time></trkpt>
        <trkpt lat="27.782135" lon="104.341898"><ele>1800.9049</ele><time>2026-06-22T21:11:25.000Z</time></trkpt>
        <trkpt lat="27.782203" lon="104.341651"><ele>1799.5709</ele><time>2026-06-22T21:11:26.000Z</time></trkpt>
        <trkpt lat="27.782272" lon="104.34141"><ele>1798.6543</ele><time>2026-06-22T21:11:27.000Z</time></trkpt>
        <trkpt lat="27.782337" lon="104.341179"><ele>1798.9154</ele><time>2026-06-22T21:11:28.000Z</time></trkpt>
        <trkpt lat="27.782405" lon="104.34094"><ele>1797.2494</ele><time>2026-06-22T21:11:29.000Z</time></trkpt>
        <trkpt lat="27.782472" lon="104.340706"><ele>1796.0322</ele><time>2026-06-22T21:11:30.000Z</time></trkpt>
        <trkpt lat="27.782535" lon="104.340485"><ele>1795.7855</ele><time>2026-06-22T21:11:31.000Z</time></trkpt>
        <trkpt lat="27.782599" lon="104.340272"><ele>1794.9377</ele><time>2026-06-22T21:11:32.000Z</time></trkpt>
        <trkpt lat="27.782659" lon="104.34007"><ele>1794.3984</ele><time>2026-06-22T21:11:33.000Z</time></trkpt>
        <trkpt lat="27.782703" lon="104.339859"><ele>1793.7782</ele><time>2026-06-22T21:11:34.000Z</time></trkpt>
        <trkpt lat="27.782729" lon="104.339656"><ele>1793.644</ele><time>2026-06-22T21:11:35.000Z</time></trkpt>
        <trkpt lat="27.782729" lon="104.33945"><ele>1792.801</ele><time>2026-06-22T21:11:36.000Z</time></trkpt>
        <trkpt lat="27.782711" lon="104.339255"><ele>1792.5549</ele><time>2026-06-22T21:11:37.000Z</time></trkpt>
        <trkpt lat="27.782678" lon="104.339068"><ele>1793.089</ele><time>2026-06-22T21:11:38.000Z</time></trkpt>
        <trkpt lat="27.782611" lon="104.338889"><ele>1793.3329</ele><time>2026-06-22T21:11:39.000Z</time></trkpt>
        <trkpt lat="27.782537" lon="104.33872"><ele>1792.5823</ele><time>2026-06-22T21:11:40.000Z</time></trkpt>
        <trkpt lat="27.782437" lon="104.338569"><ele>1793.5386</ele><time>2026-06-22T21:11:41.000Z</time></trkpt>
        <trkpt lat="27.78232" lon="104.338417"><ele>1793.0917</ele><time>2026-06-22T21:11:42.000Z</time></trkpt>
        <trkpt lat="27.782208" lon="104.338289"><ele>1794.7444</ele><time>2026-06-22T21:11:43.000Z</time></trkpt>
        <trkpt lat="27.782091" lon="104.338156"><ele>1794.9354</ele><time>2026-06-22T21:11:44.000Z</time></trkpt>
        <trkpt lat="27.781971" lon="104.338021"><ele>1795.1068</ele><time>2026-06-22T21:11:45.000Z</time></trkpt>
        <trkpt lat="27.781836" lon="104.337897"><ele>1795.2405</ele><time>2026-06-22T21:11:46.000Z</time></trkpt>
        <trkpt lat="27.781707" lon="104.337773"><ele>1795.0267</ele><time>2026-06-22T21:11:47.000Z</time></trkpt>
        <trkpt lat="27.781574" lon="104.337645"><ele>1794.8673</ele><time>2026-06-22T21:11:48.000Z</time></trkpt>
        <trkpt lat="27.781445" lon="104.337508"><ele>1794.9755</ele><time>2026-06-22T21:11:49.000Z</time></trkpt>
        <trkpt lat="27.781319" lon="104.337366"><ele>1794.8778</ele><time>2026-06-22T21:11:50.000Z</time></trkpt>
        <trkpt lat="27.781201" lon="104.337219"><ele>1794.9331</ele><time>2026-06-22T21:11:51.000Z</time></trkpt>
        <trkpt lat="27.781093" lon="104.337064"><ele>1795.137</ele><time>2026-06-22T21:11:52.000Z</time></trkpt>
        <trkpt lat="27.780981" lon="104.336906"><ele>1795.4691</ele><time>2026-06-22T21:11:53.000Z</time></trkpt>
        <trkpt lat="27.780904" lon="104.336727"><ele>1795.5227</ele><time>2026-06-22T21:11:54.000Z</time></trkpt>
        <trkpt lat="27.780833" lon="104.336539"><ele>1795.1786</ele><time>2026-06-22T21:11:55.000Z</time></trkpt>
        <trkpt lat="27.780797" lon="104.336336"><ele>1795.5105</ele><time>2026-06-22T21:11:56.000Z</time></trkpt>
        <trkpt lat="27.780767" lon="104.336133"><ele>1795.8057</ele><time>2026-06-22T21:11:57.000Z</time></trkpt>
        <trkpt lat="27.780745" lon="104.335927"><ele>1796.64</ele><time>2026-06-22T21:11:58.000Z</time></trkpt>
        <trkpt lat="27.78073" lon="104.335708"><ele>1796.9669</ele><time>2026-06-22T21:11:59.000Z</time></trkpt>
        <trkpt lat="27.780718" lon="104.335499"><ele>1798.0642</ele><time>2026-06-22T21:12:00.000Z</time></trkpt>
        <trkpt lat="27.780711" lon="104.33529"><ele>1798.9036</ele><time>2026-06-22T21:12:01.000Z</time></trkpt>
        <trkpt lat="27.78071" lon="104.335085"><ele>1798.9287</ele><time>2026-06-22T21:12:02.000Z</time></trkpt>
        <trkpt lat="27.780708" lon="104.334866"><ele>1798.6453</ele><time>2026-06-22T21:12:03.000Z</time></trkpt>
        <trkpt lat="27.780702" lon="104.334657"><ele>1798.9264</ele><time>2026-06-22T21:12:04.000Z</time></trkpt>
        <trkpt lat="27.780694" lon="104.334453"><ele>1798.9255</ele><time>2026-06-22T21:12:05.000Z</time></trkpt>
        <trkpt lat="27.780689" lon="104.33427"><ele>1798.8859</ele><time>2026-06-22T21:12:06.000Z</time></trkpt>
        <trkpt lat="27.780686" lon="104.334068"><ele>1798.4314</ele><time>2026-06-22T21:12:07.000Z</time></trkpt>
        <trkpt lat="27.780669" lon="104.333864"><ele>1797.9459</ele><time>2026-06-22T21:12:08.000Z</time></trkpt>
        <trkpt lat="27.780678" lon="104.333657"><ele>1798.1871</ele><time>2026-06-22T21:12:09.000Z</time></trkpt>
        <trkpt lat="27.780677" lon="104.333449"><ele>1797.9508</ele><time>2026-06-22T21:12:10.000Z</time></trkpt>
        <trkpt lat="27.780671" lon="104.333234"><ele>1798.1422</ele><time>2026-06-22T21:12:11.000Z</time></trkpt>
        <trkpt lat="27.780669" lon="104.333023"><ele>1798.7797</ele><time>2026-06-22T21:12:12.000Z</time></trkpt>
        <trkpt lat="27.780668" lon="104.332812"><ele>1799.0275</ele><time>2026-06-22T21:12:13.000Z</time></trkpt>
        <trkpt lat="27.780664" lon="104.332602"><ele>1799.3055</ele><time>2026-06-22T21:12:14.000Z</time></trkpt>
        <trkpt lat="27.780657" lon="104.332395"><ele>1799.5508</ele><time>2026-06-22T21:12:15.000Z</time></trkpt>
        <trkpt lat="27.780653" lon="104.332188"><ele>1799.8086</ele><time>2026-06-22T21:12:16.000Z</time></trkpt>
        <trkpt lat="27.780651" lon="104.331982"><ele>1800.0814</ele><time>2026-06-22T21:12:17.000Z</time></trkpt>
        <trkpt lat="27.78065" lon="104.331773"><ele>1800.5098</ele><time>2026-06-22T21:12:18.000Z</time></trkpt>
        <trkpt lat="27.780654" lon="104.331565"><ele>1801.351</ele><time>2026-06-22T21:12:19.000Z</time></trkpt>
        <trkpt lat="27.780655" lon="104.331358"><ele>1801.9279</ele><time>2026-06-22T21:12:20.000Z</time></trkpt>
        <trkpt lat="27.780653" lon="104.331154"><ele>1802.0624</ele><time>2026-06-22T21:12:21.000Z</time></trkpt>
        <trkpt lat="27.780651" lon="104.330952"><ele>1802.368</ele><time>2026-06-22T21:12:22.000Z</time></trkpt>
        <trkpt lat="27.780648" lon="104.330748"><ele>1802.7871</ele><time>2026-06-22T21:12:23.000Z</time></trkpt>
        <trkpt lat="27.780644" lon="104.330541"><ele>1803.064</ele><time>2026-06-22T21:12:24.000Z</time></trkpt>
        <trkpt lat="27.780641" lon="104.33033"><ele>1803.7437</ele><time>2026-06-22T21:12:25.000Z</time></trkpt>
        <trkpt lat="27.780635" lon="104.330116"><ele>1803.9603</ele><time>2026-06-22T21:12:26.000Z</time></trkpt>
        <trkpt lat="27.780631" lon="104.329899"><ele>1804.1853</ele><time>2026-06-22T21:12:27.000Z</time></trkpt>
        <trkpt lat="27.78063" lon="104.329679"><ele>1804.8649</ele><time>2026-06-22T21:12:28.000Z</time></trkpt>
        <trkpt lat="27.780626" lon="104.329459"><ele>1805.2346</ele><time>2026-06-22T21:12:29.000Z</time></trkpt>
        <trkpt lat="27.780623" lon="104.329239"><ele>1805.8931</ele><time>2026-06-22T21:12:30.000Z</time></trkpt>
        <trkpt lat="27.780621" lon="104.329019"><ele>1806.648</ele><time>2026-06-22T21:12:31.000Z</time></trkpt>
        <trkpt lat="27.780619" lon="104.3288"><ele>1807.2404</ele><time>2026-06-22T21:12:32.000Z</time></trkpt>
        <trkpt lat="27.780614" lon="104.328582"><ele>1807.5134</ele><time>2026-06-22T21:12:33.000Z</time></trkpt>
        <trkpt lat="27.780608" lon="104.328365"><ele>1807.8574</ele><time>2026-06-22T21:12:34.000Z</time></trkpt>
        <trkpt lat="27.780603" lon="104.328149"><ele>1808.4667</ele><time>2026-06-22T21:12:35.000Z</time></trkpt>
        <trkpt lat="27.780596" lon="104.327932"><ele>1808.7916</ele><time>2026-06-22T21:12:36.000Z</time></trkpt>
        <trkpt lat="27.780591" lon="104.327712"><ele>1809.1974</ele><time>2026-06-22T21:12:37.000Z</time></trkpt>
        <trkpt lat="27.780585" lon="104.327489"><ele>1809.3862</ele><time>2026-06-22T21:12:38.000Z</time></trkpt>
        <trkpt lat="27.78058" lon="104.327266"><ele>1809.6923</ele><time>2026-06-22T21:12:39.000Z</time></trkpt>
        <trkpt lat="27.780569" lon="104.327042"><ele>1810.0774</ele><time>2026-06-22T21:12:40.000Z</time></trkpt>
        <trkpt lat="27.780547" lon="104.326826"><ele>1810.51</ele><time>2026-06-22T21:12:41.000Z</time></trkpt>
        <trkpt lat="27.780509" lon="104.326618"><ele>1810.946</ele><time>2026-06-22T21:12:42.000Z</time></trkpt>
        <trkpt lat="27.78046" lon="104.326418"><ele>1811.4526</ele><time>2026-06-22T21:12:43.000Z</time></trkpt>
        <trkpt lat="27.780397" lon="104.326242"><ele>1812.4003</ele><time>2026-06-22T21:12:44.000Z</time></trkpt>
        <trkpt lat="27.780283" lon="104.326067"><ele>1812.536</ele><time>2026-06-22T21:12:45.000Z</time></trkpt>
        <trkpt lat="27.78017" lon="104.325912"><ele>1812.7046</ele><time>2026-06-22T21:12:46.000Z</time></trkpt>
        <trkpt lat="27.780046" lon="104.325766"><ele>1812.7415</ele><time>2026-06-22T21:12:47.000Z</time></trkpt>
        <trkpt lat="27.779921" lon="104.325613"><ele>1813.3688</ele><time>2026-06-22T21:12:48.000Z</time></trkpt>
        <trkpt lat="27.779788" lon="104.325461"><ele>1813.2328</ele><time>2026-06-22T21:12:49.000Z</time></trkpt>
        <trkpt lat="27.779661" lon="104.32531"><ele>1813.4338</ele><time>2026-06-22T21:12:50.000Z</time></trkpt>
        <trkpt lat="27.779538" lon="104.325159"><ele>1813.1301</ele><time>2026-06-22T21:12:51.000Z</time></trkpt>
        <trkpt lat="27.779422" lon="104.325011"><ele>1813.1138</ele><time>2026-06-22T21:12:52.000Z</time></trkpt>
        <trkpt lat="27.779315" lon="104.32486"><ele>1813.2838</ele><time>2026-06-22T21:12:53.000Z</time></trkpt>
        <trkpt lat="27.779228" lon="104.324707"><ele>1813.0212</ele><time>2026-06-22T21:12:54.000Z</time></trkpt>
        <trkpt lat="27.779158" lon="104.324564"><ele>1813.067</ele><time>2026-06-22T21:12:55.000Z</time></trkpt>
        <trkpt lat="27.7791" lon="104.324423"><ele>1813.3451</ele><time>2026-06-22T21:12:56.000Z</time></trkpt>
        <trkpt lat="27.779052" lon="104.324277"><ele>1813.7004</ele><time>2026-06-22T21:12:57.000Z</time></trkpt>
        <trkpt lat="27.779016" lon="104.32412"><ele>1815.0277</ele><time>2026-06-22T21:12:58.000Z</time></trkpt>
        <trkpt lat="27.779005" lon="104.323956"><ele>1816.1626</ele><time>2026-06-22T21:12:59.000Z</time></trkpt>
        <trkpt lat="27.778992" lon="104.323789"><ele>1816.7516</ele><time>2026-06-22T21:13:00.000Z</time></trkpt>
        <trkpt lat="27.779035" lon="104.323644"><ele>1817.7527</ele><time>2026-06-22T21:13:01.000Z</time></trkpt>
        <trkpt lat="27.779067" lon="104.323462"><ele>1818.5085</ele><time>2026-06-22T21:13:02.000Z</time></trkpt>
        <trkpt lat="27.779105" lon="104.323262"><ele>1819.3671</ele><time>2026-06-22T21:13:03.000Z</time></trkpt>
        <trkpt lat="27.779129" lon="104.32306"><ele>1820.5493</ele><time>2026-06-22T21:13:04.000Z</time></trkpt>
        <trkpt lat="27.779134" lon="104.322834"><ele>1821.0846</ele><time>2026-06-22T21:13:05.000Z</time></trkpt>
        <trkpt lat="27.779103" lon="104.322619"><ele>1821.3405</ele><time>2026-06-22T21:13:06.000Z</time></trkpt>
        <trkpt lat="27.779093" lon="104.322401"><ele>1822.5002</ele><time>2026-06-22T21:13:07.000Z</time></trkpt>
        <trkpt lat="27.779069" lon="104.322178"><ele>1822.6067</ele><time>2026-06-22T21:13:08.000Z</time></trkpt>
        <trkpt lat="27.779024" lon="104.321944"><ele>1822.6381</ele><time>2026-06-22T21:13:09.000Z</time></trkpt>
        <trkpt lat="27.778983" lon="104.321706"><ele>1823.454</ele><time>2026-06-22T21:13:10.000Z</time></trkpt>
        <trkpt lat="27.778934" lon="104.321459"><ele>1823.1296</ele><time>2026-06-22T21:13:11.000Z</time></trkpt>
        <trkpt lat="27.778889" lon="104.321205"><ele>1823.9512</ele><time>2026-06-22T21:13:12.000Z</time></trkpt>
        <trkpt lat="27.778837" lon="104.320947"><ele>1825.3792</ele><time>2026-06-22T21:13:13.000Z</time></trkpt>
        <trkpt lat="27.778793" lon="104.320687"><ele>1826.4823</ele><time>2026-06-22T21:13:14.000Z</time></trkpt>
        <trkpt lat="27.778749" lon="104.320436"><ele>1827.8126</ele><time>2026-06-22T21:13:15.000Z</time></trkpt>
        <trkpt lat="27.778705" lon="104.320186"><ele>1829.0886</ele><time>2026-06-22T21:13:16.000Z</time></trkpt>
        <trkpt lat="27.778651" lon="104.319932"><ele>1830.2843</ele><time>2026-06-22T21:13:17.000Z</time></trkpt>
        <trkpt lat="27.778599" lon="104.319674"><ele>1831.246</ele><time>2026-06-22T21:13:18.000Z</time></trkpt>
        <trkpt lat="27.778553" lon="104.319427"><ele>1832.4182</ele><time>2026-06-22T21:13:19.000Z</time></trkpt>
        <trkpt lat="27.77851" lon="104.31919"><ele>1833.4602</ele><time>2026-06-22T21:13:20.000Z</time></trkpt>
        <trkpt lat="27.778467" lon="104.318963"><ele>1834.6136</ele><time>2026-06-22T21:13:21.000Z</time></trkpt>
        <trkpt lat="27.778421" lon="104.318744"><ele>1835.6613</ele><time>2026-06-22T21:13:22.000Z</time></trkpt>
        <trkpt lat="27.778374" lon="104.318536"><ele>1836.6213</ele><time>2026-06-22T21:13:23.000Z</time></trkpt>
        <trkpt lat="27.778329" lon="104.318337"><ele>1837.783</ele><time>2026-06-22T21:13:24.000Z</time></trkpt>
        <trkpt lat="27.77829" lon="104.318139"><ele>1838.8329</ele><time>2026-06-22T21:13:25.000Z</time></trkpt>
        <trkpt lat="27.778259" lon="104.317936"><ele>1839.9064</ele><time>2026-06-22T21:13:26.000Z</time></trkpt>
        <trkpt lat="27.778232" lon="104.317729"><ele>1840.8666</ele><time>2026-06-22T21:13:27.000Z</time></trkpt>
        <trkpt lat="27.778208" lon="104.317517"><ele>1841.7621</ele><time>2026-06-22T21:13:28.000Z</time></trkpt>
        <trkpt lat="27.778193" lon="104.317298"><ele>1842.8829</ele><time>2026-06-22T21:13:29.000Z</time></trkpt>
        <trkpt lat="27.778191" lon="104.317075"><ele>1844.0764</ele><time>2026-06-22T21:13:30.000Z</time></trkpt>
        <trkpt lat="27.778197" lon="104.316851"><ele>1845.0062</ele><time>2026-06-22T21:13:31.000Z</time></trkpt>
        <trkpt lat="27.778203" lon="104.316632"><ele>1845.8191</ele><time>2026-06-22T21:13:32.000Z</time></trkpt>
        <trkpt lat="27.778201" lon="104.316411"><ele>1846.8376</ele><time>2026-06-22T21:13:33.000Z</time></trkpt>
        <trkpt lat="27.778182" lon="104.316189"><ele>1847.52</ele><time>2026-06-22T21:13:34.000Z</time></trkpt>
        <trkpt lat="27.778147" lon="104.315971"><ele>1848.6309</ele><time>2026-06-22T21:13:35.000Z</time></trkpt>
        <trkpt lat="27.778091" lon="104.315758"><ele>1849.4836</ele><time>2026-06-22T21:13:36.000Z</time></trkpt>
        <trkpt lat="27.77802" lon="104.31555"><ele>1850.5294</ele><time>2026-06-22T21:13:37.000Z</time></trkpt>
        <trkpt lat="27.777937" lon="104.315341"><ele>1850.6624</ele><time>2026-06-22T21:13:38.000Z</time></trkpt>
        <trkpt lat="27.777849" lon="104.315132"><ele>1851.0446</ele><time>2026-06-22T21:13:39.000Z</time></trkpt>
        <trkpt lat="27.777759" lon="104.314922"><ele>1851.7361</ele><time>2026-06-22T21:13:40.000Z</time></trkpt>
        <trkpt lat="27.777673" lon="104.31471"><ele>1852.4564</ele><time>2026-06-22T21:13:41.000Z</time></trkpt>
        <trkpt lat="27.777594" lon="104.314493"><ele>1853.0703</ele><time>2026-06-22T21:13:42.000Z</time></trkpt>
        <trkpt lat="27.777507" lon="104.314278"><ele>1854.3191</ele><time>2026-06-22T21:13:43.000Z</time></trkpt>
        <trkpt lat="27.777417" lon="104.314066"><ele>1855.393</ele><time>2026-06-22T21:13:44.000Z</time></trkpt>
        <trkpt lat="27.777327" lon="104.313853"><ele>1856.5131</ele><time>2026-06-22T21:13:45.000Z</time></trkpt>
        <trkpt lat="27.777239" lon="104.31364"><ele>1857.6385</ele><time>2026-06-22T21:13:46.000Z</time></trkpt>
        <trkpt lat="27.777157" lon="104.313429"><ele>1858.9785</ele><time>2026-06-22T21:13:47.000Z</time></trkpt>
        <trkpt lat="27.777091" lon="104.313221"><ele>1859.9371</ele><time>2026-06-22T21:13:48.000Z</time></trkpt>
        <trkpt lat="27.777038" lon="104.313012"><ele>1860.8475</ele><time>2026-06-22T21:13:49.000Z</time></trkpt>
        <trkpt lat="27.776993" lon="104.312801"><ele>1862.7034</ele><time>2026-06-22T21:13:50.000Z</time></trkpt>
        <trkpt lat="27.776962" lon="104.312597"><ele>1865.0269</ele><time>2026-06-22T21:13:51.000Z</time></trkpt>
        <trkpt lat="27.776939" lon="104.312396"><ele>1866.8849</ele><time>2026-06-22T21:13:52.000Z</time></trkpt>
        <trkpt lat="27.776919" lon="104.312195"><ele>1868.2422</ele><time>2026-06-22T21:13:53.000Z</time></trkpt>
        <trkpt lat="27.776877" lon="104.311974"><ele>1869.7246</ele><time>2026-06-22T21:13:54.000Z</time></trkpt>
        <trkpt lat="27.776815" lon="104.31175"><ele>1870.759</ele><time>2026-06-22T21:13:55.000Z</time></trkpt>
        <trkpt lat="27.776747" lon="104.311549"><ele>1871.5796</ele><time>2026-06-22T21:13:56.000Z</time></trkpt>
        <trkpt lat="27.776667" lon="104.31139"><ele>1872.2223</ele><time>2026-06-22T21:13:57.000Z</time></trkpt>
        <trkpt lat="27.776583" lon="104.311289"><ele>1872.2446</ele><time>2026-06-22T21:13:58.000Z</time></trkpt>
        <trkpt lat="27.776486" lon="104.311174"><ele>1872.8507</ele><time>2026-06-22T21:13:59.000Z</time></trkpt>
        <trkpt lat="27.776364" lon="104.311069"><ele>1873.3561</ele><time>2026-06-22T21:14:00.000Z</time></trkpt>
        <trkpt lat="27.776209" lon="104.310983"><ele>1873.4454</ele><time>2026-06-22T21:14:01.000Z</time></trkpt>
        <trkpt lat="27.77606" lon="104.310919"><ele>1874.0302</ele><time>2026-06-22T21:14:02.000Z</time></trkpt>
        <trkpt lat="27.775907" lon="104.31088"><ele>1874.2137</ele><time>2026-06-22T21:14:03.000Z</time></trkpt>
        <trkpt lat="27.775751" lon="104.31086"><ele>1874.9072</ele><time>2026-06-22T21:14:04.000Z</time></trkpt>
        <trkpt lat="27.775587" lon="104.310841"><ele>1875.4468</ele><time>2026-06-22T21:14:05.000Z</time></trkpt>
        <trkpt lat="27.775423" lon="104.310821"><ele>1875.906</ele><time>2026-06-22T21:14:06.000Z</time></trkpt>
        <trkpt lat="27.775278" lon="104.310785"><ele>1877.7465</ele><time>2026-06-22T21:14:07.000Z</time></trkpt>
        <trkpt lat="27.775113" lon="104.310731"><ele>1879.4065</ele><time>2026-06-22T21:14:08.000Z</time></trkpt>
        <trkpt lat="27.774963" lon="104.310656"><ele>1880.2206</ele><time>2026-06-22T21:14:09.000Z</time></trkpt>
        <trkpt lat="27.774807" lon="104.310558"><ele>1880.7684</ele><time>2026-06-22T21:14:10.000Z</time></trkpt>
        <trkpt lat="27.774674" lon="104.310455"><ele>1880.8367</ele><time>2026-06-22T21:14:11.000Z</time></trkpt>
        <trkpt lat="27.774532" lon="104.310326"><ele>1880.9108</ele><time>2026-06-22T21:14:12.000Z</time></trkpt>
        <trkpt lat="27.774388" lon="104.31019"><ele>1880.7504</ele><time>2026-06-22T21:14:13.000Z</time></trkpt>
        <trkpt lat="27.774267" lon="104.310025"><ele>1880.7438</ele><time>2026-06-22T21:14:14.000Z</time></trkpt>
        <trkpt lat="27.774145" lon="104.309939"><ele>1880.667</ele><time>2026-06-22T21:14:15.000Z</time></trkpt>
        <trkpt lat="27.774053" lon="104.309829"><ele>1880.9896</ele><time>2026-06-22T21:14:16.000Z</time></trkpt>
        <trkpt lat="27.773962" lon="104.309629"><ele>1881.4271</ele><time>2026-06-22T21:14:17.000Z</time></trkpt>
        <trkpt lat="27.773871" lon="104.309425"><ele>1882.4396</ele><time>2026-06-22T21:14:18.000Z</time></trkpt>
        <trkpt lat="27.773784" lon="104.309223"><ele>1884.0692</ele><time>2026-06-22T21:14:19.000Z</time></trkpt>
        <trkpt lat="27.773725" lon="104.309011"><ele>1884.8613</ele><time>2026-06-22T21:14:20.000Z</time></trkpt>
        <trkpt lat="27.773712" lon="104.308819"><ele>1885.4073</ele><time>2026-06-22T21:14:21.000Z</time></trkpt>
        <trkpt lat="27.773709" lon="104.308609"><ele>1886.1392</ele><time>2026-06-22T21:14:22.000Z</time></trkpt>
        <trkpt lat="27.773723" lon="104.308399"><ele>1887.2576</ele><time>2026-06-22T21:14:23.000Z</time></trkpt>
        <trkpt lat="27.773843" lon="104.308273"><ele>1887.8857</ele><time>2026-06-22T21:14:24.000Z</time></trkpt>
        <trkpt lat="27.773924" lon="104.308107"><ele>1890.1537</ele><time>2026-06-22T21:14:25.000Z</time></trkpt>
        <trkpt lat="27.773954" lon="104.30773"><ele>1893.4061</ele><time>2026-06-22T21:14:27.000Z</time></trkpt>
        <trkpt lat="27.773963" lon="104.30755"><ele>1894.827</ele><time>2026-06-22T21:14:28.000Z</time></trkpt>
        <trkpt lat="27.77397" lon="104.307378"><ele>1895.9048</ele><time>2026-06-22T21:14:29.000Z</time></trkpt>
        <trkpt lat="27.773976" lon="104.307213"><ele>1896.8146</ele><time>2026-06-22T21:14:30.000Z</time></trkpt>
        <trkpt lat="27.773981" lon="104.307056"><ele>1897.0103</ele><time>2026-06-22T21:14:31.000Z</time></trkpt>
        <trkpt lat="27.773985" lon="104.306904"><ele>1897.5107</ele><time>2026-06-22T21:14:32.000Z</time></trkpt>
        <trkpt lat="27.773989" lon="104.306757"><ele>1897.1292</ele><time>2026-06-22T21:14:33.000Z</time></trkpt>
        <trkpt lat="27.773993" lon="104.306613"><ele>1897.1677</ele><time>2026-06-22T21:14:34.000Z</time></trkpt>
        <trkpt lat="27.77401" lon="104.306452"><ele>1898.2927</ele><time>2026-06-22T21:14:35.000Z</time></trkpt>
        <trkpt lat="27.774029" lon="104.306294"><ele>1899.246</ele><time>2026-06-22T21:14:36.000Z</time></trkpt>
        <trkpt lat="27.774026" lon="104.306174"><ele>1900.5239</ele><time>2026-06-22T21:14:37.000Z</time></trkpt>
        <trkpt lat="27.774024" lon="104.306067"><ele>1900.846</ele><time>2026-06-22T21:14:38.000Z</time></trkpt>
        <trkpt lat="27.774015" lon="104.305984"><ele>1900.9004</ele><time>2026-06-22T21:14:39.000Z</time></trkpt>
        <trkpt lat="27.774012" lon="104.3059"><ele>1900.216</ele><time>2026-06-22T21:14:40.000Z</time></trkpt>
        <trkpt lat="27.774021" lon="104.305693"><ele>1900.4005</ele><time>2026-06-22T21:14:42.000Z</time></trkpt>
        <trkpt lat="27.774022" lon="104.305613"><ele>1900.5271</ele><time>2026-06-22T21:14:43.000Z</time></trkpt>
        <trkpt lat="27.774017" lon="104.305528"><ele>1900.499</ele><time>2026-06-22T21:14:44.000Z</time></trkpt>
        <trkpt lat="27.774024" lon="104.305455"><ele>1900.5469</ele><time>2026-06-22T21:14:45.000Z</time></trkpt>
        <trkpt lat="27.774119" lon="104.305077"><ele>1899.0563</ele><time>2026-06-22T21:14:49.000Z</time></trkpt>
        <trkpt lat="27.774143" lon="104.305009"><ele>1898.1218</ele><time>2026-06-22T21:14:50.000Z</time></trkpt>
        <trkpt lat="27.774107" lon="104.305009"><ele>1896.1342</ele><time>2026-06-22T21:14:54.000Z</time></trkpt>
        <trkpt lat="27.774097" lon="104.305066"><ele>1895.567</ele><time>2026-06-22T21:14:55.000Z</time></trkpt>
        <trkpt lat="27.774126" lon="104.304963"><ele>1894.8901</ele><time>2026-06-22T21:14:56.000Z</time></trkpt>
        <trkpt lat="27.774159" lon="104.304847"><ele>1894.3197</ele><time>2026-06-22T21:14:57.000Z</time></trkpt>
        <trkpt lat="27.774996" lon="104.30284"><ele>1891.8334</ele><time>2026-06-22T21:15:04.000Z</time></trkpt>
        <trkpt lat="27.774982" lon="104.30257"><ele>1892.1536</ele><time>2026-06-22T21:15:05.000Z</time></trkpt>
        <trkpt lat="27.774918" lon="104.302274"><ele>1891.9318</ele><time>2026-06-22T21:15:06.000Z</time></trkpt>
        <trkpt lat="27.774655" lon="104.301705"><ele>1892.0739</ele><time>2026-06-22T21:15:08.000Z</time></trkpt>
        <trkpt lat="27.774655" lon="104.301705"><ele>1892.0739</ele><time>2026-06-22T21:15:08.000Z</time></trkpt>
        <trkpt lat="27.774912" lon="104.301549"><ele>1892.1298</ele><time>2026-06-22T21:15:11.000Z</time></trkpt>
        <trkpt lat="27.774965" lon="104.301464"><ele>1892.3213</ele><time>2026-06-22T21:15:12.000Z</time></trkpt>
        <trkpt lat="27.775039" lon="104.301386"><ele>1892.3604</ele><time>2026-06-22T21:15:13.000Z</time></trkpt>
        <trkpt lat="27.775131" lon="104.301311"><ele>1892.135</ele><time>2026-06-22T21:15:14.000Z</time></trkpt>
        <trkpt lat="27.775216" lon="104.301225"><ele>1892.0385</ele><time>2026-06-22T21:15:15.000Z</time></trkpt>
        <trkpt lat="27.775295" lon="104.301151"><ele>1891.6982</ele><time>2026-06-22T21:15:16.000Z</time></trkpt>
        <trkpt lat="27.775344" lon="104.300876"><ele>1892.0659</ele><time>2026-06-22T21:15:18.000Z</time></trkpt>
        <trkpt lat="27.775756" lon="104.300732"><ele>1891.213</ele><time>2026-06-22T21:15:22.000Z</time></trkpt>
        <trkpt lat="27.775886" lon="104.300612"><ele>1890.9575</ele><time>2026-06-22T21:15:25.000Z</time></trkpt>
        <trkpt lat="27.775829" lon="104.300293"><ele>1891.4917</ele><time>2026-06-22T21:15:27.000Z</time></trkpt>
        <trkpt lat="27.775801" lon="104.300158"><ele>1891.5879</ele><time>2026-06-22T21:15:28.000Z</time></trkpt>
        <trkpt lat="27.775786" lon="104.30004"><ele>1891.4246</ele><time>2026-06-22T21:15:29.000Z</time></trkpt>
        <trkpt lat="27.771137" lon="104.29268"><ele>1875.1404</ele><time>2026-06-22T21:15:46.000Z</time></trkpt>
        <trkpt lat="27.771111" lon="104.292522"><ele>1873.1898</ele><time>2026-06-22T21:15:47.000Z</time></trkpt>
        <trkpt lat="27.771094" lon="104.29238"><ele>1868.3179</ele><time>2026-06-22T21:15:48.000Z</time></trkpt>
        <trkpt lat="27.771073" lon="104.292241"><ele>1863.9631</ele><time>2026-06-22T21:15:49.000Z</time></trkpt>
        <trkpt lat="27.771051" lon="104.292078"><ele>1861.9246</ele><time>2026-06-22T21:15:50.000Z</time></trkpt>
        <trkpt lat="27.771032" lon="104.291929"><ele>1857.6764</ele><time>2026-06-22T21:15:51.000Z</time></trkpt>
        <trkpt lat="27.771014" lon="104.291774"><ele>1855.4193</ele><time>2026-06-22T21:15:52.000Z</time></trkpt>
        <trkpt lat="27.771003" lon="104.291609"><ele>1855.6464</ele><time>2026-06-22T21:15:53.000Z</time></trkpt>
        <trkpt lat="27.770995" lon="104.291444"><ele>1854.3754</ele><time>2026-06-22T21:15:54.000Z</time></trkpt>
        <trkpt lat="27.770993" lon="104.291273"><ele>1852.3074</ele><time>2026-06-22T21:15:55.000Z</time></trkpt>
        <trkpt lat="27.770999" lon="104.291108"><ele>1850.8752</ele><time>2026-06-22T21:15:56.000Z</time></trkpt>
        <trkpt lat="27.771013" lon="104.29094"><ele>1843.8798</ele><time>2026-06-22T21:15:57.000Z</time></trkpt>
        <trkpt lat="27.771031" lon="104.290762"><ele>1841.4076</ele><time>2026-06-22T21:15:58.000Z</time></trkpt>
        <trkpt lat="27.77105" lon="104.290588"><ele>1839.963</ele><time>2026-06-22T21:15:59.000Z</time></trkpt>
        <trkpt lat="27.771072" lon="104.290412"><ele>1839.2063</ele><time>2026-06-22T21:16:00.000Z</time></trkpt>
        <trkpt lat="27.771098" lon="104.290221"><ele>1838.5521</ele><time>2026-06-22T21:16:01.000Z</time></trkpt>
        <trkpt lat="27.771123" lon="104.290041"><ele>1837.7368</ele><time>2026-06-22T21:16:02.000Z</time></trkpt>
        <trkpt lat="27.771149" lon="104.289855"><ele>1837.1088</ele><time>2026-06-22T21:16:03.000Z</time></trkpt>
        <trkpt lat="27.771177" lon="104.28966"><ele>1836.551</ele><time>2026-06-22T21:16:04.000Z</time></trkpt>
        <trkpt lat="27.771215" lon="104.289391"><ele>1836.8384</ele><time>2026-06-22T21:16:05.000Z</time></trkpt>
        <trkpt lat="27.771242" lon="104.289198"><ele>1836.3109</ele><time>2026-06-22T21:16:06.000Z</time></trkpt>
        <trkpt lat="27.771268" lon="104.28901"><ele>1835.9965</ele><time>2026-06-22T21:16:07.000Z</time></trkpt>
        <trkpt lat="27.771295" lon="104.288807"><ele>1836.1938</ele><time>2026-06-22T21:16:08.000Z</time></trkpt>
        <trkpt lat="27.771322" lon="104.288605"><ele>1836.7288</ele><time>2026-06-22T21:16:09.000Z</time></trkpt>
        <trkpt lat="27.771352" lon="104.288404"><ele>1837.3563</ele><time>2026-06-22T21:16:10.000Z</time></trkpt>
        <trkpt lat="27.771384" lon="104.288199"><ele>1837.6508</ele><time>2026-06-22T21:16:11.000Z</time></trkpt>
        <trkpt lat="27.771413" lon="104.287985"><ele>1837.8765</ele><time>2026-06-22T21:16:12.000Z</time></trkpt>
        <trkpt lat="27.771436" lon="104.287772"><ele>1838.5941</ele><time>2026-06-22T21:16:13.000Z</time></trkpt>
        <trkpt lat="27.771451" lon="104.287561"><ele>1840.036</ele><time>2026-06-22T21:16:14.000Z</time></trkpt>
        <trkpt lat="27.77147" lon="104.287357"><ele>1840.3252</ele><time>2026-06-22T21:16:15.000Z</time></trkpt>
        <trkpt lat="27.771474" lon="104.287158"><ele>1840.2478</ele><time>2026-06-22T21:16:16.000Z</time></trkpt>
        <trkpt lat="27.77146" lon="104.286962"><ele>1839.8457</ele><time>2026-06-22T21:16:17.000Z</time></trkpt>
        <trkpt lat="27.771449" lon="104.286756"><ele>1839.8844</ele><time>2026-06-22T21:16:18.000Z</time></trkpt>
        <trkpt lat="27.77143" lon="104.286551"><ele>1840.15</ele><time>2026-06-22T21:16:19.000Z</time></trkpt>
        <trkpt lat="27.771375" lon="104.286375"><ele>1840.5594</ele><time>2026-06-22T21:16:20.000Z</time></trkpt>
        <trkpt lat="27.771291" lon="104.28621"><ele>1841.6666</ele><time>2026-06-22T21:16:21.000Z</time></trkpt>
        <trkpt lat="27.771216" lon="104.286022"><ele>1844.2499</ele><time>2026-06-22T21:16:22.000Z</time></trkpt>
        <trkpt lat="27.771167" lon="104.285849"><ele>1844.0553</ele><time>2026-06-22T21:16:23.000Z</time></trkpt>
        <trkpt lat="27.771126" lon="104.285668"><ele>1846.2548</ele><time>2026-06-22T21:16:24.000Z</time></trkpt>
        <trkpt lat="27.771097" lon="104.285503"><ele>1846.632</ele><time>2026-06-22T21:16:25.000Z</time></trkpt>
        <trkpt lat="27.771074" lon="104.285334"><ele>1846.3566</ele><time>2026-06-22T21:16:26.000Z</time></trkpt>
        <trkpt lat="27.771025" lon="104.285172"><ele>1846.2161</ele><time>2026-06-22T21:16:27.000Z</time></trkpt>
        <trkpt lat="27.770998" lon="104.285002"><ele>1845.4536</ele><time>2026-06-22T21:16:28.000Z</time></trkpt>
        <trkpt lat="27.770999" lon="104.284824"><ele>1844.3589</ele><time>2026-06-22T21:16:29.000Z</time></trkpt>
        <trkpt lat="27.771019" lon="104.284657"><ele>1843.1926</ele><time>2026-06-22T21:16:30.000Z</time></trkpt>
        <trkpt lat="27.77103" lon="104.284498"><ele>1842.4514</ele><time>2026-06-22T21:16:31.000Z</time></trkpt>
        <trkpt lat="27.771043" lon="104.284328"><ele>1842.1608</ele><time>2026-06-22T21:16:32.000Z</time></trkpt>
        <trkpt lat="27.771076" lon="104.284146"><ele>1842.0287</ele><time>2026-06-22T21:16:33.000Z</time></trkpt>
        <trkpt lat="27.771095" lon="104.28395"><ele>1841.4572</ele><time>2026-06-22T21:16:34.000Z</time></trkpt>
        <trkpt lat="27.771112" lon="104.283754"><ele>1840.6997</ele><time>2026-06-22T21:16:35.000Z</time></trkpt>
        <trkpt lat="27.771127" lon="104.28356"><ele>1840.5044</ele><time>2026-06-22T21:16:36.000Z</time></trkpt>
        <trkpt lat="27.771146" lon="104.283368"><ele>1841.1205</ele><time>2026-06-22T21:16:37.000Z</time></trkpt>
        <trkpt lat="27.771158" lon="104.283182"><ele>1841.3021</ele><time>2026-06-22T21:16:38.000Z</time></trkpt>
        <trkpt lat="27.771168" lon="104.282999"><ele>1841.7999</ele><time>2026-06-22T21:16:39.000Z</time></trkpt>
        <trkpt lat="27.771164" lon="104.282822"><ele>1842.0204</ele><time>2026-06-22T21:16:40.000Z</time></trkpt>
        <trkpt lat="27.771151" lon="104.282645"><ele>1842.5082</ele><time>2026-06-22T21:16:41.000Z</time></trkpt>
        <trkpt lat="27.77113" lon="104.282466"><ele>1842.5463</ele><time>2026-06-22T21:16:42.000Z</time></trkpt>
        <trkpt lat="27.771088" lon="104.282291"><ele>1842.0464</ele><time>2026-06-22T21:16:43.000Z</time></trkpt>
        <trkpt lat="27.77105" lon="104.282113"><ele>1841.6758</ele><time>2026-06-22T21:16:44.000Z</time></trkpt>
        <trkpt lat="27.770985" lon="104.281937"><ele>1841.0134</ele><time>2026-06-22T21:16:45.000Z</time></trkpt>
        <trkpt lat="27.770929" lon="104.281752"><ele>1840.0892</ele><time>2026-06-22T21:16:46.000Z</time></trkpt>
        <trkpt lat="27.770878" lon="104.281566"><ele>1839.2369</ele><time>2026-06-22T21:16:47.000Z</time></trkpt>
        <trkpt lat="27.770829" lon="104.281385"><ele>1838.2053</ele><time>2026-06-22T21:16:48.000Z</time></trkpt>
        <trkpt lat="27.770792" lon="104.281201"><ele>1838.366</ele><time>2026-06-22T21:16:49.000Z</time></trkpt>
        <trkpt lat="27.770761" lon="104.281012"><ele>1838.1385</ele><time>2026-06-22T21:16:50.000Z</time></trkpt>
        <trkpt lat="27.770734" lon="104.280819"><ele>1837.748</ele><time>2026-06-22T21:16:51.000Z</time></trkpt>
        <trkpt lat="27.770719" lon="104.28061"><ele>1836.5775</ele><time>2026-06-22T21:16:52.000Z</time></trkpt>
        <trkpt lat="27.770717" lon="104.280396"><ele>1835.9109</ele><time>2026-06-22T21:16:53.000Z</time></trkpt>
        <trkpt lat="27.770727" lon="104.280173"><ele>1835.4628</ele><time>2026-06-22T21:16:54.000Z</time></trkpt>
        <trkpt lat="27.770739" lon="104.279941"><ele>1834.9255</ele><time>2026-06-22T21:16:55.000Z</time></trkpt>
        <trkpt lat="27.770763" lon="104.279707"><ele>1834.4932</ele><time>2026-06-22T21:16:56.000Z</time></trkpt>
        <trkpt lat="27.770765" lon="104.279488"><ele>1834.1781</ele><time>2026-06-22T21:16:57.000Z</time></trkpt>
        <trkpt lat="27.770773" lon="104.279245"><ele>1833.0953</ele><time>2026-06-22T21:16:58.000Z</time></trkpt>
        <trkpt lat="27.770794" lon="104.278998"><ele>1831.6779</ele><time>2026-06-22T21:16:59.000Z</time></trkpt>
        <trkpt lat="27.770819" lon="104.278731"><ele>1831.2097</ele><time>2026-06-22T21:17:00.000Z</time></trkpt>
        <trkpt lat="27.770847" lon="104.278473"><ele>1830.8846</ele><time>2026-06-22T21:17:01.000Z</time></trkpt>
        <trkpt lat="27.770871" lon="104.278211"><ele>1831.3545</ele><time>2026-06-22T21:17:02.000Z</time></trkpt>
        <trkpt lat="27.770895" lon="104.277957"><ele>1832.504</ele><time>2026-06-22T21:17:03.000Z</time></trkpt>
        <trkpt lat="27.770918" lon="104.277698"><ele>1831.4138</ele><time>2026-06-22T21:17:04.000Z</time></trkpt>
        <trkpt lat="27.770939" lon="104.277441"><ele>1831.3197</ele><time>2026-06-22T21:17:05.000Z</time></trkpt>
        <trkpt lat="27.770966" lon="104.27719"><ele>1829.8323</ele><time>2026-06-22T21:17:06.000Z</time></trkpt>
        <trkpt lat="27.770999" lon="104.276951"><ele>1829.5765</ele><time>2026-06-22T21:17:07.000Z</time></trkpt>
        <trkpt lat="27.771042" lon="104.276725"><ele>1829.2198</ele><time>2026-06-22T21:17:08.000Z</time></trkpt>
        <trkpt lat="27.7711" lon="104.27652"><ele>1828.9049</ele><time>2026-06-22T21:17:09.000Z</time></trkpt>
        <trkpt lat="27.77117" lon="104.276322"><ele>1830.5093</ele><time>2026-06-22T21:17:10.000Z</time></trkpt>
        <trkpt lat="27.771247" lon="104.276132"><ele>1830.7018</ele><time>2026-06-22T21:17:11.000Z</time></trkpt>
        <trkpt lat="27.771343" lon="104.275943"><ele>1830.5741</ele><time>2026-06-22T21:17:12.000Z</time></trkpt>
        <trkpt lat="27.771441" lon="104.275761"><ele>1830.1305</ele><time>2026-06-22T21:17:13.000Z</time></trkpt>
        <trkpt lat="27.771543" lon="104.275586"><ele>1829.3005</ele><time>2026-06-22T21:17:14.000Z</time></trkpt>
        <trkpt lat="27.771663" lon="104.275408"><ele>1828.1013</ele><time>2026-06-22T21:17:15.000Z</time></trkpt>
        <trkpt lat="27.771792" lon="104.27524"><ele>1827.9796</ele><time>2026-06-22T21:17:16.000Z</time></trkpt>
        <trkpt lat="27.771915" lon="104.275067"><ele>1826.9685</ele><time>2026-06-22T21:17:17.000Z</time></trkpt>
        <trkpt lat="27.772042" lon="104.274891"><ele>1826.654</ele><time>2026-06-22T21:17:18.000Z</time></trkpt>
        <trkpt lat="27.772169" lon="104.274714"><ele>1825.9697</ele><time>2026-06-22T21:17:19.000Z</time></trkpt>
        <trkpt lat="27.772302" lon="104.27453"><ele>1825.7316</ele><time>2026-06-22T21:17:20.000Z</time></trkpt>
        <trkpt lat="27.772437" lon="104.274345"><ele>1824.9945</ele><time>2026-06-22T21:17:21.000Z</time></trkpt>
        <trkpt lat="27.77257" lon="104.274155"><ele>1824.724</ele><time>2026-06-22T21:17:22.000Z</time></trkpt>
        <trkpt lat="27.772708" lon="104.273967"><ele>1824.267</ele><time>2026-06-22T21:17:23.000Z</time></trkpt>
        <trkpt lat="27.772843" lon="104.273776"><ele>1823.7389</ele><time>2026-06-22T21:17:24.000Z</time></trkpt>
        <trkpt lat="27.77298" lon="104.273583"><ele>1823.2886</ele><time>2026-06-22T21:17:25.000Z</time></trkpt>
        <trkpt lat="27.773115" lon="104.273389"><ele>1822.657</ele><time>2026-06-22T21:17:26.000Z</time></trkpt>
        <trkpt lat="27.773255" lon="104.2732"><ele>1822.1033</ele><time>2026-06-22T21:17:27.000Z</time></trkpt>
        <trkpt lat="27.773389" lon="104.273012"><ele>1821.4409</ele><time>2026-06-22T21:17:28.000Z</time></trkpt>
        <trkpt lat="27.773522" lon="104.272825"><ele>1820.5663</ele><time>2026-06-22T21:17:29.000Z</time></trkpt>
        <trkpt lat="27.773651" lon="104.272634"><ele>1819.7452</ele><time>2026-06-22T21:17:30.000Z</time></trkpt>
        <trkpt lat="27.773757" lon="104.272427"><ele>1818.9991</ele><time>2026-06-22T21:17:31.000Z</time></trkpt>
        <trkpt lat="27.77386" lon="104.272241"><ele>1818.2897</ele><time>2026-06-22T21:17:32.000Z</time></trkpt>
        <trkpt lat="27.773948" lon="104.272066"><ele>1817.2416</ele><time>2026-06-22T21:17:33.000Z</time></trkpt>
        <trkpt lat="27.774024" lon="104.271901"><ele>1816.4733</ele><time>2026-06-22T21:17:34.000Z</time></trkpt>
        <trkpt lat="27.774101" lon="104.271746"><ele>1816.1031</ele><time>2026-06-22T21:17:35.000Z</time></trkpt>
        <trkpt lat="27.774149" lon="104.271584"><ele>1815.763</ele><time>2026-06-22T21:17:36.000Z</time></trkpt>
        <trkpt lat="27.774191" lon="104.271417"><ele>1815.3292</ele><time>2026-06-22T21:17:37.000Z</time></trkpt>
        <trkpt lat="27.774237" lon="104.271257"><ele>1814.7988</ele><time>2026-06-22T21:17:38.000Z</time></trkpt>
        <trkpt lat="27.774288" lon="104.271099"><ele>1815.0061</ele><time>2026-06-22T21:17:39.000Z</time></trkpt>
        <trkpt lat="27.774323" lon="104.270927"><ele>1815.1975</ele><time>2026-06-22T21:17:40.000Z</time></trkpt>
        <trkpt lat="27.774347" lon="104.270743"><ele>1815.4269</ele><time>2026-06-22T21:17:41.000Z</time></trkpt>
        <trkpt lat="27.774349" lon="104.270553"><ele>1814.1991</ele><time>2026-06-22T21:17:42.000Z</time></trkpt>
        <trkpt lat="27.774355" lon="104.270358"><ele>1814.0051</ele><time>2026-06-22T21:17:43.000Z</time></trkpt>
        <trkpt lat="27.774349" lon="104.270161"><ele>1813.5902</ele><time>2026-06-22T21:17:44.000Z</time></trkpt>
        <trkpt lat="27.774343" lon="104.269963"><ele>1813.5067</ele><time>2026-06-22T21:17:45.000Z</time></trkpt>
        <trkpt lat="27.774323" lon="104.269759"><ele>1812.8787</ele><time>2026-06-22T21:17:46.000Z</time></trkpt>
        <trkpt lat="27.774299" lon="104.269552"><ele>1812.2445</ele><time>2026-06-22T21:17:47.000Z</time></trkpt>
        <trkpt lat="27.774272" lon="104.269343"><ele>1811.4967</ele><time>2026-06-22T21:17:48.000Z</time></trkpt>
        <trkpt lat="27.774246" lon="104.269129"><ele>1811.0806</ele><time>2026-06-22T21:17:49.000Z</time></trkpt>
        <trkpt lat="27.77422" lon="104.268913"><ele>1810.5883</ele><time>2026-06-22T21:17:50.000Z</time></trkpt>
        <trkpt lat="27.774195" lon="104.268692"><ele>1810.2527</ele><time>2026-06-22T21:17:51.000Z</time></trkpt>
        <trkpt lat="27.774169" lon="104.268469"><ele>1809.9755</ele><time>2026-06-22T21:17:52.000Z</time></trkpt>
        <trkpt lat="27.774137" lon="104.268247"><ele>1809.5105</ele><time>2026-06-22T21:17:53.000Z</time></trkpt>
        <trkpt lat="27.774106" lon="104.268023"><ele>1809.4674</ele><time>2026-06-22T21:17:54.000Z</time></trkpt>
        <trkpt lat="27.774077" lon="104.267799"><ele>1808.9999</ele><time>2026-06-22T21:17:55.000Z</time></trkpt>
        <trkpt lat="27.774049" lon="104.267574"><ele>1808.6312</ele><time>2026-06-22T21:17:56.000Z</time></trkpt>
        <trkpt lat="27.774024" lon="104.267347"><ele>1808.2356</ele><time>2026-06-22T21:17:57.000Z</time></trkpt>
        <trkpt lat="27.774005" lon="104.26712"><ele>1808.1478</ele><time>2026-06-22T21:17:58.000Z</time></trkpt>
        <trkpt lat="27.773995" lon="104.266892"><ele>1807.9668</ele><time>2026-06-22T21:17:59.000Z</time></trkpt>
        <trkpt lat="27.773992" lon="104.266664"><ele>1807.5814</ele><time>2026-06-22T21:18:00.000Z</time></trkpt>
        <trkpt lat="27.774" lon="104.266437"><ele>1807.7761</ele><time>2026-06-22T21:18:01.000Z</time></trkpt>
        <trkpt lat="27.774019" lon="104.266209"><ele>1807.4451</ele><time>2026-06-22T21:18:02.000Z</time></trkpt>
        <trkpt lat="27.774039" lon="104.265976"><ele>1807.2856</ele><time>2026-06-22T21:18:03.000Z</time></trkpt>
        <trkpt lat="27.77407" lon="104.265749"><ele>1807.106</ele><time>2026-06-22T21:18:04.000Z</time></trkpt>
        <trkpt lat="27.774111" lon="104.26552"><ele>1806.6877</ele><time>2026-06-22T21:18:05.000Z</time></trkpt>
        <trkpt lat="27.774146" lon="104.265291"><ele>1806.485</ele><time>2026-06-22T21:18:06.000Z</time></trkpt>
        <trkpt lat="27.774179" lon="104.265057"><ele>1805.9043</ele><time>2026-06-22T21:18:07.000Z</time></trkpt>
        <trkpt lat="27.774214" lon="104.264827"><ele>1805.7289</ele><time>2026-06-22T21:18:08.000Z</time></trkpt>
        <trkpt lat="27.774249" lon="104.264592"><ele>1805.2273</ele><time>2026-06-22T21:18:09.000Z</time></trkpt>
        <trkpt lat="27.774286" lon="104.264357"><ele>1804.8333</ele><time>2026-06-22T21:18:10.000Z</time></trkpt>
        <trkpt lat="27.774322" lon="104.264121"><ele>1804.7773</ele><time>2026-06-22T21:18:11.000Z</time></trkpt>
        <trkpt lat="27.774358" lon="104.263883"><ele>1804.3062</ele><time>2026-06-22T21:18:12.000Z</time></trkpt>
        <trkpt lat="27.774395" lon="104.263643"><ele>1803.8298</ele><time>2026-06-22T21:18:13.000Z</time></trkpt>
        <trkpt lat="27.774431" lon="104.263407"><ele>1803.6034</ele><time>2026-06-22T21:18:14.000Z</time></trkpt>
        <trkpt lat="27.774467" lon="104.263169"><ele>1803.5425</ele><time>2026-06-22T21:18:15.000Z</time></trkpt>
        <trkpt lat="27.774495" lon="104.262928"><ele>1803.1956</ele><time>2026-06-22T21:18:16.000Z</time></trkpt>
        <trkpt lat="27.77451" lon="104.262683"><ele>1802.7406</ele><time>2026-06-22T21:18:17.000Z</time></trkpt>
        <trkpt lat="27.774519" lon="104.262442"><ele>1802.4495</ele><time>2026-06-22T21:18:18.000Z</time></trkpt>
        <trkpt lat="27.774519" lon="104.262199"><ele>1802.2031</ele><time>2026-06-22T21:18:19.000Z</time></trkpt>
        <trkpt lat="27.774508" lon="104.261954"><ele>1801.7916</ele><time>2026-06-22T21:18:20.000Z</time></trkpt>
        <trkpt lat="27.774489" lon="104.261712"><ele>1802.9425</ele><time>2026-06-22T21:18:21.000Z</time></trkpt>
        <trkpt lat="27.774458" lon="104.261473"><ele>1804.2651</ele><time>2026-06-22T21:18:22.000Z</time></trkpt>
        <trkpt lat="27.77442" lon="104.261237"><ele>1806.0071</ele><time>2026-06-22T21:18:23.000Z</time></trkpt>
        <trkpt lat="27.774369" lon="104.261003"><ele>1806.7546</ele><time>2026-06-22T21:18:24.000Z</time></trkpt>
        <trkpt lat="27.774301" lon="104.260775"><ele>1807.417</ele><time>2026-06-22T21:18:25.000Z</time></trkpt>
        <trkpt lat="27.774229" lon="104.260551"><ele>1807.5695</ele><time>2026-06-22T21:18:26.000Z</time></trkpt>
        <trkpt lat="27.774157" lon="104.260333"><ele>1808.1322</ele><time>2026-06-22T21:18:27.000Z</time></trkpt>
        <trkpt lat="27.774087" lon="104.260123"><ele>1808.6895</ele><time>2026-06-22T21:18:28.000Z</time></trkpt>
        <trkpt lat="27.774019" lon="104.259919"><ele>1809.1001</ele><time>2026-06-22T21:18:29.000Z</time></trkpt>
        <trkpt lat="27.773951" lon="104.259725"><ele>1808.1038</ele><time>2026-06-22T21:18:30.000Z</time></trkpt>
        <trkpt lat="27.773879" lon="104.259544"><ele>1807.8033</ele><time>2026-06-22T21:18:31.000Z</time></trkpt>
        <trkpt lat="27.773811" lon="104.259368"><ele>1807.5953</ele><time>2026-06-22T21:18:32.000Z</time></trkpt>
        <trkpt lat="27.773749" lon="104.259198"><ele>1807.1703</ele><time>2026-06-22T21:18:33.000Z</time></trkpt>
        <trkpt lat="27.773693" lon="104.259035"><ele>1806.6581</ele><time>2026-06-22T21:18:34.000Z</time></trkpt>
        <trkpt lat="27.773638" lon="104.258885"><ele>1806.3192</ele><time>2026-06-22T21:18:35.000Z</time></trkpt>
        <trkpt lat="27.773591" lon="104.258745"><ele>1806.497</ele><time>2026-06-22T21:18:36.000Z</time></trkpt>
        <trkpt lat="27.773547" lon="104.258614"><ele>1806.7075</ele><time>2026-06-22T21:18:37.000Z</time></trkpt>
        <trkpt lat="27.773507" lon="104.258486"><ele>1806.8198</ele><time>2026-06-22T21:18:38.000Z</time></trkpt>
        <trkpt lat="27.773468" lon="104.258359"><ele>1807.0872</ele><time>2026-06-22T21:18:39.000Z</time></trkpt>
        <trkpt lat="27.773428" lon="104.258238"><ele>1808.0056</ele><time>2026-06-22T21:18:40.000Z</time></trkpt>
        <trkpt lat="27.773383" lon="104.258111"><ele>1808.113</ele><time>2026-06-22T21:18:41.000Z</time></trkpt>
        <trkpt lat="27.773337" lon="104.257985"><ele>1808.4259</ele><time>2026-06-22T21:18:42.000Z</time></trkpt>
        <trkpt lat="27.773288" lon="104.257861"><ele>1808.6255</ele><time>2026-06-22T21:18:43.000Z</time></trkpt>
        <trkpt lat="27.773241" lon="104.257738"><ele>1809.1482</ele><time>2026-06-22T21:18:44.000Z</time></trkpt>
        <trkpt lat="27.773197" lon="104.257616"><ele>1809.737</ele><time>2026-06-22T21:18:45.000Z</time></trkpt>
        <trkpt lat="27.773158" lon="104.257496"><ele>1810.7891</ele><time>2026-06-22T21:18:46.000Z</time></trkpt>
        <trkpt lat="27.773113" lon="104.257373"><ele>1810.9845</ele><time>2026-06-22T21:18:47.000Z</time></trkpt>
        <trkpt lat="27.773073" lon="104.257262"><ele>1811.2566</ele><time>2026-06-22T21:18:48.000Z</time></trkpt>
        <trkpt lat="27.773038" lon="104.257166"><ele>1811.5076</ele><time>2026-06-22T21:18:49.000Z</time></trkpt>
        <trkpt lat="27.773005" lon="104.257073"><ele>1811.4255</ele><time>2026-06-22T21:18:50.000Z</time></trkpt>
        <trkpt lat="27.772975" lon="104.256982"><ele>1811.2817</ele><time>2026-06-22T21:18:51.000Z</time></trkpt>
        <trkpt lat="27.772942" lon="104.256899"><ele>1811.2395</ele><time>2026-06-22T21:18:52.000Z</time></trkpt>
        <trkpt lat="27.77291" lon="104.256813"><ele>1811.2355</ele><time>2026-06-22T21:18:53.000Z</time></trkpt>
        <trkpt lat="27.77289" lon="104.256728"><ele>1811.1533</ele><time>2026-06-22T21:18:54.000Z</time></trkpt>
        <trkpt lat="27.772869" lon="104.256641"><ele>1810.9642</ele><time>2026-06-22T21:18:55.000Z</time></trkpt>
        <trkpt lat="27.77283" lon="104.25655"><ele>1810.6265</ele><time>2026-06-22T21:18:56.000Z</time></trkpt>
        <trkpt lat="27.772789" lon="104.256453"><ele>1810.5116</ele><time>2026-06-22T21:18:57.000Z</time></trkpt>
        <trkpt lat="27.772758" lon="104.256345"><ele>1810.5559</ele><time>2026-06-22T21:18:58.000Z</time></trkpt>
        <trkpt lat="27.772723" lon="104.256231"><ele>1810.7511</ele><time>2026-06-22T21:18:59.000Z</time></trkpt>
        <trkpt lat="27.772685" lon="104.256109"><ele>1810.9261</ele><time>2026-06-22T21:19:00.000Z</time></trkpt>
        <trkpt lat="27.772639" lon="104.255979"><ele>1811.0868</ele><time>2026-06-22T21:19:01.000Z</time></trkpt>
        <trkpt lat="27.77259" lon="104.255844"><ele>1811.0984</ele><time>2026-06-22T21:19:02.000Z</time></trkpt>
        <trkpt lat="27.77254" lon="104.255705"><ele>1811.1064</ele><time>2026-06-22T21:19:03.000Z</time></trkpt>
        <trkpt lat="27.772479" lon="104.25557"><ele>1811.396</ele><time>2026-06-22T21:19:04.000Z</time></trkpt>
        <trkpt lat="27.7724" lon="104.255446"><ele>1811.7527</ele><time>2026-06-22T21:19:05.000Z</time></trkpt>
        <trkpt lat="27.772303" lon="104.255333"><ele>1811.8396</ele><time>2026-06-22T21:19:06.000Z</time></trkpt>
        <trkpt lat="27.772191" lon="104.255222"><ele>1812.1473</ele><time>2026-06-22T21:19:07.000Z</time></trkpt>
        <trkpt lat="27.772078" lon="104.255119"><ele>1812.4718</ele><time>2026-06-22T21:19:08.000Z</time></trkpt>
        <trkpt lat="27.771965" lon="104.25502"><ele>1812.7319</ele><time>2026-06-22T21:19:09.000Z</time></trkpt>
        <trkpt lat="27.771843" lon="104.254919"><ele>1813.163</ele><time>2026-06-22T21:19:10.000Z</time></trkpt>
        <trkpt lat="27.771722" lon="104.254819"><ele>1813.4309</ele><time>2026-06-22T21:19:11.000Z</time></trkpt>
        <trkpt lat="27.7716" lon="104.254715"><ele>1813.7112</ele><time>2026-06-22T21:19:12.000Z</time></trkpt>
        <trkpt lat="27.771485" lon="104.254597"><ele>1813.8986</ele><time>2026-06-22T21:19:13.000Z</time></trkpt>
        <trkpt lat="27.771362" lon="104.254484"><ele>1813.3254</ele><time>2026-06-22T21:19:14.000Z</time></trkpt>
        <trkpt lat="27.771232" lon="104.254374"><ele>1812.47</ele><time>2026-06-22T21:19:15.000Z</time></trkpt>
        <trkpt lat="27.771105" lon="104.254265"><ele>1811.1162</ele><time>2026-06-22T21:19:16.000Z</time></trkpt>
        <trkpt lat="27.770976" lon="104.254155"><ele>1809.6172</ele><time>2026-06-22T21:19:17.000Z</time></trkpt>
        <trkpt lat="27.770849" lon="104.254045"><ele>1808.1592</ele><time>2026-06-22T21:19:18.000Z</time></trkpt>
        <trkpt lat="27.770721" lon="104.253934"><ele>1808.288</ele><time>2026-06-22T21:19:19.000Z</time></trkpt>
        <trkpt lat="27.770611" lon="104.253833"><ele>1808.2986</ele><time>2026-06-22T21:19:20.000Z</time></trkpt>
        <trkpt lat="27.770515" lon="104.253745"><ele>1807.9208</ele><time>2026-06-22T21:19:21.000Z</time></trkpt>
        <trkpt lat="27.770433" lon="104.25367"><ele>1807.484</ele><time>2026-06-22T21:19:22.000Z</time></trkpt>
        <trkpt lat="27.770353" lon="104.253612"><ele>1807.7561</ele><time>2026-06-22T21:19:23.000Z</time></trkpt>
        <trkpt lat="27.770273" lon="104.253555"><ele>1807.8027</ele><time>2026-06-22T21:19:24.000Z</time></trkpt>
        <trkpt lat="27.770194" lon="104.253482"><ele>1807.3607</ele><time>2026-06-22T21:19:25.000Z</time></trkpt>
        <trkpt lat="27.770117" lon="104.253399"><ele>1806.7251</ele><time>2026-06-22T21:19:26.000Z</time></trkpt>
        <trkpt lat="27.770038" lon="104.253317"><ele>1805.8395</ele><time>2026-06-22T21:19:27.000Z</time></trkpt>
        <trkpt lat="27.769968" lon="104.253231"><ele>1805.3489</ele><time>2026-06-22T21:19:28.000Z</time></trkpt>
        <trkpt lat="27.769907" lon="104.253136"><ele>1805.0488</ele><time>2026-06-22T21:19:29.000Z</time></trkpt>
        <trkpt lat="27.769842" lon="104.253027"><ele>1804.8445</ele><time>2026-06-22T21:19:30.000Z</time></trkpt>
        <trkpt lat="27.769776" lon="104.2529"><ele>1804.7751</ele><time>2026-06-22T21:19:31.000Z</time></trkpt>
        <trkpt lat="27.769712" lon="104.252763"><ele>1804.9127</ele><time>2026-06-22T21:19:32.000Z</time></trkpt>
        <trkpt lat="27.769656" lon="104.252619"><ele>1805.7363</ele><time>2026-06-22T21:19:33.000Z</time></trkpt>
        <trkpt lat="27.769609" lon="104.252465"><ele>1805.5779</ele><time>2026-06-22T21:19:34.000Z</time></trkpt>
        <trkpt lat="27.769566" lon="104.252297"><ele>1804.7847</ele><time>2026-06-22T21:19:35.000Z</time></trkpt>
        <trkpt lat="27.76952" lon="104.252123"><ele>1803.0908</ele><time>2026-06-22T21:19:36.000Z</time></trkpt>
        <trkpt lat="27.769476" lon="104.251946"><ele>1803.08</ele><time>2026-06-22T21:19:37.000Z</time></trkpt>
        <trkpt lat="27.769437" lon="104.251769"><ele>1803.0555</ele><time>2026-06-22T21:19:38.000Z</time></trkpt>
        <trkpt lat="27.769401" lon="104.251589"><ele>1802.7772</ele><time>2026-06-22T21:19:39.000Z</time></trkpt>
        <trkpt lat="27.769367" lon="104.251407"><ele>1802.2806</ele><time>2026-06-22T21:19:40.000Z</time></trkpt>
        <trkpt lat="27.769313" lon="104.251225"><ele>1801.7964</ele><time>2026-06-22T21:19:41.000Z</time></trkpt>
        <trkpt lat="27.769278" lon="104.251036"><ele>1801.2938</ele><time>2026-06-22T21:19:42.000Z</time></trkpt>
        <trkpt lat="27.769259" lon="104.250843"><ele>1801.2407</ele><time>2026-06-22T21:19:43.000Z</time></trkpt>
        <trkpt lat="27.769223" lon="104.250659"><ele>1801.6925</ele><time>2026-06-22T21:19:44.000Z</time></trkpt>
        <trkpt lat="27.769191" lon="104.250486"><ele>1801.9136</ele><time>2026-06-22T21:19:45.000Z</time></trkpt>
        <trkpt lat="27.769161" lon="104.250333"><ele>1802.4403</ele><time>2026-06-22T21:19:46.000Z</time></trkpt>
        <trkpt lat="27.769138" lon="104.25019"><ele>1802.6132</ele><time>2026-06-22T21:19:47.000Z</time></trkpt>
        <trkpt lat="27.7691" lon="104.250058"><ele>1802.9288</ele><time>2026-06-22T21:19:48.000Z</time></trkpt>
        <trkpt lat="27.769093" lon="104.249925"><ele>1803.0118</ele><time>2026-06-22T21:19:49.000Z</time></trkpt>
        <trkpt lat="27.769067" lon="104.249804"><ele>1803.4567</ele><time>2026-06-22T21:19:50.000Z</time></trkpt>
        <trkpt lat="27.769047" lon="104.249694"><ele>1803.9658</ele><time>2026-06-22T21:19:51.000Z</time></trkpt>
        <trkpt lat="27.769028" lon="104.249593"><ele>1804.0619</ele><time>2026-06-22T21:19:52.000Z</time></trkpt>
        <trkpt lat="27.769009" lon="104.249499"><ele>1803.9703</ele><time>2026-06-22T21:19:53.000Z</time></trkpt>
        <trkpt lat="27.76899" lon="104.249401"><ele>1803.756</ele><time>2026-06-22T21:19:54.000Z</time></trkpt>
        <trkpt lat="27.768971" lon="104.2493"><ele>1803.4719</ele><time>2026-06-22T21:19:55.000Z</time></trkpt>
        <trkpt lat="27.768953" lon="104.249196"><ele>1803.0876</ele><time>2026-06-22T21:19:56.000Z</time></trkpt>
        <trkpt lat="27.768935" lon="104.249092"><ele>1802.7706</ele><time>2026-06-22T21:19:57.000Z</time></trkpt>
        <trkpt lat="27.768916" lon="104.248987"><ele>1802.3313</ele><time>2026-06-22T21:19:58.000Z</time></trkpt>
        <trkpt lat="27.768897" lon="104.248882"><ele>1801.7611</ele><time>2026-06-22T21:19:59.000Z</time></trkpt>
        <trkpt lat="27.768879" lon="104.248779"><ele>1801.3665</ele><time>2026-06-22T21:20:00.000Z</time></trkpt>
        <trkpt lat="27.768861" lon="104.248679"><ele>1801.3302</ele><time>2026-06-22T21:20:01.000Z</time></trkpt>
        <trkpt lat="27.76884" lon="104.248583"><ele>1801.5215</ele><time>2026-06-22T21:20:02.000Z</time></trkpt>
        <trkpt lat="27.76882" lon="104.248493"><ele>1801.9178</ele><time>2026-06-22T21:20:03.000Z</time></trkpt>
        <trkpt lat="27.7688" lon="104.248405"><ele>1802.4415</ele><time>2026-06-22T21:20:04.000Z</time></trkpt>
        <trkpt lat="27.768781" lon="104.248322"><ele>1802.5927</ele><time>2026-06-22T21:20:05.000Z</time></trkpt>
        <trkpt lat="27.768763" lon="104.248239"><ele>1802.7147</ele><time>2026-06-22T21:20:06.000Z</time></trkpt>
        <trkpt lat="27.768749" lon="104.248156"><ele>1802.8557</ele><time>2026-06-22T21:20:07.000Z</time></trkpt>
        <trkpt lat="27.768735" lon="104.248075"><ele>1802.936</ele><time>2026-06-22T21:20:08.000Z</time></trkpt>
        <trkpt lat="27.768722" lon="104.248"><ele>1803.0881</ele><time>2026-06-22T21:20:09.000Z</time></trkpt>
        <trkpt lat="27.768711" lon="104.247943"><ele>1803.1273</ele><time>2026-06-22T21:20:10.000Z</time></trkpt>
        <trkpt lat="27.768694" lon="104.247877"><ele>1803.2933</ele><time>2026-06-22T21:20:12.000Z</time></trkpt>
        <trkpt lat="27.768689" lon="104.24782"><ele>1803.5809</ele><time>2026-06-22T21:20:18.000Z</time></trkpt>
        <trkpt lat="27.76868" lon="104.247764"><ele>1804.6819</ele><time>2026-06-22T21:21:04.000Z</time></trkpt>
        <trkpt lat="27.768689" lon="104.247818"><ele>1804.2782</ele><time>2026-06-22T21:21:18.000Z</time></trkpt>
        <trkpt lat="27.768698" lon="104.247868"><ele>1804.9634</ele><time>2026-06-22T21:21:24.000Z</time></trkpt>
        <trkpt lat="27.768738" lon="104.247962"><ele>1804.6064</ele><time>2026-06-22T21:21:49.000Z</time></trkpt>
        <trkpt lat="27.768758" lon="104.24791"><ele>1804.6475</ele><time>2026-06-22T21:22:09.000Z</time></trkpt>
        <trkpt lat="27.768777" lon="104.247823"><ele>1805.2522</ele><time>2026-06-22T21:22:19.000Z</time></trkpt>
        <trkpt lat="27.768695" lon="104.247901"><ele>1804.7002</ele><time>2026-06-22T21:22:44.000Z</time></trkpt>
        <trkpt lat="27.768496" lon="104.248112"><ele>1804.0529</ele><time>2026-06-22T21:23:01.000Z</time></trkpt>
        <trkpt lat="27.768465" lon="104.248137"><ele>1804.0934</ele><time>2026-06-22T21:23:10.000Z</time></trkpt>
        <trkpt lat="27.768588" lon="104.248012"><ele>1803.9034</ele><time>2026-06-22T21:23:35.000Z</time></trkpt>
      </trkseg>
  </trk>
</gpx>